Provisional Data: Little Muncy Creek near Moreland, PA


Please select a monitoring station.
Please select start date.
Please select start date.

Toggle Unit: C/F Toggle Unit: C/F
Sample Time Temperature (C) Temperature (F) Specific Conductivity (mS/cm) pH   Turbidity (NTU+) DO (mg/L)
5/4/2021 12:00:00 AM 14 57.2 0.1 7.04 1.92 9.3
5/4/2021 12:15:00 AM 13.98 57.164 0.1 7.03 1.94 9.31
5/4/2021 12:30:00 AM 13.95 57.11 0.1 7.04 1.93 9.31
5/4/2021 12:45:00 AM 13.93 57.074 0.1 7.04 1.91 9.33
5/4/2021 1:00:00 AM 13.9 57.02 0.101 7.04 1.74 9.34
5/4/2021 1:15:00 AM 13.87 56.966 0.101 7.04 1.81 9.34
5/4/2021 1:30:00 AM 13.85 56.93 0.101 7.02 1.72 9.35
5/4/2021 1:45:00 AM 13.81 56.858 0.101 7.04 1.7 9.37
5/4/2021 2:00:00 AM 13.78 56.804 0.101 7.04 1.96 9.37
5/4/2021 2:15:00 AM 13.76 56.768 0.101 7.04 1.81 9.37
5/4/2021 2:30:00 AM 13.73 56.714 0.101 7.05 2.01 9.39
5/4/2021 2:45:00 AM 13.7 56.66 0.101 7.04 1.89 9.39
5/4/2021 3:00:00 AM 13.68 56.624 0.101 7.04 1.75 9.4
5/4/2021 3:15:00 AM 13.65 56.57 0.101 7.04 1.83 9.41
5/4/2021 3:30:00 AM 13.63 56.534 0.101 7.04 1.69 9.42
5/4/2021 3:45:00 AM 13.6 56.48 0.101 7.02 1.87 9.43
5/4/2021 4:00:00 AM 13.57 56.426 0.101 7.04 1.98 9.44
5/4/2021 4:15:00 AM 13.55 56.39 0.101 7.04 1.9 9.45
5/4/2021 4:30:00 AM 13.52 56.336 0.101 7.04 1.99 9.45
5/4/2021 4:45:00 AM 13.5 56.3 0.101 7.04 2.16 9.47
5/4/2021 5:00:00 AM 13.48 56.264 0.101 7.02 2.09 9.48
5/4/2021 5:15:00 AM 13.46 56.228 0.1 7.02 2.01 9.49
5/4/2021 5:30:00 AM 13.43 56.174 0.1 7 2.08 9.49
5/4/2021 5:45:00 AM 13.41 56.138 0.101 7.02 2.18 9.47
5/4/2021 6:00:00 AM 13.39 56.102 0.101 7.02 2.05 9.47
5/4/2021 6:15:00 AM 13.37 56.066 0.101 7.02 1.92 9.49
5/4/2021 6:30:00 AM 13.35 56.03 0.101 6.99 1.85 9.49
5/4/2021 6:45:00 AM 13.33 55.994 0.101 7.02 1.97 9.51
5/4/2021 7:00:00 AM 13.32 55.976 0.101 7.02 1.91 9.54
5/4/2021 7:15:00 AM 13.31 55.958 0.101 7.04 1.82 9.58
5/4/2021 7:30:00 AM 13.3 55.94 0.101 7.03 1.77 9.63
5/4/2021 7:45:00 AM 13.3 55.94 0.101 7.06 1.71 9.69
5/4/2021 8:00:00 AM 13.3 55.94 0.101 7.08 1.68 9.76
5/4/2021 8:15:00 AM 13.31 55.958 0.101 7.1 1.72 9.83
5/4/2021 8:30:00 AM 13.31 55.958 0.101 7.12 1.76 9.89
5/4/2021 8:45:00 AM 13.33 55.994 0.101 7.14 1.6 9.96
5/4/2021 9:00:00 AM 13.35 56.03 0.1 7.16 1.62 10.04
5/4/2021 9:15:00 AM 13.38 56.084 0.1 7.18 1.76 10.12
5/4/2021 9:30:00 AM 13.43 56.174 0.1 7.19 1.45 10.21
5/4/2021 9:45:00 AM 13.49 56.282 0.1 7.25 1.57 10.28
5/4/2021 10:00:00 AM 13.57 56.426 0.1 7.26 1.51 10.37
5/4/2021 10:15:00 AM 13.68 56.624 0.1 7.33 1.48 10.45
5/4/2021 10:30:00 AM 13.91 57.038 0.1 7.37 1.54 10.5
5/4/2021 10:45:00 AM 14.14 57.452 0.1 7.42 1.55 10.55
5/4/2021 11:00:00 AM 14.38 57.884 0.1 7.46 1.62 10.59
5/4/2021 11:15:00 AM 14.55 58.19 0.1 7.49 1.44 10.61
5/4/2021 11:30:00 AM 14.68 58.424 0.1 7.48 1.53 10.65
5/4/2021 11:45:00 AM 14.95 58.91 0.1 7.56 1.44 10.66
5/4/2021 12:00:00 PM 15.11 59.198 0.099 7.58 1.52 10.67
5/4/2021 12:15:00 PM 15.31 59.558 0.099 7.61 1.67 10.67
5/4/2021 12:30:00 PM 15.53 59.954 0.099 7.63 1.5 10.63
5/4/2021 12:45:00 PM 15.63 60.134 0.099 7.66 1.62 10.62
5/4/2021 1:00:00 PM 15.67 60.206 0.099 7.67 1.47 10.59
5/4/2021 1:15:00 PM 16.05 60.89 0.099 7.74 1.47 10.57
5/4/2021 1:30:00 PM 16.39 61.502 0.099 7.79 1.53 10.57
5/4/2021 1:45:00 PM 16.53 61.754 0.099 7.8 1.43 10.54
5/4/2021 2:00:00 PM 16.7 62.06 0.099 7.84 1.69 10.52
5/4/2021 2:15:00 PM 16.92 62.456 0.099 7.87 1.68 10.49
5/4/2021 2:30:00 PM 17.11 62.798 0.099 7.9 1.73 10.49
5/4/2021 2:45:00 PM 17.26 63.068 0.099 7.91 1.66 10.45
5/4/2021 3:00:00 PM 17.32 63.176 0.098 7.95 1.58 10.42
5/4/2021 3:15:00 PM 17.32 63.176 0.098 7.92 1.53 10.36
5/4/2021 3:30:00 PM 17.33 63.194 0.098 7.92 1.63 10.29
5/4/2021 3:45:00 PM 17.37 63.266 0.098 7.89 1.5 10.23
5/4/2021 4:00:00 PM 17.4 63.32 0.098 7.89 1.51 10.18
5/4/2021 4:15:00 PM 17.45 63.41 0.098 7.89 1.39 10.13
5/4/2021 4:30:00 PM 17.56 63.608 0.098 7.9 1.42 10.09
5/4/2021 4:45:00 PM 17.63 63.734 0.098 7.89 1.5 10.05
5/4/2021 5:00:00 PM 17.63 63.734 0.098 7.86 1.41 9.98
5/4/2021 5:15:00 PM 17.66 63.788 0.098 7.85 1.54 9.95
5/4/2021 5:30:00 PM 17.64 63.752 0.098 7.81 1.39 9.88
5/4/2021 5:45:00 PM 17.59 63.662 0.098 7.71 1.73 9.72
5/4/2021 6:00:00 PM 17.55 63.59 0.098 7.61 1.55 9.6
5/4/2021 6:15:00 PM 17.56 63.608 0.098 7.59 1.64 9.59
5/4/2021 6:30:00 PM 17.55 63.59 0.098 7.57 1.67 9.54
5/4/2021 6:45:00 PM 17.52 63.536 0.098 7.53 1.51 9.48
5/4/2021 7:00:00 PM 17.5 63.5 0.098 7.49 1.79 9.41
5/4/2021 7:15:00 PM 17.48 63.464 0.098 7.45 1.54 9.34
5/4/2021 7:30:00 PM 17.44 63.392 0.098 7.39 1.58 9.26
5/4/2021 7:45:00 PM 17.4 63.32 0.098 7.36 1.6 9.17
5/4/2021 8:00:00 PM 17.36 63.248 0.098 7.32 1.45 9.1
5/4/2021 8:15:00 PM 17.32 63.176 0.098 7.27 1.64 9.02
5/4/2021 8:30:00 PM 17.29 63.122 0.098 7.24 1.6 8.94
5/4/2021 8:45:00 PM 17.26 63.068 0.099 7.2 1.7 8.87
5/4/2021 9:00:00 PM 17.24 63.032 0.099 7.18 1.8 8.82
5/4/2021 9:15:00 PM 17.21 62.978 0.099 7.16 1.61 8.78
5/4/2021 9:30:00 PM 17.17 62.906 0.099 7.14 1.9 8.76
5/4/2021 9:45:00 PM 17.14 62.852 0.099 7.12 1.88 8.72
5/4/2021 10:00:00 PM 17.12 62.816 0.099 7.07 1.87 8.71
5/4/2021 10:15:00 PM 17.1 62.78 0.099 7.08 2.05 8.69
5/4/2021 10:30:00 PM 17.07 62.726 0.099 7.07 2.43 8.69
5/4/2021 10:45:00 PM 17.04 62.672 0.098 7.06 2.36 8.69
5/4/2021 11:00:00 PM 17.02 62.636 0.098 7.05 2.84 8.7
5/4/2021 11:15:00 PM 16.98 62.564 0.098 7.02 4.09 8.71
5/4/2021 11:30:00 PM 16.94 62.492 0.097 7 5.49 8.73
5/4/2021 11:45:00 PM 16.86 62.348 0.097 6.99 7.06 8.74
5/5/2021 12:00:00 AM 16.74 62.132 0.097 6.96 6.85 8.74
5/5/2021 12:15:00 AM 16.68 62.024 0.097 6.95 7.39 8.78
5/5/2021 12:30:00 AM 16.6 61.88 0.096 6.99 6.53 8.81
5/5/2021 12:45:00 AM 16.5 61.7 0.096 6.99 6.39 8.84
5/5/2021 1:00:00 AM 16.41 61.538 0.097 7 6.14 8.86
5/5/2021 1:15:00 AM 16.33 61.394 0.097 6.96 7.96 8.87
5/5/2021 1:30:00 AM 16.26 61.268 0.096 6.97 7.8 8.89
5/5/2021 1:45:00 AM 16.23 61.214 0.096 6.99 8.13 8.89
5/5/2021 2:00:00 AM 16.22 61.196 0.095 6.97 8.68 8.89
5/5/2021 2:15:00 AM 16.23 61.214 0.094 6.99 8.85 8.88
5/5/2021 2:30:00 AM 16.24 61.232 0.093 6.98 9.97 8.87
5/5/2021 2:45:00 AM 16.23 61.214 0.091 6.97 12.03 8.87
5/5/2021 3:00:00 AM 16.19 61.142 0.09 6.95 12.93 8.87
5/5/2021 3:15:00 AM 16.12 61.016 0.089 6.95 12.96 8.88
5/5/2021 3:30:00 AM 16.04 60.872 0.089 6.96 13.04 8.9
5/5/2021 3:45:00 AM 15.97 60.746 0.089 6.95 12.95 8.92
5/5/2021 4:00:00 AM 15.89 60.602 0.089 6.93 13.32 8.95
5/5/2021 4:15:00 AM 15.81 60.458 0.089 6.96 14.25 8.96
5/5/2021 4:30:00 AM 15.73 60.314 0.09 6.97 13.56 8.98
5/5/2021 4:45:00 AM 15.66 60.188 0.09 6.97 13.13 9
5/5/2021 5:00:00 AM 15.6 60.08 0.09 6.93 11.85 9
5/5/2021 5:15:00 AM 15.54 59.972 0.09 6.96 11.78 9.03
5/5/2021 5:30:00 AM 15.47 59.846 0.09 6.97 12.04 9.05
5/5/2021 5:45:00 AM 15.41 59.738 0.091 6.97 11 9.07
5/5/2021 6:00:00 AM 15.36 59.648 0.091 6.98 10.2 9.08
5/5/2021 6:15:00 AM 15.3 59.54 0.091 6.98 10.01 9.09
5/5/2021 6:30:00 AM 15.25 59.45 0.091 6.97 9.32 9.12
5/5/2021 6:45:00 AM 15.21 59.378 0.091 6.97 8.67 9.13
5/5/2021 7:00:00 AM 15.18 59.324 0.092 6.98 8.41 9.18
5/5/2021 7:15:00 AM 15.14 59.252 0.092 6.99 8.03 9.2
5/5/2021 7:30:00 AM 15.11 59.198 0.092 7 7.56 9.23
5/5/2021 7:45:00 AM 15.09 59.162 0.092 7 7.06 9.26
5/5/2021 8:00:00 AM 15.07 59.126 0.092 7.02 7.15 9.31
5/5/2021 8:15:00 AM 15.05 59.09 0.092 6.99 6.3 9.31
5/5/2021 8:30:00 AM 15.03 59.054 0.092 7.03 6.34 9.33
5/5/2021 8:45:00 AM 15.02 59.036 0.092 7.05 5.69 9.35
5/5/2021 9:00:00 AM 15.02 59.036 0.092 7.05 6.03 9.42
5/5/2021 9:15:00 AM 15 59 0.092 7.05 7.43 9.42
5/5/2021 9:30:00 AM 14.99 58.982 0.092 7.06 5.41 9.45
5/5/2021 9:45:00 AM 14.98 58.964 0.092 7.07 5.47 9.49
5/5/2021 10:00:00 AM 14.97 58.946 0.092 7.09 6.59 9.52
5/5/2021 10:15:00 AM 14.96 58.928 0.092 7.11 5.44 9.53
5/5/2021 10:30:00 AM 14.94 58.892 0.092 7.09 5.22 9.53
5/5/2021 10:45:00 AM 14.92 58.856 0.092 7.1 5.25 9.53
5/5/2021 11:00:00 AM 14.91 58.838 0.091 7.1 5.15 9.54
5/5/2021 11:15:00 AM 14.9 58.82 0.091 7.11 5.16 9.57
5/5/2021 11:30:00 AM 14.91 58.838 0.091 7.14 5.15 9.63
5/5/2021 11:45:00 AM 14.91 58.838 0.091 7.14 4.61 9.64
5/5/2021 12:00:00 PM 14.91 58.838 0.091 7.15 4.84 9.69
5/5/2021 12:15:00 PM 14.94 58.892 0.091 7.18 4.8 9.76
5/5/2021 12:30:00 PM 14.97 58.946 0.092 7.21 4.31 9.83
5/5/2021 12:45:00 PM 14.98 58.964 0.092 7.21 4.58 9.84
5/5/2021 1:00:00 PM 14.97 58.946 0.093 7.24 4.43 9.84
5/5/2021 1:15:00 PM 14.96 58.928 0.093 7.25 4.69 9.85
5/5/2021 1:30:00 PM 14.96 58.928 0.094 7.25 5.45 9.82
5/5/2021 1:45:00 PM 14.97 58.946 0.094 7.26 5 9.85
5/5/2021 2:00:00 PM 14.98 58.964 0.095 7.26 5.23 9.87
5/5/2021 2:15:00 PM 14.95 58.91 0.095 7.26 5.85 9.83
5/5/2021 2:30:00 PM 14.93 58.874 0.095 7.26 5.84 9.83
5/5/2021 2:45:00 PM 14.92 58.856 0.095 7.27 5.89 9.86
5/5/2021 3:00:00 PM 14.88 58.784 0.096 7.26 7.89 9.84
5/5/2021 3:15:00 PM 14.85 58.73 0.096 7.25 8.66 9.85
5/5/2021 3:30:00 PM 14.82 58.676 0.096 7.27 7.47 9.84
5/5/2021 3:45:00 PM 14.79 58.622 0.096 7.23 9.3 9.83
5/5/2021 4:00:00 PM 14.78 58.604 0.095 7.24 10.29 9.86
5/5/2021 4:15:00 PM 14.77 58.586 0.095 7.27 8.78 9.88
5/5/2021 4:30:00 PM 14.74 58.532 0.095 7.27 9.93 9.88
5/5/2021 4:45:00 PM 14.73 58.514 0.094 7.23 9.08 9.87
5/5/2021 5:00:00 PM 14.73 58.514 0.094 7.27 9.15 9.89
5/5/2021 5:15:00 PM 14.71 58.478 0.094 7.28 9.26 9.9
5/5/2021 5:30:00 PM 14.69 58.442 0.094 7.25 9.96 9.87
5/5/2021 5:45:00 PM 14.66 58.388 0.093 7.24 9.31 9.85
5/5/2021 6:00:00 PM 14.61 58.298 0.093 7.2 9.29 9.82
5/5/2021 6:15:00 PM 14.57 58.226 0.093 7.2 8.13 9.81
5/5/2021 6:30:00 PM 14.54 58.172 0.092 7.2 8.74 9.82
5/5/2021 6:45:00 PM 14.48 58.064 0.092 7.19 8.46 9.82
5/5/2021 7:00:00 PM 14.43 57.974 0.091 7.18 8.63 9.82
5/5/2021 7:15:00 PM 14.38 57.884 0.091 7.17 13.28 9.8
5/5/2021 7:30:00 PM 14.32 57.776 0.091 7.16 8.25 9.78
5/5/2021 7:45:00 PM 14.25 57.65 0.091 7.13 8.15 9.77
5/5/2021 8:00:00 PM 14.18 57.524 0.091 7.11 7.87 9.74
5/5/2021 8:15:00 PM 14.11 57.398 0.09 7.11 7.66 9.72
5/5/2021 8:30:00 PM 14.04 57.272 0.091 7.11 8.37 9.7
5/5/2021 8:45:00 PM 13.98 57.164 0.091 7.09 9.36 9.68
5/5/2021 9:00:00 PM 13.91 57.038 0.091 7.09 8.42 9.66
5/5/2021 9:15:00 PM 13.84 56.912 0.091 7.04 8.03 9.66
5/5/2021 9:30:00 PM 13.78 56.804 0.091 7.06 8.96 9.66
5/5/2021 9:45:00 PM 13.7 56.66 0.091 7.07 8.52 9.66
5/5/2021 10:00:00 PM 13.63 56.534 0.091 7.07 8.16 9.67
5/5/2021 10:15:00 PM 13.56 56.408 0.091 7.08 8.9 9.67
5/5/2021 10:30:00 PM 13.49 56.282 0.091 7.07 8.22 9.68
5/5/2021 10:45:00 PM 13.42 56.156 0.091 7.08 7.14 9.69
5/5/2021 11:00:00 PM 13.36 56.048 0.09 7.07 7.32 9.7
5/5/2021 11:15:00 PM 13.3 55.94 0.09 7.07 7.56 9.72
5/5/2021 11:30:00 PM 13.25 55.85 0.09 7.06 7.88 9.73
5/5/2021 11:45:00 PM 13.19 55.742 0.091 7.06 8.05 9.74
5/6/2021 12:00:00 AM 13.12 55.616 0.091 7.05 7.18 9.75
5/6/2021 12:15:00 AM 13.06 55.508 0.09 7.04 7.11 9.76
5/6/2021 12:30:00 AM 13.01 55.418 0.09 7.06 6.96 9.78
5/6/2021 12:45:00 AM 12.95 55.31 0.09 7.06 7.57 9.79
5/6/2021 1:00:00 AM 12.88 55.184 0.09 7.07 6.5 9.81
5/6/2021 1:15:00 AM 12.82 55.076 0.09 7.05 6.53 9.81
5/6/2021 1:30:00 AM 12.76 54.968 0.09 7.05 6.32 9.83
5/6/2021 1:45:00 AM 12.71 54.878 0.09 7.05 6.18 9.84
5/6/2021 2:00:00 AM 12.66 54.788 0.09 7.05 5.81 9.87
5/6/2021 2:15:00 AM 12.6 54.68 0.09 7.05 6.43 9.87
5/6/2021 2:30:00 AM 12.54 54.572 0.09 7.06 5.91 9.89
5/6/2021 2:45:00 AM 12.47 54.446 0.09 7.05 5.4 9.91
5/6/2021 3:00:00 AM 12.4 54.32 0.09 7.06 5.77 9.93
5/6/2021 3:15:00 AM 12.33 54.194 0.09 7.03 5.51 9.94
5/6/2021 3:30:00 AM 12.26 54.068 0.09 7.04 5.4 9.96
5/6/2021 3:45:00 AM 12.19 53.942 0.09 7.04 5.21 9.98
5/6/2021 4:00:00 AM 12.11 53.798 0.09 7.03 5.27 9.99
5/6/2021 4:15:00 AM 12.06 53.708 0.09 7.04 4.98 10
5/6/2021 4:30:00 AM 12.01 53.618 0.09 7.05 5.11 10.02
5/6/2021 4:45:00 AM 11.95 53.51 0.09 7.05 4.84 10.04
5/6/2021 5:00:00 AM 11.88 53.384 0.09 7.04 5.26 10.06
5/6/2021 5:15:00 AM 11.83 53.294 0.09 7.04 4.94 10.08
5/6/2021 5:30:00 AM 11.78 53.204 0.09 7.04 5.1 10.09
5/6/2021 5:45:00 AM 11.73 53.114 0.09 7.04 5.19 10.11
5/6/2021 6:00:00 AM 11.68 53.024 0.09 7.04 5.16 10.13
5/6/2021 6:15:00 AM 11.64 52.952 0.09 7.06 4.77 10.15
5/6/2021 6:30:00 AM 11.6 52.88 0.09 7.06 5.1 10.17
5/6/2021 6:45:00 AM 11.57 52.826 0.09 7.07 4.73 10.22
5/6/2021 7:00:00 AM 11.52 52.736 0.09 7.03 4.26 10.24
5/6/2021 7:15:00 AM 11.48 52.664 0.09 7.07 4 10.28
5/6/2021 7:30:00 AM 11.44 52.592 0.09 7.08 4.52 10.33
5/6/2021 7:45:00 AM 11.39 52.502 0.09 7.09 3.92 10.36
5/6/2021 8:00:00 AM 11.37 52.466 0.09 7.09 3.57 10.41
5/6/2021 8:15:00 AM 11.36 52.448 0.09 7.09 3.63 10.46
5/6/2021 8:30:00 AM 11.36 52.448 0.09 7.12 3.69 10.51
5/6/2021 8:45:00 AM 11.36 52.448 0.09 7.12 3.63 10.57
5/6/2021 9:00:00 AM 11.39 52.502 0.09 7.16 3.57 10.64
5/6/2021 9:15:00 AM 11.43 52.574 0.09 7.16 3.43 10.69
5/6/2021 9:30:00 AM 11.49 52.682 0.09 7.22 3.34 10.75
5/6/2021 9:45:00 AM 11.55 52.79 0.09 7.23 3.32 10.79
5/6/2021 10:00:00 AM 11.64 52.952 0.09 7.25 3.11 10.84
5/6/2021 10:15:00 AM 11.72 53.096 0.09 7.28 3.02 10.88
5/6/2021 10:30:00 AM 11.84 53.312 0.09 7.31 2.85 10.92
5/6/2021 10:45:00 AM 12 53.6 0.09 7.35 3.1 10.95
5/6/2021 11:00:00 AM 12.04 53.672 0.09 7.34 2.91 10.97
5/6/2021 11:15:00 AM 12.2 53.96 0.09 7.35 2.98 10.99
5/6/2021 11:30:00 AM 12.37 54.266 0.09 7.41 2.92 11.01
5/6/2021 11:45:00 AM 12.55 54.59 0.09 7.43 2.72 11.02
5/6/2021 12:00:00 PM 12.77 54.986 0.09 7.46 2.84 11.02
5/6/2021 12:15:00 PM 13 55.4 0.09 7.51 2.59 11.02
5/6/2021 12:30:00 PM 13.13 55.634 0.089 7.53 2.86 11.02
5/6/2021 12:45:00 PM 13.37 56.066 0.09 7.53 2.84 11.01
5/6/2021 1:00:00 PM 13.63 56.534 0.089 7.59 4.9 10.99
5/6/2021 1:15:00 PM 13.85 56.93 0.089 7.61 2.63 10.98
5/6/2021 1:30:00 PM 14.02 57.236 0.089 7.63 2.73 10.95
5/6/2021 1:45:00 PM 14.14 57.452 0.089 7.62 2.69 10.94
5/6/2021 2:00:00 PM 14.28 57.704 0.089 7.65 2.81 10.91
5/6/2021 2:15:00 PM 14.42 57.956 0.089 7.68 2.58 10.89
5/6/2021 2:30:00 PM 14.47 58.046 0.089 7.69 2.54 10.86
5/6/2021 2:45:00 PM 14.63 58.334 0.089 7.7 2.56 10.82
5/6/2021 3:00:00 PM 14.71 58.478 0.089 7.71 2.67 10.78
5/6/2021 3:15:00 PM 14.81 58.658 0.089 7.72 2.7 10.75
5/6/2021 3:30:00 PM 14.92 58.856 0.089 7.73 2.79 10.71
5/6/2021 3:45:00 PM 15.03 59.054 0.089 7.73 2.44 10.67
5/6/2021 4:00:00 PM 15.09 59.162 0.089 7.73 2.32 10.64
5/6/2021 4:15:00 PM 15.15 59.27 0.089 7.73 2.38 10.6
5/6/2021 4:30:00 PM 15.25 59.45 0.089 7.74 2.54 10.56
5/6/2021 4:45:00 PM 15.24 59.432 0.089 7.72 2.27 10.5
5/6/2021 5:00:00 PM 15.31 59.558 0.089 7.7 2.32 10.46
5/6/2021 5:15:00 PM 15.31 59.558 0.089 7.67 2.37 10.42
5/6/2021 5:30:00 PM 15.31 59.558 0.089 7.66 2.35 10.39
5/6/2021 5:45:00 PM 15.32 59.576 0.089 7.63 2.28 10.36
5/6/2021 6:00:00 PM 15.28 59.504 0.089 7.62 2.56 10.32
5/6/2021 6:15:00 PM 15.23 59.414 0.089 7.58 2.34 10.27
5/6/2021 6:30:00 PM 15.18 59.324 0.089 7.54 2.36 10.23
5/6/2021 6:45:00 PM 15.12 59.216 0.089 7.52 2.78 10.17
5/6/2021 7:00:00 PM 15.07 59.126 0.089 7.47 2.35 10.12
5/6/2021 7:15:00 PM 15 59 0.089 7.43 2.48 10.06
5/6/2021 7:30:00 PM 14.94 58.892 0.089 7.38 2.5 10
5/6/2021 7:45:00 PM 14.86 58.748 0.089 7.34 2.61 9.93
5/6/2021 8:00:00 PM 14.77 58.586 0.089 7.26 2.58 9.87
5/6/2021 8:15:00 PM 14.67 58.406 0.09 7.25 2.52 9.8
5/6/2021 8:30:00 PM 14.57 58.226 0.09 7.2 2.5 9.75
5/6/2021 8:45:00 PM 14.46 58.028 0.09 7.17 2.62 9.71
5/6/2021 9:00:00 PM 14.34 57.812 0.09 7.13 3.3 9.68
5/6/2021 9:15:00 PM 14.22 57.596 0.09 7.11 3 9.65
5/6/2021 9:30:00 PM 14.11 57.398 0.09 7.08 3.36 9.64
5/6/2021 9:45:00 PM 14 57.2 0.09 7.07 3.01 9.62
5/6/2021 10:00:00 PM 13.89 57.002 0.09 7.05 2.91 9.61
5/6/2021 10:15:00 PM 13.79 56.822 0.09 7.03 3.1 9.61
5/6/2021 10:30:00 PM 13.68 56.624 0.091 7.02 2.94 9.61
5/6/2021 10:45:00 PM 13.57 56.426 0.091 7.01 3.16 9.62
5/6/2021 11:00:00 PM 13.46 56.228 0.091 7 2.99 9.63
5/6/2021 11:15:00 PM 13.35 56.03 0.091 7 3.49 9.65
5/6/2021 11:30:00 PM 13.24 55.832 0.091 7 3.11 9.67
5/6/2021 11:45:00 PM 13.13 55.634 0.091 7 3.11 9.68
5/7/2021 12:00:00 AM 13.03 55.454 0.091 6.98 3.12 9.71
5/7/2021 12:15:00 AM 12.91 55.238 0.091 6.97 2.95 9.73
5/7/2021 12:30:00 AM 12.81 55.058 0.091 6.97 3.43 9.76
5/7/2021 12:45:00 AM 12.7 54.86 0.091 6.95 3.11 9.78
5/7/2021 1:00:00 AM 12.59 54.662 0.091 6.92 2.85 9.8
5/7/2021 1:15:00 AM 12.48 54.464 0.091 6.95 3.15 9.82
5/7/2021 1:30:00 AM 12.38 54.284 0.091 6.96 2.93 9.85
5/7/2021 1:45:00 AM 12.27 54.086 0.091 6.97 2.93 9.88
5/7/2021 2:00:00 AM 12.16 53.888 0.091 6.96 2.86 9.91
5/7/2021 2:15:00 AM 12.06 53.708 0.091 6.96 3.11 9.93
5/7/2021 2:30:00 AM 11.95 53.51 0.091 6.95 3.24 9.96
5/7/2021 2:45:00 AM 11.85 53.33 0.091 6.95 3.21 9.99
5/7/2021 3:00:00 AM 11.74 53.132 0.092 6.96 3.44 10.01
5/7/2021 3:15:00 AM 11.63 52.934 0.092 6.97 3.07 10.04
5/7/2021 3:30:00 AM 11.53 52.754 0.092 6.96 3.27 10.07
5/7/2021 3:45:00 AM 11.42 52.556 0.092 6.96 3.15 10.09
5/7/2021 4:00:00 AM 11.32 52.376 0.092 6.93 3.34 10.12
5/7/2021 4:15:00 AM 11.21 52.178 0.092 6.96 3.22 10.15
5/7/2021 4:30:00 AM 11.11 51.998 0.092 6.97 3.1 10.18
5/7/2021 4:45:00 AM 11.01 51.818 0.092 6.94 3.34 10.21
5/7/2021 5:00:00 AM 10.91 51.638 0.092 6.97 3.02 10.23
5/7/2021 5:15:00 AM 10.82 51.476 0.092 6.97 3.05 10.26
5/7/2021 5:30:00 AM 10.73 51.314 0.092 6.96 3.21 10.29
5/7/2021 5:45:00 AM 10.64 51.152 0.092 6.96 3.13 10.31
5/7/2021 6:00:00 AM 10.55 50.99 0.092 6.99 3.15 10.33
5/7/2021 6:15:00 AM 10.48 50.864 0.092 6.99 3.12 10.38
5/7/2021 6:30:00 AM 10.41 50.738 0.092 7 3.09 10.42
5/7/2021 6:45:00 AM 10.34 50.612 0.092 7 3.26 10.47
5/7/2021 7:00:00 AM 10.29 50.522 0.092 7.01 3.27 10.52
5/7/2021 7:15:00 AM 10.24 50.432 0.092 7.03 2.84 10.6
5/7/2021 7:30:00 AM 10.2 50.36 0.092 7.06 2.71 10.67
5/7/2021 7:45:00 AM 10.18 50.324 0.092 7.09 3.2 10.77
5/7/2021 8:00:00 AM 10.16 50.288 0.091 7.11 2.71 10.84
5/7/2021 8:15:00 AM 10.14 50.252 0.091 7.14 2.44 10.93
5/7/2021 8:30:00 AM 10.16 50.288 0.091 7.18 2.56 11.01
5/7/2021 8:45:00 AM 10.19 50.342 0.091 7.19 2.5 11.09
5/7/2021 9:00:00 AM 10.24 50.432 0.091 7.23 2.51 11.18
5/7/2021 9:15:00 AM 10.29 50.522 0.091 7.27 2.39 11.24
5/7/2021 9:30:00 AM 10.33 50.594 0.091 7.3 2.25 11.3
5/7/2021 9:45:00 AM 10.38 50.684 0.091 7.33 2.49 11.36
5/7/2021 10:00:00 AM 10.47 50.846 0.091 7.36 2.27 11.4
5/7/2021 10:15:00 AM 10.53 50.954 0.091 7.39 2.05 11.43
5/7/2021 10:30:00 AM 10.62 51.116 0.09 7.43 2.08 11.47
5/7/2021 10:45:00 AM 10.72 51.296 0.09 7.46 2.06 11.49
5/7/2021 11:00:00 AM 10.81 51.458 0.09 7.48 2.13 11.52
5/7/2021 11:15:00 AM 10.98 51.764 0.09 7.52 2.19 11.52
5/7/2021 11:30:00 AM 11.13 52.034 0.09 7.55 2.07 11.54
5/7/2021 11:45:00 AM 11.17 52.106 0.09 7.58 2.01 11.53
5/7/2021 12:00:00 PM 11.26 52.268 0.09 7.58 1.93 11.54
5/7/2021 12:15:00 PM 11.39 52.502 0.09 7.62 2.02 11.53
5/7/2021 12:30:00 PM 11.39 52.502 0.09 7.62 1.9 11.49
5/7/2021 12:45:00 PM 11.4 52.52 0.09 7.6 1.97 11.44
5/7/2021 1:00:00 PM 11.43 52.574 0.09 7.6 2.06 11.4
5/7/2021 1:15:00 PM 11.44 52.592 0.089 7.59 1.89 11.36
5/7/2021 1:30:00 PM 11.46 52.628 0.089 7.59 2.23 11.33
5/7/2021 1:45:00 PM 11.49 52.682 0.089 7.59 2.03 11.29
5/7/2021 2:00:00 PM 11.52 52.736 0.089 7.58 1.99 11.27
5/7/2021 2:15:00 PM 11.56 52.808 0.089 7.58 2.05 11.22
5/7/2021 2:30:00 PM 11.59 52.862 0.089 7.58 1.82 11.2
5/7/2021 2:45:00 PM 11.63 52.934 0.089 7.59 1.93 11.18
5/7/2021 3:00:00 PM 11.67 53.006 0.089 7.58 1.92 11.17
5/7/2021 3:15:00 PM 11.7 53.06 0.089 7.57 1.84 11.16
5/7/2021 3:30:00 PM 11.72 53.096 0.089 7.58 2.03 11.15
5/7/2021 3:45:00 PM 11.74 53.132 0.089 7.58 1.95 11.13
5/7/2021 4:00:00 PM 11.75 53.15 0.089 7.56 1.99 11.09
5/7/2021 4:15:00 PM 11.75 53.15 0.089 7.51 1.95 11.05
5/7/2021 4:30:00 PM 11.76 53.168 0.089 7.52 1.87 11.02
5/7/2021 4:45:00 PM 11.79 53.222 0.089 7.51 1.9 11.01
5/7/2021 5:00:00 PM 11.8 53.24 0.089 7.5 1.96 10.98
5/7/2021 5:15:00 PM 11.81 53.258 0.089 7.49 1.81 10.97
5/7/2021 5:30:00 PM 11.82 53.276 0.089 7.49 1.87 10.95
5/7/2021 5:45:00 PM 11.82 53.276 0.089 7.44 2.1 10.91
5/7/2021 6:00:00 PM 11.8 53.24 0.089 7.44 1.86 10.85
5/7/2021 6:15:00 PM 11.79 53.222 0.089 7.41 1.92 10.81
5/7/2021 6:30:00 PM 11.76 53.168 0.089 7.37 2.07 10.74
5/7/2021 6:45:00 PM 11.74 53.132 0.089 7.35 2.1 10.69
5/7/2021 7:00:00 PM 11.7 53.06 0.089 7.32 2.53 10.62
5/7/2021 7:15:00 PM 11.67 53.006 0.089 7.28 2.04 10.56
5/7/2021 7:30:00 PM 11.64 52.952 0.089 7.24 2.05 10.5
5/7/2021 7:45:00 PM 11.62 52.916 0.089 7.23 2 10.45
5/7/2021 8:00:00 PM 11.59 52.862 0.089 7.16 2.04 10.4
5/7/2021 8:15:00 PM 11.56 52.808 0.089 7.18 1.97 10.35
5/7/2021 8:30:00 PM 11.54 52.772 0.089 7.16 2.49 10.31
5/7/2021 8:45:00 PM 11.5 52.7 0.089 7.15 2.3 10.27
5/7/2021 9:00:00 PM 11.47 52.646 0.089 7.1 2.51 10.24
5/7/2021 9:15:00 PM 11.44 52.592 0.089 7.11 2.37 10.22
5/7/2021 9:30:00 PM 11.41 52.538 0.089 7.11 2.3 10.21
5/7/2021 9:45:00 PM 11.37 52.466 0.089 7.09 2.41 10.2
5/7/2021 10:00:00 PM 11.33 52.394 0.089 7.09 2.64 10.19
5/7/2021 10:15:00 PM 11.29 52.322 0.089 7.06 2.94 10.18
5/7/2021 10:30:00 PM 11.25 52.25 0.089 7.07 2.57 10.18
5/7/2021 10:45:00 PM 11.21 52.178 0.089 7.06 2.46 10.18
5/7/2021 11:00:00 PM 11.18 52.124 0.089 7.06 2.54 10.19
5/7/2021 11:15:00 PM 11.14 52.052 0.089 7.06 2.75 10.19
5/7/2021 11:30:00 PM 11.09 51.962 0.089 7.06 2.82 10.2
5/7/2021 11:45:00 PM 11.05 51.89 0.089 7.05 2.82 10.22
5/8/2021 12:00:00 AM 11.01 51.818 0.09 7.04 2.95 10.23
5/8/2021 12:15:00 AM 10.97 51.746 0.09 7.04 3.16 10.24
5/8/2021 12:30:00 AM 10.93 51.674 0.09 7.05 6.65 10.24
5/8/2021 12:45:00 AM 10.89 51.602 0.09 7.04 3.46 10.26
5/8/2021 1:00:00 AM 10.85 51.53 0.09 7.05 3.34 10.27
5/8/2021 1:15:00 AM 10.81 51.458 0.09 7.04 3.52 10.28
5/8/2021 1:30:00 AM 10.76 51.368 0.091 7.05 3.31 10.29
5/8/2021 1:45:00 AM 10.71 51.278 0.091 7.05 3.68 10.31
5/8/2021 2:00:00 AM 10.67 51.206 0.091 7.06 3.73 10.32
5/8/2021 2:15:00 AM 10.62 51.116 0.091 7.06 3.81 10.33
5/8/2021 2:30:00 AM 10.57 51.026 0.091 7.04 3.67 10.35
5/8/2021 2:45:00 AM 10.51 50.918 0.091 7.06 3.86 10.35
5/8/2021 3:00:00 AM 10.45 50.81 0.091 7.04 3.97 10.38
5/8/2021 3:15:00 AM 10.4 50.72 0.091 7.05 4.03 10.39
5/8/2021 3:30:00 AM 10.34 50.612 0.091 7.04 4.09 10.4
5/8/2021 3:45:00 AM 10.29 50.522 0.091 7.05 4.26 10.43
5/8/2021 4:00:00 AM 10.24 50.432 0.09 7.04 4.24 10.44
5/8/2021 4:15:00 AM 10.2 50.36 0.09 7.04 4.35 10.45
5/8/2021 4:30:00 AM 10.17 50.306 0.09 7.02 3.94 10.47
5/8/2021 4:45:00 AM 10.13 50.234 0.09 7.05 3.99 10.48
5/8/2021 5:00:00 AM 10.09 50.162 0.09 7.04 4.28 10.5
5/8/2021 5:15:00 AM 10.06 50.108 0.09 7.05 3.83 10.51
5/8/2021 5:30:00 AM 10.04 50.072 0.089 7.06 4.49 10.51
5/8/2021 5:45:00 AM 10.01 50.018 0.089 7.04 4.09 10.52
5/8/2021 6:00:00 AM 9.98 49.964 0.089 7.01 3.91 10.54
5/8/2021 6:15:00 AM 9.95 49.91 0.089 7.04 4.2 10.56
5/8/2021 6:30:00 AM 9.93 49.874 0.089 7.04 3.73 10.59
5/8/2021 6:45:00 AM 9.9 49.82 0.089 7.04 3.62 10.6
5/8/2021 7:00:00 AM 9.88 49.784 0.089 7.07 3.79 10.64
5/8/2021 7:15:00 AM 9.86 49.748 0.089 7.07 3.62 10.68
5/8/2021 7:30:00 AM 9.85 49.73 0.088 7.08 3.43 10.72
5/8/2021 7:45:00 AM 9.84 49.712 0.088 7.1 3.32 10.78
5/8/2021 8:00:00 AM 9.83 49.694 0.088 7.08 3.48 10.83
5/8/2021 8:15:00 AM 9.82 49.676 0.088 7.13 3.13 10.89
5/8/2021 8:30:00 AM 9.81 49.658 0.088 7.14 3.23 10.93
5/8/2021 8:45:00 AM 9.82 49.676 0.088 7.15 3.01 10.99
5/8/2021 9:00:00 AM 9.86 49.748 0.088 7.19 3.02 11.09
5/8/2021 9:15:00 AM 9.9 49.82 0.088 7.22 3.03 11.18
5/8/2021 9:30:00 AM 9.97 49.946 0.088 7.25 2.86 11.26
5/8/2021 9:45:00 AM 10.01 50.018 0.088 7.27 2.56 11.32
5/8/2021 10:00:00 AM 10.06 50.108 0.088 7.31 2.79 11.38
5/8/2021 10:15:00 AM 10.09 50.162 0.088 7.33 2.73 11.4
5/8/2021 10:30:00 AM 10.13 50.234 0.088 7.34 2.65 11.42
5/8/2021 10:45:00 AM 10.16 50.288 0.087 7.37 2.69 11.44
5/8/2021 11:00:00 AM 10.2 50.36 0.087 7.38 2.68 11.47
5/8/2021 11:15:00 AM 10.27 50.486 0.087 7.41 2.74 11.52
5/8/2021 11:30:00 AM 10.33 50.594 0.087 7.42 2.69 11.54
5/8/2021 11:45:00 AM 10.42 50.756 0.087 7.49 9.95 11.58
5/8/2021 12:00:00 PM 10.5 50.9 0.087 7.54 2.39 11.61
5/8/2021 12:15:00 PM 10.56 51.008 0.087 7.57 2.62 11.63
5/8/2021 12:30:00 PM 10.59 51.062 0.087 7.59 2.35 11.63
5/8/2021 12:45:00 PM 10.61 51.098 0.087 7.59 2.38 11.59
5/8/2021 1:00:00 PM 10.61 51.098 0.087 7.55 2.53 11.52
5/8/2021 1:15:00 PM 10.71 51.278 0.087 7.55 2.33 11.51
5/8/2021 1:30:00 PM 10.85 51.53 0.087 7.61 2.35 11.52
5/8/2021 1:45:00 PM 10.92 51.656 0.087 7.59 2.46 11.53
5/8/2021 2:00:00 PM 10.92 51.656 0.087 7.61 2.35 11.54
5/8/2021 2:15:00 PM 10.98 51.764 0.087 7.65 2.34 11.56
5/8/2021 2:30:00 PM 11.11 51.998 0.087 7.7 2.32 11.58
5/8/2021 2:45:00 PM 11.18 52.124 0.087 7.71 2.25 11.57
5/8/2021 3:00:00 PM 11.21 52.178 0.087 7.71 2.26 11.56
5/8/2021 3:15:00 PM 11.42 52.556 0.087 7.75 2.27 11.54
5/8/2021 3:30:00 PM 11.48 52.664 0.087 7.75 2.12 11.55
5/8/2021 3:45:00 PM 11.56 52.808 0.087 7.75 2.18 11.51
5/8/2021 4:00:00 PM 11.59 52.862 0.087 7.77 2.05 11.51
5/8/2021 4:15:00 PM 11.59 52.862 0.087 7.69 2.17 11.38
5/8/2021 4:30:00 PM 11.56 52.808 0.087 7.64 2.13 11.29
5/8/2021 4:45:00 PM 11.61 52.898 0.087 7.64 2.16 11.28
5/8/2021 5:00:00 PM 11.74 53.132 0.087 7.66 2.16 11.28
5/8/2021 5:15:00 PM 11.7 53.06 0.087 7.62 2.19 11.25
5/8/2021 5:30:00 PM 11.68 53.024 0.087 7.62 2.12 11.21
5/8/2021 5:45:00 PM 11.67 53.006 0.087 7.6 2.26 11.16
5/8/2021 6:00:00 PM 11.71 53.078 0.087 7.59 2.16 11.14
5/8/2021 6:15:00 PM 11.69 53.042 0.087 7.55 2.32 11.07
5/8/2021 6:30:00 PM 11.69 53.042 0.087 7.5 2.06 10.97
5/8/2021 6:45:00 PM 11.7 53.06 0.087 7.46 2.12 10.95
5/8/2021 7:00:00 PM 11.68 53.024 0.087 7.44 2 10.89
5/8/2021 7:15:00 PM 11.67 53.006 0.087 7.4 2.07 10.81
5/8/2021 7:30:00 PM 11.64 52.952 0.088 7.36 2.41 10.72
5/8/2021 7:45:00 PM 11.63 52.934 0.088 7.31 2.14 10.66
5/8/2021 8:00:00 PM 11.62 52.916 0.088 7.3 2.27 10.59
5/8/2021 8:15:00 PM 11.58 52.844 0.088 7.23 2.18 10.53
5/8/2021 8:30:00 PM 11.53 52.754 0.088 7.22 2.22 10.49
5/8/2021 8:45:00 PM 11.48 52.664 0.088 7.18 2.31 10.44
5/8/2021 9:00:00 PM 11.41 52.538 0.088 7.17 2.51 10.41
5/8/2021 9:15:00 PM 11.34 52.412 0.088 7.14 2.51 10.38
5/8/2021 9:30:00 PM 11.27 52.286 0.088 7.13 2.41 10.37
5/8/2021 9:45:00 PM 11.19 52.142 0.088 7.11 2.52 10.35
5/8/2021 10:00:00 PM 11.11 51.998 0.088 7.09 2.43 10.35
5/8/2021 10:15:00 PM 11.03 51.854 0.089 7.07 2.54 10.35
5/8/2021 10:30:00 PM 10.95 51.71 0.089 7.06 2.52 10.35
5/8/2021 10:45:00 PM 10.89 51.602 0.089 7 2.33 10.36
5/8/2021 11:00:00 PM 10.83 51.494 0.089 7.05 2.64 10.36
5/8/2021 11:15:00 PM 10.77 51.386 0.089 7.05 2.42 10.38
5/8/2021 11:30:00 PM 10.7 51.26 0.089 7.01 2.27 10.39
5/8/2021 11:45:00 PM 10.63 51.134 0.089 7.04 2.33 10.4
5/9/2021 12:00:00 AM 10.57 51.026 0.089 7.01 2.4 10.41
5/9/2021 12:15:00 AM 10.5 50.9 0.089 7.01 2.34 10.42
5/9/2021 12:30:00 AM 10.44 50.792 0.089 7.02 2.41 10.44
5/9/2021 12:45:00 AM 10.38 50.684 0.089 7.02 2.59 10.45
5/9/2021 1:00:00 AM 10.32 50.576 0.089 7.03 2.85 10.47
5/9/2021 1:15:00 AM 10.27 50.486 0.089 7.01 2.5 10.48
5/9/2021 1:30:00 AM 10.21 50.378 0.089 6.99 3.73 10.5
5/9/2021 1:45:00 AM 10.14 50.252 0.09 7.01 2.36 10.52
5/9/2021 2:00:00 AM 10.07 50.126 0.09 7.01 2.45 10.54
5/9/2021 2:15:00 AM 10 50 0.09 7 2.48 10.55
5/9/2021 2:30:00 AM 9.93 49.874 0.09 6.99 2.39 10.56
5/9/2021 2:45:00 AM 9.86 49.748 0.09 6.99 2.7 10.59
5/9/2021 3:00:00 AM 9.8 49.64 0.09 6.97 2.43 10.59
5/9/2021 3:15:00 AM 9.73 49.514 0.09 7 2.25 10.62
5/9/2021 3:30:00 AM 9.66 49.388 0.09 7 2.19 10.64
5/9/2021 3:45:00 AM 9.58 49.244 0.09 6.99 2.44 10.66
5/9/2021 4:00:00 AM 9.51 49.118 0.09 6.99 2.36 10.68
5/9/2021 4:15:00 AM 9.43 48.974 0.09 7.01 2.28 10.7
5/9/2021 4:30:00 AM 9.37 48.866 0.09 7 2.27 10.72
5/9/2021 4:45:00 AM 9.3 48.74 0.09 6.96 2.43 10.74
5/9/2021 5:00:00 AM 9.23 48.614 0.09 6.99 2.51 10.77
5/9/2021 5:15:00 AM 9.16 48.488 0.09 6.98 2.35 10.79
5/9/2021 5:30:00 AM 9.09 48.362 0.09 6.99 2.65 10.81
5/9/2021 5:45:00 AM 9.03 48.254 0.09 7 2.34 10.83
5/9/2021 6:00:00 AM 8.97 48.146 0.09 6.94 2.2 10.86
5/9/2021 6:15:00 AM 8.9 48.02 0.09 6.99 2.01 10.89
5/9/2021 6:30:00 AM 8.84 47.912 0.09 7.01 2.21 10.93
5/9/2021 6:45:00 AM 8.79 47.822 0.09 7 2.18 11
5/9/2021 7:00:00 AM 8.74 47.732 0.09 7 2.08 11.08
5/9/2021 7:15:00 AM 8.71 47.678 0.09 7.05 2.16 11.17
5/9/2021 7:30:00 AM 8.67 47.606 0.09 7.08 1.99 11.24
5/9/2021 7:45:00 AM 8.65 47.57 0.09 7.09 1.99 11.32
5/9/2021 8:00:00 AM 8.65 47.57 0.09 7.12 2.03 11.4
5/9/2021 8:15:00 AM 8.67 47.606 0.09 7.09 1.9 11.47
5/9/2021 8:30:00 AM 8.69 47.642 0.09 7.16 2.03 11.55
5/9/2021 8:45:00 AM 8.72 47.696 0.09 7.2 1.83 11.63
5/9/2021 9:00:00 AM 8.77 47.786 0.09 7.2 1.8 11.71
5/9/2021 9:15:00 AM 8.85 47.93 0.09 7.26 1.92 11.79
5/9/2021 9:30:00 AM 8.93 48.074 0.09 7.31 1.75 11.86
5/9/2021 9:45:00 AM 8.96 48.128 0.09 7.3 1.74 11.92
5/9/2021 10:00:00 AM 9.05 48.29 0.089 7.39 1.74 11.97
5/9/2021 10:15:00 AM 9.11 48.398 0.09 7.42 1.82 12.02
5/9/2021 10:30:00 AM 9.14 48.452 0.089 7.45 1.84 12.05
5/9/2021 10:45:00 AM 9.18 48.524 0.089 7.49 1.78 12.07
5/9/2021 11:00:00 AM 9.22 48.596 0.089 7.51 1.86 12.08
5/9/2021 11:15:00 AM 9.28 48.704 0.089 7.54 1.7 12.09
5/9/2021 11:30:00 AM 9.34 48.812 0.089 7.54 1.67 12.1
5/9/2021 11:45:00 AM 9.42 48.956 0.089 7.6 1.72 12.11
5/9/2021 12:00:00 PM 9.5 49.1 0.089 7.63 1.67 12.11
5/9/2021 12:15:00 PM 9.59 49.262 0.089 7.68 1.56 12.12
5/9/2021 12:30:00 PM 9.66 49.388 0.089 7.7 1.82 12.11
5/9/2021 12:45:00 PM 9.69 49.442 0.089 7.72 1.62 12.09
5/9/2021 1:00:00 PM 9.72 49.496 0.089 7.73 1.78 12.06
5/9/2021 1:15:00 PM 9.74 49.532 0.089 7.73 1.71 12.01
5/9/2021 1:30:00 PM 9.76 49.568 0.089 7.68 1.75 11.97
5/9/2021 1:45:00 PM 9.76 49.568 0.088 7.68 1.66 11.93
5/9/2021 2:00:00 PM 9.75 49.55 0.088 7.66 1.65 11.87
5/9/2021 2:15:00 PM 9.74 49.532 0.088 7.62 1.69 11.81
5/9/2021 2:30:00 PM 9.73 49.514 0.088 7.59 1.71 11.79
5/9/2021 2:45:00 PM 9.73 49.514 0.088 7.59 1.75 11.78
5/9/2021 3:00:00 PM 9.74 49.532 0.088 7.59 1.75 11.75
5/9/2021 3:15:00 PM 9.74 49.532 0.088 7.57 1.73 11.74
5/9/2021 3:30:00 PM 9.77 49.586 0.088 7.58 1.73 11.75
5/9/2021 3:45:00 PM 9.76 49.568 0.088 7.55 1.85 11.72
5/9/2021 4:00:00 PM 9.76 49.568 0.088 7.55 1.69 11.67
5/9/2021 4:15:00 PM 9.75 49.55 0.088 7.54 1.72 11.64
5/9/2021 4:30:00 PM 9.73 49.514 0.088 7.5 1.79 11.59
5/9/2021 4:45:00 PM 9.71 49.478 0.088 7.49 2.66 11.55
5/9/2021 5:00:00 PM 9.69 49.442 0.088 7.42 2.1 11.48
5/9/2021 5:15:00 PM 9.67 49.406 0.088 7.41 1.95 11.45
5/9/2021 5:30:00 PM 9.65 49.37 0.088 7.41 2.18 11.4
5/9/2021 5:45:00 PM 9.63 49.334 0.088 7.35 2.26 11.36
5/9/2021 6:00:00 PM 9.6 49.28 0.088 7.36 2.23 11.32
5/9/2021 6:15:00 PM 9.57 49.226 0.088 7.32 2.33 11.28
5/9/2021 6:30:00 PM 9.55 49.19 0.089 7.3 2.63 11.23
5/9/2021 6:45:00 PM 9.51 49.118 0.089 7.27 3.05 11.19
5/9/2021 7:00:00 PM 9.48 49.064 0.09 7.24 3.68 11.14
5/9/2021 7:15:00 PM 9.44 48.992 0.091 7.23 4.67 11.09
5/9/2021 7:30:00 PM 9.4 48.92 0.093 7.17 5.83 11.04
5/9/2021 7:45:00 PM 9.36 48.848 0.094 7.2 6.87 11.01
5/9/2021 8:00:00 PM 9.32 48.776 0.095 7.19 7.94 10.96
5/9/2021 8:15:00 PM 9.29 48.722 0.096 7.17 9.08 10.93
5/9/2021 8:30:00 PM 9.27 48.686 0.097 7.15 10.41 10.91
5/9/2021 8:45:00 PM 9.24 48.632 0.098 7.15 10.78 10.88
5/9/2021 9:00:00 PM 9.22 48.596 0.098 7.14 11.23 10.86
5/9/2021 9:15:00 PM 9.2 48.56 0.097 7.14 11.49 10.85
5/9/2021 9:30:00 PM 9.17 48.506 0.097 7.12 11.73 10.85
5/9/2021 9:45:00 PM 9.15 48.47 0.096 7.09 11.5 10.85
5/9/2021 10:00:00 PM 9.12 48.416 0.095 7.07 10.72 10.84
5/9/2021 10:15:00 PM 9.1 48.38 0.094 7.05 10.52 10.84
5/9/2021 10:30:00 PM 9.08 48.344 0.093 7.05 10.59 10.84
5/9/2021 10:45:00 PM 9.06 48.308 0.092 7.03 10.48 10.84
5/9/2021 11:00:00 PM 9.04 48.272 0.092 7.03 13.22 10.84
5/9/2021 11:15:00 PM 9.02 48.236 0.091 7.01 11.22 10.84
5/9/2021 11:30:00 PM 9 48.2 0.091 7.01 13.12 10.85
5/9/2021 11:45:00 PM 8.98 48.164 0.09 6.98 11.98 10.85
5/10/2021 12:00:00 AM 8.96 48.128 0.09 6.99 11.29 10.86
5/10/2021 12:15:00 AM 8.95 48.11 0.09 7 10.5 10.86
5/10/2021 12:30:00 AM 8.93 48.074 0.09 6.98 11.54 10.86
5/10/2021 12:45:00 AM 8.92 48.056 0.089 6.99 10.69 10.87
5/10/2021 1:00:00 AM 8.9 48.02 0.089 6.98 10.8 10.88
5/10/2021 1:15:00 AM 8.89 48.002 0.089 7 10.64 10.88
5/10/2021 1:30:00 AM 8.88 47.984 0.089 7.02 11.07 10.89
5/10/2021 1:45:00 AM 8.86 47.948 0.089 7.02 9.67 10.89
5/10/2021 2:00:00 AM 8.85 47.93 0.089 7 9.83 10.9
5/10/2021 2:15:00 AM 8.84 47.912 0.089 7.01 10.1 10.9
5/10/2021 2:30:00 AM 8.83 47.894 0.089 7 10.24 10.9
5/10/2021 2:45:00 AM 8.81 47.858 0.09 7.03 10.24 10.91
5/10/2021 3:00:00 AM 8.8 47.84 0.09 7.04 9.86 10.91
5/10/2021 3:15:00 AM 8.79 47.822 0.091 7.04 10.18 10.91
5/10/2021 3:30:00 AM 8.78 47.804 0.091 7.02 10.59 10.92
5/10/2021 3:45:00 AM 8.77 47.786 0.091 7.02 10.63 10.92
5/10/2021 4:00:00 AM 8.76 47.768 0.091 7.02 10.41 10.92
5/10/2021 4:15:00 AM 8.76 47.768 0.091 7.02 9.79 10.93
5/10/2021 4:30:00 AM 8.75 47.75 0.091 7.03 10.22 10.94
5/10/2021 4:45:00 AM 8.74 47.732 0.091 7.02 9.86 10.94
5/10/2021 5:00:00 AM 8.73 47.714 0.091 7 10.75 10.95
5/10/2021 5:15:00 AM 8.72 47.696 0.091 7.03 10.04 10.95
5/10/2021 5:30:00 AM 8.71 47.678 0.091 7.05 10.4 10.96
5/10/2021 5:45:00 AM 8.7 47.66 0.091 7.06 9.59 10.96
5/10/2021 6:00:00 AM 8.7 47.66 0.09 7.05 9.36 10.97
5/10/2021 6:15:00 AM 8.69 47.642 0.09 7 9.09 10.98
5/10/2021 6:30:00 AM 8.69 47.642 0.09 7.04 8.81 10.99
5/10/2021 6:45:00 AM 8.68 47.624 0.09 7.01 9.03 11
5/10/2021 7:00:00 AM 8.68 47.624 0.09 7.04 8.46 11.02
5/10/2021 7:15:00 AM 8.68 47.624 0.09 7.02 8.34 11.04
5/10/2021 7:30:00 AM 8.69 47.642 0.089 7.04 8.02 11.08
5/10/2021 7:45:00 AM 8.71 47.678 0.089 7.04 7.47 11.12
5/10/2021 8:00:00 AM 8.72 47.696 0.089 7.05 7.15 11.17
5/10/2021 8:15:00 AM 8.74 47.732 0.089 7.08 6.73 11.22
5/10/2021 8:30:00 AM 8.77 47.786 0.089 7.11 6.42 11.28
5/10/2021 8:45:00 AM 8.81 47.858 0.089 7.09 6.27 11.34
5/10/2021 9:00:00 AM 8.83 47.894 0.089 7.12 6 11.37
5/10/2021 9:15:00 AM 8.89 48.002 0.089 7.16 5.78 11.43
5/10/2021 9:30:00 AM 8.92 48.056 0.089 7.17 5.7 11.46
5/10/2021 9:45:00 AM 8.95 48.11 0.089 7.17 6.22 11.49
5/10/2021 10:00:00 AM 9.01 48.218 0.089 7.21 5.16 11.52
5/10/2021 10:15:00 AM 9.06 48.308 0.089 7.22 5.13 11.54
5/10/2021 10:30:00 AM 9.11 48.398 0.089 7.22 4.91 11.56
5/10/2021 10:45:00 AM 9.17 48.506 0.089 7.23 6.51 11.58
5/10/2021 11:00:00 AM 9.29 48.722 0.089 7.27 4.67 11.61
5/10/2021 11:15:00 AM 9.36 48.848 0.089 7.3 4.86 11.65
5/10/2021 11:30:00 AM 9.46 49.028 0.089 7.33 4.71 11.69
5/10/2021 11:45:00 AM 9.61 49.298 0.089 7.36 4.24 11.72
5/10/2021 12:00:00 PM 9.83 49.694 0.089 7.41 4.58 11.73
5/10/2021 12:15:00 PM 10.07 50.126 0.089 7.45 4.68 11.73
5/10/2021 12:30:00 PM 10.22 50.396 0.089 7.48 4.34 11.74
5/10/2021 12:45:00 PM 10.26 50.468 0.089 7.44 4.05 11.71
5/10/2021 1:00:00 PM 10.35 50.63 0.089 7.47 4.02 11.68
5/10/2021 1:15:00 PM 10.51 50.918 0.089 7.5 4.08 11.67
5/10/2021 1:30:00 PM 10.7 51.26 0.089 7.49 3.99 11.65
5/10/2021 1:45:00 PM 10.94 51.692 0.089 7.53 4.07 11.64
5/10/2021 2:00:00 PM 11.14 52.052 0.089 7.57 3.84 11.59
5/10/2021 2:15:00 PM 11.21 52.178 0.089 7.55 3.77 11.54
5/10/2021 2:30:00 PM 11.24 52.232 0.089 7.53 3.88 11.49
5/10/2021 2:45:00 PM 11.4 52.52 0.089 7.56 3.95 11.47
5/10/2021 3:00:00 PM 11.5 52.7 0.089 7.56 3.86 11.45
5/10/2021 3:15:00 PM 11.59 52.862 0.089 7.56 3.64 11.41
5/10/2021 3:30:00 PM 11.74 53.132 0.089 7.56 3.7 11.35
5/10/2021 3:45:00 PM 11.89 53.402 0.089 7.56 3.41 11.32
5/10/2021 4:00:00 PM 12.01 53.618 0.089 7.58 3.57 11.3
5/10/2021 4:15:00 PM 11.99 53.582 0.089 7.55 3.46 11.27
5/10/2021 4:30:00 PM 11.92 53.456 0.089 7.5 3.87 11.23
5/10/2021 4:45:00 PM 11.93 53.474 0.089 7.47 3.86 11.21
5/10/2021 5:00:00 PM 11.95 53.51 0.089 7.46 3.42 11.18
5/10/2021 5:15:00 PM 11.9 53.42 0.089 7.45 3.28 11.15
5/10/2021 5:30:00 PM 11.91 53.438 0.089 7.42 3.37 11.12
5/10/2021 5:45:00 PM 11.91 53.438 0.089 7.43 3.31 11.09
5/10/2021 6:00:00 PM 11.9 53.42 0.089 7.4 3.59 11.07
5/10/2021 6:15:00 PM 11.88 53.384 0.089 7.36 3.31 11.02
5/10/2021 6:30:00 PM 11.84 53.312 0.089 7.34 3.36 10.96
5/10/2021 6:45:00 PM 11.79 53.222 0.089 7.31 3.8 10.91
5/10/2021 7:00:00 PM 11.73 53.114 0.089 7.29 3.51 10.88
5/10/2021 7:15:00 PM 11.66 52.988 0.089 7.24 3.48 10.82
5/10/2021 7:30:00 PM 11.59 52.862 0.089 7.21 3.47 10.76
5/10/2021 7:45:00 PM 11.54 52.772 0.089 7.14 3.64 10.7
5/10/2021 8:00:00 PM 11.5 52.7 0.089 7.14 3.39 10.64
5/10/2021 8:15:00 PM 11.47 52.646 0.09 7.11 3.49 10.58
5/10/2021 8:30:00 PM 11.44 52.592 0.09 7.1 3.66 10.52
5/10/2021 8:45:00 PM 11.4 52.52 0.09 7.09 3.88 10.47
5/10/2021 9:00:00 PM 11.35 52.43 0.09 7.05 4.06 10.44
5/10/2021 9:15:00 PM 11.3 52.34 0.09 7.01 4.01 10.41
5/10/2021 9:30:00 PM 11.23 52.214 0.09 7 3.84 10.39
5/10/2021 9:45:00 PM 11.16 52.088 0.09 7 3.97 10.39
5/10/2021 10:00:00 PM 11.09 51.962 0.09 6.97 4.17 10.39
5/10/2021 10:15:00 PM 11.02 51.836 0.09 6.97 5.02 10.4
5/10/2021 10:30:00 PM 10.95 51.71 0.09 6.94 4.48 10.4
5/10/2021 10:45:00 PM 10.88 51.584 0.09 6.95 4.13 10.41
5/10/2021 11:00:00 PM 10.81 51.458 0.09 6.95 4.14 10.42
5/10/2021 11:15:00 PM 10.74 51.332 0.09 6.95 4.29 10.44
5/10/2021 11:30:00 PM 10.66 51.188 0.09 6.94 4 10.46
5/10/2021 11:45:00 PM 10.58 51.044 0.09 6.93 3.82 10.48
5/11/2021 12:00:00 AM 10.5 50.9 0.09 6.93 3.89 10.5
5/11/2021 12:15:00 AM 10.42 50.756 0.09 6.93 3.88 10.52
5/11/2021 12:30:00 AM 10.34 50.612 0.09 6.92 4.23 10.55
5/11/2021 12:45:00 AM 10.27 50.486 0.09 6.93 4.14 10.56
5/11/2021 1:00:00 AM 10.19 50.342 0.09 6.91 4.45 10.58
5/11/2021 1:15:00 AM 10.12 50.216 0.09 6.91 3.8 10.61
5/11/2021 1:30:00 AM 10.04 50.072 0.09 6.92 3.86 10.62
5/11/2021 1:45:00 AM 9.97 49.946 0.09 6.92 4.26 10.65
5/11/2021 2:00:00 AM 9.9 49.82 0.09 6.9 4.18 10.67
5/11/2021 2:15:00 AM 9.83 49.694 0.09 6.91 3.89 10.69
5/11/2021 2:30:00 AM 9.76 49.568 0.09 6.92 4.67 10.7
5/11/2021 2:45:00 AM 9.69 49.442 0.09 6.91 3.96 10.72
5/11/2021 3:00:00 AM 9.62 49.316 0.09 6.91 4.06 10.75
5/11/2021 3:15:00 AM 9.56 49.208 0.09 6.91 4.2 10.77
5/11/2021 3:30:00 AM 9.49 49.082 0.09 6.92 4.01 10.79
5/11/2021 3:45:00 AM 9.43 48.974 0.089 6.91 5.3 10.8
5/11/2021 4:00:00 AM 9.37 48.866 0.089 6.92 4.08 10.82
5/11/2021 4:15:00 AM 9.31 48.758 0.089 6.91 4.06 10.84
5/11/2021 4:30:00 AM 9.24 48.632 0.089 6.94 4.38 10.86
5/11/2021 4:45:00 AM 9.19 48.542 0.089 6.93 4.38 10.88
5/11/2021 5:00:00 AM 9.12 48.416 0.089 6.93 4.07 10.89
5/11/2021 5:15:00 AM 9.07 48.326 0.089 6.93 3.82 10.91
5/11/2021 5:30:00 AM 9.01 48.218 0.089 6.92 3.74 10.93
5/11/2021 5:45:00 AM 8.95 48.11 0.089 6.94 3.82 10.95
5/11/2021 6:00:00 AM 8.89 48.002 0.089 6.92 4.16 10.97
5/11/2021 6:15:00 AM 8.84 47.912 0.089 6.92 3.76 11
5/11/2021 6:30:00 AM 8.78 47.804 0.089 6.95 3.51 11.03
5/11/2021 6:45:00 AM 8.73 47.714 0.089 6.97 3.61 11.09
5/11/2021 7:00:00 AM 8.69 47.642 0.089 6.99 3.54 11.15
5/11/2021 7:15:00 AM 8.65 47.57 0.089 6.94 3.44 11.2
5/11/2021 7:30:00 AM 8.63 47.534 0.089 6.99 3.52 11.26
5/11/2021 7:45:00 AM 8.61 47.498 0.088 7.01 3.25 11.33
5/11/2021 8:00:00 AM 8.6 47.48 0.088 7.04 3.38 11.39
5/11/2021 8:15:00 AM 8.6 47.48 0.088 7.05 3.22 11.45
5/11/2021 8:30:00 AM 8.62 47.516 0.088 7.08 3.3 11.52
5/11/2021 8:45:00 AM 8.66 47.588 0.088 7.1 2.91 11.59
5/11/2021 9:00:00 AM 8.72 47.696 0.088 7.12 3.31 11.65
5/11/2021 9:15:00 AM 8.78 47.804 0.088 7.15 2.85 11.71
5/11/2021 9:30:00 AM 8.87 47.966 0.088 7.19 2.85 11.75
5/11/2021 9:45:00 AM 8.93 48.074 0.087 7.22 2.7 11.79
5/11/2021 10:00:00 AM 9.03 48.254 0.087 7.24 2.87 11.82
5/11/2021 10:15:00 AM 9.16 48.488 0.087 7.28 2.98 11.84
5/11/2021 10:30:00 AM 9.32 48.776 0.087 7.3 2.47 11.85
5/11/2021 10:45:00 AM 9.51 49.118 0.087 7.34 2.56 11.86
5/11/2021 11:00:00 AM 9.71 49.478 0.087 7.4 2.57 11.86
5/11/2021 11:15:00 AM 9.91 49.838 0.087 7.4 2.77 11.86
5/11/2021 11:30:00 AM 10.06 50.108 0.087 7.44 2.53 11.84
5/11/2021 11:45:00 AM 10.19 50.342 0.087 7.44 2.44 11.81
5/11/2021 12:00:00 PM 10.28 50.504 0.086 7.47 2.44 11.8
5/11/2021 12:15:00 PM 10.41 50.738 0.086 7.46 2.55 11.76
5/11/2021 12:30:00 PM 10.55 50.99 0.086 7.5 2.61 11.75
5/11/2021 12:45:00 PM 10.59 51.062 0.086 7.5 2.44 11.72
5/11/2021 1:00:00 PM 10.62 51.116 0.086 7.49 2.34 11.69
5/11/2021 1:15:00 PM 10.63 51.134 0.086 7.47 2.36 11.61
5/11/2021 1:30:00 PM 10.68 51.224 0.086 7.46 2.42 11.57
5/11/2021 1:45:00 PM 10.75 51.35 0.086 7.48 2.37 11.55
5/11/2021 2:00:00 PM 10.81 51.458 0.086 7.5 2.22 11.55
5/11/2021 2:15:00 PM 10.94 51.692 0.086 7.53 2.45 11.56
5/11/2021 2:30:00 PM 11.03 51.854 0.086 7.53 2.61 11.55
5/11/2021 2:45:00 PM 11.06 51.908 0.086 7.55 2.4 11.5
5/11/2021 3:00:00 PM 11.26 52.268 0.086 7.56 2.37 11.49
5/11/2021 3:15:00 PM 11.45 52.61 0.086 7.59 2.82 11.48
5/11/2021 3:30:00 PM 11.49 52.682 0.086 7.59 2.34 11.44
5/11/2021 3:45:00 PM 11.53 52.754 0.085 7.59 2.35 11.42
5/11/2021 4:00:00 PM 11.63 52.934 0.085 7.58 2.59 11.38
5/11/2021 4:15:00 PM 11.78 53.204 0.085 7.6 2.22 11.35
5/11/2021 4:30:00 PM 11.8 53.24 0.085 7.58 2.41 11.31
5/11/2021 4:45:00 PM 11.94 53.492 0.085 7.58 2.39 11.29
5/11/2021 5:00:00 PM 11.94 53.492 0.085 7.57 2.34 11.25
5/11/2021 5:15:00 PM 11.97 53.546 0.085 7.54 2.3 11.21
5/11/2021 5:30:00 PM 12 53.6 0.085 7.53 2.33 11.19
5/11/2021 5:45:00 PM 11.96 53.528 0.085 7.49 2.51 11.14
5/11/2021 6:00:00 PM 11.99 53.582 0.085 7.49 2.26 11.1
5/11/2021 6:15:00 PM 11.98 53.564 0.085 7.41 2.48 11.05
5/11/2021 6:30:00 PM 11.97 53.546 0.085 7.42 2.45 11
5/11/2021 6:45:00 PM 11.94 53.492 0.085 7.39 2.57 10.94
5/11/2021 7:00:00 PM 11.89 53.402 0.085 7.32 2.67 10.88
5/11/2021 7:15:00 PM 11.83 53.294 0.086 7.3 2.42 10.83
5/11/2021 7:30:00 PM 11.76 53.168 0.086 7.28 2.51 10.78
5/11/2021 7:45:00 PM 11.66 52.988 0.086 7.24 2.46 10.72
5/11/2021 8:00:00 PM 11.58 52.844 0.086 7.19 2.43 10.67
5/11/2021 8:15:00 PM 11.48 52.664 0.086 7.16 2.75 10.62
5/11/2021 8:30:00 PM 11.37 52.466 0.086 7.12 2.57 10.58
5/11/2021 8:45:00 PM 11.26 52.268 0.086 7.07 2.87 10.54
5/11/2021 9:00:00 PM 11.15 52.07 0.086 7.06 3.07 10.52
5/11/2021 9:15:00 PM 11.05 51.89 0.086 7.04 3.03 10.51
5/11/2021 9:30:00 PM 10.96 51.728 0.086 7.02 2.77 10.5
5/11/2021 9:45:00 PM 10.87 51.566 0.086 7.02 3.23 10.49
5/11/2021 10:00:00 PM 10.78 51.404 0.086 7.01 3.18 10.49
5/11/2021 10:15:00 PM 10.69 51.242 0.086 7 2.93 10.5
5/11/2021 10:30:00 PM 10.6 51.08 0.086 6.97 3.33 10.51
5/11/2021 10:45:00 PM 10.51 50.918 0.086 6.97 3.24 10.53
5/11/2021 11:00:00 PM 10.42 50.756 0.087 6.98 2.98 10.55
5/11/2021 11:15:00 PM 10.34 50.612 0.087 6.96 2.91 10.57
5/11/2021 11:30:00 PM 10.26 50.468 0.087 6.96 2.81 10.58
5/11/2021 11:45:00 PM 10.18 50.324 0.087 6.98 2.86 10.6
5/12/2021 12:00:00 AM 10.1 50.18 0.087 6.98 2.99 10.62
5/12/2021 12:15:00 AM 10.01 50.018 0.087 6.97 3.01 10.65
5/12/2021 12:30:00 AM 9.93 49.874 0.087 6.97 3.02 10.67
5/12/2021 12:45:00 AM 9.84 49.712 0.087 6.96 2.89 10.7
5/12/2021 1:00:00 AM 9.75 49.55 0.087 6.96 2.92 10.72
5/12/2021 1:15:00 AM 9.67 49.406 0.087 6.94 2.93 10.75
5/12/2021 1:30:00 AM 9.57 49.226 0.087 6.92 2.99 10.77
5/12/2021 1:45:00 AM 9.48 49.064 0.087 6.94 3.06 10.8
5/12/2021 2:00:00 AM 9.4 48.92 0.087 6.95 2.91 10.82
5/12/2021 2:15:00 AM 9.3 48.74 0.087 6.94 3.09 10.85
5/12/2021 2:30:00 AM 9.21 48.578 0.087 6.94 3.04 10.87
5/12/2021 2:45:00 AM 9.11 48.398 0.087 6.95 3.11 10.9
5/12/2021 3:00:00 AM 9.02 48.236 0.087 6.95 2.91 10.93
5/12/2021 3:15:00 AM 8.92 48.056 0.087 6.95 2.92 10.95
5/12/2021 3:30:00 AM 8.83 47.894 0.087 6.95 3.33 10.98
5/12/2021 3:45:00 AM 8.74 47.732 0.087 6.95 3.02 11.01
5/12/2021 4:00:00 AM 8.66 47.588 0.087 6.93 2.95 11.03
5/12/2021 4:15:00 AM 8.57 47.426 0.087 6.93 3.08 11.05
5/12/2021 4:30:00 AM 8.49 47.282 0.087 6.95 3.05 11.07
5/12/2021 4:45:00 AM 8.4 47.12 0.087 6.95 3.08 11.1
5/12/2021 5:00:00 AM 8.32 46.976 0.087 6.91 2.95 11.13
5/12/2021 5:15:00 AM 8.24 46.832 0.087 6.94 2.98 11.15
5/12/2021 5:30:00 AM 8.17 46.706 0.087 6.93 2.92 11.17
5/12/2021 5:45:00 AM 8.1 46.58 0.087 6.93 3.41 11.2
5/12/2021 6:00:00 AM 8.04 46.472 0.087 6.91 2.84 11.23
5/12/2021 6:15:00 AM 7.99 46.382 0.087 6.95 2.77 11.26
5/12/2021 6:30:00 AM 7.94 46.292 0.087 6.96 2.77 11.31
5/12/2021 6:45:00 AM 7.9 46.22 0.087 6.97 2.49 11.37
5/12/2021 7:00:00 AM 7.85 46.13 0.087 6.97 3.14 11.44
5/12/2021 7:15:00 AM 7.82 46.076 0.087 6.99 2.51 11.52
5/12/2021 7:30:00 AM 7.8 46.04 0.087 7.01 2.36 11.6
5/12/2021 7:45:00 AM 7.79 46.022 0.087 7.04 2.62 11.66
5/12/2021 8:00:00 AM 7.79 46.022 0.087 7.06 2.34 11.73
5/12/2021 8:15:00 AM 7.8 46.04 0.087 7.08 2.26 11.8
5/12/2021 8:30:00 AM 7.84 46.112 0.086 7.12 2.43 11.87
5/12/2021 8:45:00 AM 7.89 46.202 0.086 7.15 2.23 11.93
5/12/2021 9:00:00 AM 7.94 46.292 0.086 7.17 2.21 11.99
5/12/2021 9:15:00 AM 8.01 46.418 0.086 7.21 2.13 12.04
5/12/2021 9:30:00 AM 8.1 46.58 0.086 7.22 2.15 12.08
5/12/2021 9:45:00 AM 8.19 46.742 0.086 7.26 2.07 12.12
5/12/2021 10:00:00 AM 8.31 46.958 0.086 7.28 2.13 12.15
5/12/2021 10:15:00 AM 8.44 47.192 0.086 7.3 2.02 12.18
5/12/2021 10:30:00 AM 8.62 47.516 0.086 7.33 2.07 12.2
5/12/2021 10:45:00 AM 8.82 47.876 0.086 7.38 2.07 12.21
5/12/2021 11:00:00 AM 9.04 48.272 0.085 7.42 2.17 12.21
5/12/2021 11:15:00 AM 9.26 48.668 0.085 7.45 2.06 12.19
5/12/2021 11:30:00 AM 9.47 49.046 0.085 7.47 1.93 12.17
5/12/2021 11:45:00 AM 9.73 49.514 0.085 7.49 2.06 12.14
5/12/2021 12:00:00 PM 9.8 49.64 0.085 7.47 1.94 12.12
5/12/2021 12:15:00 PM 10.05 50.09 0.085 7.53 2.21 12.09
5/12/2021 12:30:00 PM 10.29 50.522 0.085 7.56 1.94 12.06
5/12/2021 12:45:00 PM 10.66 51.188 0.085 7.61 1.98 12.03
5/12/2021 1:00:00 PM 10.85 51.53 0.085 7.62 1.98 11.99
5/12/2021 1:15:00 PM 11.17 52.106 0.085 7.65 1.8 11.95
5/12/2021 1:30:00 PM 11.19 52.142 0.085 7.65 1.84 11.9
5/12/2021 1:45:00 PM 11.39 52.502 0.085 7.66 1.96 11.85
5/12/2021 2:00:00 PM 11.49 52.682 0.085 7.66 1.92 11.77
5/12/2021 2:15:00 PM 11.58 52.844 0.085 7.65 2.06 11.74
5/12/2021 2:30:00 PM 11.9 53.42 0.085 7.71 1.94 11.7
5/12/2021 2:45:00 PM 11.92 53.456 0.085 7.69 1.92 11.64
5/12/2021 3:00:00 PM 12.13 53.834 0.085 7.73 1.84 11.59
5/12/2021 3:15:00 PM 12.22 53.996 0.085 7.75 1.89 11.58
5/12/2021 3:30:00 PM 12.38 54.284 0.085 7.75 1.95 11.55
5/12/2021 3:45:00 PM 12.48 54.464 0.085 7.78 2.06 11.53
5/12/2021 4:00:00 PM 12.71 54.878 0.085 7.84 1.85 11.5
5/12/2021 4:15:00 PM 12.77 54.986 0.084 7.85 2.27 11.48
5/12/2021 4:30:00 PM 12.91 55.238 0.085 7.84 1.97 11.42
5/12/2021 4:45:00 PM 12.91 55.238 0.084 7.8 1.84 11.36
5/12/2021 5:00:00 PM 13.02 55.436 0.084 7.81 2.12 11.32
5/12/2021 5:15:00 PM 12.99 55.382 0.085 7.79 1.96 11.26
5/12/2021 5:30:00 PM 13.06 55.508 0.085 7.78 2.02 11.22
5/12/2021 5:45:00 PM 13.03 55.454 0.085 7.69 2.02 11.13
5/12/2021 6:00:00 PM 13.08 55.544 0.085 7.66 1.92 11.04
5/12/2021 6:15:00 PM 13.04 55.472 0.085 7.59 1.93 10.94
5/12/2021 6:30:00 PM 13.06 55.508 0.085 7.53 2.02 10.91
5/12/2021 6:45:00 PM 13.01 55.418 0.085 7.5 1.92 10.86
5/12/2021 7:00:00 PM 12.93 55.274 0.085 7.44 2.21 10.77
5/12/2021 7:15:00 PM 12.83 55.094 0.085 7.36 2.08 10.68
5/12/2021 7:30:00 PM 12.74 54.932 0.085 7.29 2.22 10.62
5/12/2021 7:45:00 PM 12.64 54.752 0.085 7.23 2.09 10.55
5/12/2021 8:00:00 PM 12.53 54.554 0.085 7.2 2.15 10.5
5/12/2021 8:15:00 PM 12.43 54.374 0.086 7.12 2.06 10.44
5/12/2021 8:30:00 PM 12.33 54.194 0.086 7.12 2.36 10.39
5/12/2021 8:45:00 PM 12.22 53.996 0.086 7.08 2.28 10.34
5/12/2021 9:00:00 PM 12.12 53.816 0.086 7.05 2.5 10.31
5/12/2021 9:15:00 PM 12.02 53.636 0.086 7.03 2.62 10.28
5/12/2021 9:30:00 PM 11.92 53.456 0.086 7.01 2.48 10.27
5/12/2021 9:45:00 PM 11.82 53.276 0.086 6.94 2.39 10.26
5/12/2021 10:00:00 PM 11.72 53.096 0.086 6.99 2.64 10.26
5/12/2021 10:15:00 PM 11.62 52.916 0.087 6.96 2.5 10.26
5/12/2021 10:30:00 PM 11.52 52.736 0.087 6.96 2.5 10.27
5/12/2021 10:45:00 PM 11.43 52.574 0.087 6.95 2.24 10.28
5/12/2021 11:00:00 PM 11.34 52.412 0.087 6.95 2.52 10.29
5/12/2021 11:15:00 PM 11.24 52.232 0.087 6.89 2.43 10.31
5/12/2021 11:30:00 PM 11.15 52.07 0.087 6.95 2.45 10.33
5/12/2021 11:45:00 PM 11.05 51.89 0.087 6.93 2.26 10.35
5/13/2021 12:00:00 AM 10.95 51.71 0.087 6.94 2.6 10.37
5/13/2021 12:15:00 AM 10.85 51.53 0.087 6.95 2.37 10.4
5/13/2021 12:30:00 AM 10.74 51.332 0.087 6.93 2.44 10.43
5/13/2021 12:45:00 AM 10.64 51.152 0.087 6.94 2.41 10.45
5/13/2021 1:00:00 AM 10.54 50.972 0.087 6.94 2.54 10.48
5/13/2021 1:15:00 AM 10.44 50.792 0.088 6.92 2.46 10.5
5/13/2021 1:30:00 AM 10.34 50.612 0.088 6.92 2.44 10.53
5/13/2021 1:45:00 AM 10.24 50.432 0.088 6.9 2.44 10.57
5/13/2021 2:00:00 AM 10.13 50.234 0.088 6.94 2.48 10.59
5/13/2021 2:15:00 AM 10.03 50.054 0.088 6.92 2.46 10.61
5/13/2021 2:30:00 AM 9.93 49.874 0.088 6.9 2.48 10.64
5/13/2021 2:45:00 AM 9.83 49.694 0.088 6.94 2.51 10.67
5/13/2021 3:00:00 AM 9.73 49.514 0.088 6.94 2.42 10.7
5/13/2021 3:15:00 AM 9.63 49.334 0.088 6.94 2.33 10.73
5/13/2021 3:30:00 AM 9.53 49.154 0.088 6.94 2.19 10.77
5/13/2021 3:45:00 AM 9.44 48.992 0.088 6.94 2.46 10.79
5/13/2021 4:00:00 AM 9.34 48.812 0.088 6.94 2.21 10.81
5/13/2021 4:15:00 AM 9.25 48.65 0.088 6.93 2.56 10.84
5/13/2021 4:30:00 AM 9.15 48.47 0.088 6.94 2.24 10.87
5/13/2021 4:45:00 AM 9.06 48.308 0.088 6.94 2.43 10.9
5/13/2021 5:00:00 AM 8.97 48.146 0.088 6.93 2.34 10.92
5/13/2021 5:15:00 AM 8.88 47.984 0.088 6.92 2.39 10.96
5/13/2021 5:30:00 AM 8.79 47.822 0.088 6.93 2.32 10.98
5/13/2021 5:45:00 AM 8.71 47.678 0.088 6.89 2.25 11.01
5/13/2021 6:00:00 AM 8.62 47.516 0.088 6.94 2.28 11.04
5/13/2021 6:15:00 AM 8.54 47.372 0.088 6.95 2.62 11.09
5/13/2021 6:30:00 AM 8.46 47.228 0.088 6.93 2.32 11.15
5/13/2021 6:45:00 AM 8.39 47.102 0.088 6.98 2.21 11.22
5/13/2021 7:00:00 AM 8.33 46.994 0.088 6.99 2.19 11.3
5/13/2021 7:15:00 AM 8.28 46.904 0.088 7 2.19 11.39
5/13/2021 7:30:00 AM 8.24 46.832 0.088 7.02 2.17 11.46
5/13/2021 7:45:00 AM 8.22 46.796 0.088 7.05 2.08 11.55
5/13/2021 8:00:00 AM 8.21 46.778 0.088 7.07 2.14 11.64
5/13/2021 8:15:00 AM 8.21 46.778 0.088 7.1 2.17 11.73
5/13/2021 8:30:00 AM 8.22 46.796 0.088 7.13 2.02 11.81
5/13/2021 8:45:00 AM 8.26 46.868 0.088 7.16 1.89 11.89
5/13/2021 9:00:00 AM 8.31 46.958 0.088 7.2 1.9 11.96
5/13/2021 9:15:00 AM 8.39 47.102 0.088 7.23 1.84 12.04
5/13/2021 9:30:00 AM 8.48 47.264 0.087 7.23 1.81 12.1
5/13/2021 9:45:00 AM 8.58 47.444 0.087 7.31 1.87 12.14
5/13/2021 10:00:00 AM 8.71 47.678 0.087 7.34 1.71 12.18
5/13/2021 10:15:00 AM 8.84 47.912 0.087 7.38 1.74 12.22
5/13/2021 10:30:00 AM 9.01 48.218 0.087 7.42 1.75 12.25
5/13/2021 10:45:00 AM 9.22 48.596 0.087 7.48 1.86 12.26
5/13/2021 11:00:00 AM 9.41 48.938 0.087 7.51 1.68 12.28
5/13/2021 11:15:00 AM 9.41 48.938 0.087 7.51 1.85 12.26
5/13/2021 11:30:00 AM 9.54 49.172 0.087 7.55 1.77 12.27
5/13/2021 11:45:00 AM 9.67 49.406 0.087 7.58 1.72 12.27
5/13/2021 12:00:00 PM 9.84 49.712 0.086 7.66 1.67 12.27
5/13/2021 12:15:00 PM 10.05 50.09 0.086 7.7 1.69 12.25
5/13/2021 12:30:00 PM 10.22 50.396 0.086 7.73 1.78 12.24
5/13/2021 12:45:00 PM 10.29 50.522 0.086 7.73 1.61 12.21
5/13/2021 1:00:00 PM 10.63 51.134 0.086 7.79 1.6 12.17
5/13/2021 1:15:00 PM 10.58 51.044 0.086 7.73 1.66 12.12
5/13/2021 1:30:00 PM 10.66 51.188 0.086 7.78 1.6 12.09
5/13/2021 1:45:00 PM 10.88 51.584 0.086 7.84 1.75 12.09
5/13/2021 2:00:00 PM 11.21 52.178 0.086 7.89 1.7 12.07
5/13/2021 2:15:00 PM 11.39 52.502 0.086 7.94 1.61 12.06
5/13/2021 2:30:00 PM 11.34 52.412 0.086 7.93 1.66 12.03
5/13/2021 2:45:00 PM 11.45 52.61 0.086 7.93 1.76 12
5/13/2021 3:00:00 PM 11.53 52.754 0.086 8.01 1.61 11.99
5/13/2021 3:15:00 PM 11.66 52.988 0.086 8.04 1.63 11.96
5/13/2021 3:30:00 PM 11.76 53.168 0.086 8.06 1.63 11.93
5/13/2021 3:45:00 PM 12.01 53.618 0.086 8.08 1.68 11.89
5/13/2021 4:00:00 PM 12.09 53.762 0.086 8.09 1.68 11.84
5/13/2021 4:15:00 PM 12.06 53.708 0.086 8.07 1.67 11.77
5/13/2021 4:30:00 PM 12.07 53.726 0.086 7.96 1.67 11.66
5/13/2021 4:45:00 PM 12.11 53.798 0.086 7.96 1.61 11.61
5/13/2021 5:00:00 PM 12.19 53.942 0.086 7.95 1.82 11.57
5/13/2021 5:15:00 PM 12.21 53.978 0.086 7.89 1.7 11.51
5/13/2021 5:30:00 PM 12.29 54.122 0.086 7.9 1.67 11.49
5/13/2021 5:45:00 PM 12.27 54.086 0.086 7.87 1.76 11.45
5/13/2021 6:00:00 PM 12.23 54.014 0.086 7.81 1.71 11.38
5/13/2021 6:15:00 PM 12.2 53.96 0.086 7.72 1.73 11.29
5/13/2021 6:30:00 PM 12.18 53.924 0.086 7.64 1.79 11.18
5/13/2021 6:45:00 PM 12.18 53.924 0.086 7.55 1.65 11.08
5/13/2021 7:00:00 PM 12.18 53.924 0.086 7.5 1.58 10.99
5/13/2021 7:15:00 PM 12.18 53.924 0.086 7.43 1.62 10.9
5/13/2021 7:30:00 PM 12.18 53.924 0.086 7.38 1.71 10.82
5/13/2021 7:45:00 PM 12.18 53.924 0.086 7.34 1.85 10.73
5/13/2021 8:00:00 PM 12.17 53.906 0.086 7.3 1.82 10.65
5/13/2021 8:15:00 PM 12.14 53.852 0.087 7.25 1.74 10.56
5/13/2021 8:30:00 PM 12.11 53.798 0.087 7.2 1.78 10.48
5/13/2021 8:45:00 PM 12.07 53.726 0.087 7.17 1.82 10.41
5/13/2021 9:00:00 PM 12.02 53.636 0.087 7.13 2.05 10.36
5/13/2021 9:15:00 PM 11.96 53.528 0.087 7.07 2.15 10.31
5/13/2021 9:30:00 PM 11.9 53.42 0.087 7.07 2.09 10.28
5/13/2021 9:45:00 PM 11.84 53.312 0.087 7.04 2.05 10.26
5/13/2021 10:00:00 PM 11.76 53.168 0.087 7.01 2.15 10.24
5/13/2021 10:15:00 PM 11.68 53.024 0.088 7 2.07 10.24
5/13/2021 10:30:00 PM 11.59 52.862 0.088 6.98 2.08 10.23
5/13/2021 10:45:00 PM 11.5 52.7 0.088 6.98 1.98 10.24
5/13/2021 11:00:00 PM 11.41 52.538 0.088 6.96 2.09 10.25
5/13/2021 11:15:00 PM 11.32 52.376 0.088 6.95 2.13 10.27
5/13/2021 11:30:00 PM 11.24 52.232 0.088 6.95 2.19 10.28
5/13/2021 11:45:00 PM 11.14 52.052 0.088 6.95 2.09 10.29
5/14/2021 12:00:00 AM 11.05 51.89 0.088 6.95 2.39 10.31
5/14/2021 12:15:00 AM 10.96 51.728 0.088 6.94 2.45 10.34
5/14/2021 12:30:00 AM 10.87 51.566 0.088 6.93 2.01 10.36
5/14/2021 12:45:00 AM 10.78 51.404 0.088 6.94 3.36 10.38
5/14/2021 1:00:00 AM 10.69 51.242 0.089 6.91 2.19 10.4
5/14/2021 1:15:00 AM 10.6 51.08 0.089 6.94 2.15 10.42
5/14/2021 1:30:00 AM 10.51 50.918 0.089 6.93 2.16 10.45
5/14/2021 1:45:00 AM 10.42 50.756 0.089 6.94 1.97 10.47
5/14/2021 2:00:00 AM 10.33 50.594 0.089 6.94 2.02 10.49
5/14/2021 2:15:00 AM 10.24 50.432 0.089 6.93 2.1 10.52
5/14/2021 2:30:00 AM 10.15 50.27 0.089 6.93 2.09 10.54
5/14/2021 2:45:00 AM 10.07 50.126 0.089 6.95 2.11 10.56
5/14/2021 3:00:00 AM 9.98 49.964 0.089 6.96 2.24 10.6
5/14/2021 3:15:00 AM 9.89 49.802 0.089 6.96 2.06 10.62
5/14/2021 3:30:00 AM 9.81 49.658 0.089 6.96 2.34 10.64
5/14/2021 3:45:00 AM 9.72 49.496 0.089 6.91 2.22 10.67
5/14/2021 4:00:00 AM 9.63 49.334 0.089 6.96 2.08 10.69
5/14/2021 4:15:00 AM 9.55 49.19 0.089 6.92 1.93 10.72
5/14/2021 4:30:00 AM 9.46 49.028 0.089 6.96 2.12 10.75
5/14/2021 4:45:00 AM 9.37 48.866 0.089 6.96 2.04 10.77
5/14/2021 5:00:00 AM 9.29 48.722 0.089 6.95 2.09 10.8
5/14/2021 5:15:00 AM 9.2 48.56 0.089 6.96 2.02 10.82
5/14/2021 5:30:00 AM 9.12 48.416 0.089 6.95 2.09 10.85
5/14/2021 5:45:00 AM 9.04 48.272 0.089 6.96 1.99 10.87
5/14/2021 6:00:00 AM 8.96 48.128 0.089 6.96 2.05 10.91
5/14/2021 6:15:00 AM 8.88 47.984 0.089 6.97 1.93 10.96
5/14/2021 6:30:00 AM 8.81 47.858 0.089 6.93 2 11.02
5/14/2021 6:45:00 AM 8.74 47.732 0.089 7 1.97 11.1
5/14/2021 7:00:00 AM 8.69 47.642 0.089 7.01 1.86 11.2
5/14/2021 7:15:00 AM 8.65 47.57 0.089 7.03 2.35 11.28
5/14/2021 7:30:00 AM 8.62 47.516 0.089 7.01 1.96 11.37
5/14/2021 7:45:00 AM 8.6 47.48 0.089 7.07 1.98 11.47
5/14/2021 8:00:00 AM 8.6 47.48 0.089 7.11 2.48 11.56
5/14/2021 8:15:00 AM 8.6 47.48 0.089 7.11 1.83 11.66
5/14/2021 8:30:00 AM 8.62 47.516 0.089 7.17 1.91 11.75
5/14/2021 8:45:00 AM 8.65 47.57 0.089 7.21 1.87 11.84
5/14/2021 9:00:00 AM 8.71 47.678 0.089 7.2 1.79 11.92
5/14/2021 9:15:00 AM 8.79 47.822 0.089 7.28 1.77 12
5/14/2021 9:30:00 AM 8.89 48.002 0.089 7.32 1.73 12.07
5/14/2021 9:45:00 AM 9 48.2 0.089 7.36 1.75 12.12
5/14/2021 10:00:00 AM 9.12 48.416 0.089 7.41 1.78 12.17
5/14/2021 10:15:00 AM 9.26 48.668 0.088 7.45 1.67 12.21
5/14/2021 10:30:00 AM 9.43 48.974 0.088 7.5 1.56 12.26
5/14/2021 10:45:00 AM 9.64 49.352 0.088 7.55 1.57 12.27
5/14/2021 11:00:00 AM 9.87 49.766 0.088 7.61 1.54 12.28
5/14/2021 11:15:00 AM 10.1 50.18 0.088 7.64 1.7 12.3
5/14/2021 11:30:00 AM 10.35 50.63 0.088 7.7 1.76 12.29
5/14/2021 11:45:00 AM 10.62 51.116 0.088 7.75 1.47 12.27
5/14/2021 12:00:00 PM 10.9 51.62 0.088 7.8 1.59 12.25
5/14/2021 12:15:00 PM 11.2 52.16 0.088 7.87 1.62 12.23
5/14/2021 12:30:00 PM 11.52 52.736 0.088 7.92 1.58 12.2
5/14/2021 12:45:00 PM 11.84 53.312 0.088 7.98 1.53 12.18
5/14/2021 1:00:00 PM 12.15 53.87 0.087 8.02 1.59 12.13
5/14/2021 1:15:00 PM 12.06 53.708 0.088 8 1.49 12.07
5/14/2021 1:30:00 PM 12.37 54.266 0.087 8.02 1.47 12.03
5/14/2021 1:45:00 PM 12.39 54.302 0.087 8.03 1.6 11.92
5/14/2021 2:00:00 PM 12.36 54.248 0.088 7.96 1.61 11.77
5/14/2021 2:15:00 PM 12.31 54.158 0.087 7.9 1.73 11.68
5/14/2021 2:30:00 PM 12.32 54.176 0.087 7.9 1.56 11.64
5/14/2021 2:45:00 PM 12.38 54.284 0.087 7.89 1.59 11.64
5/14/2021 3:00:00 PM 12.46 54.428 0.087 7.99 1.56 11.67
5/14/2021 3:15:00 PM 12.63 54.734 0.087 8.06 1.46 11.71
5/14/2021 3:30:00 PM 12.59 54.662 0.087 8.12 1.57 11.77
5/14/2021 3:45:00 PM 12.56 54.608 0.087 8.16 1.45 11.79
5/14/2021 4:00:00 PM 12.6 54.68 0.087 8.2 1.56 11.8
5/14/2021 4:15:00 PM 12.68 54.824 0.087 8.25 1.55 11.81
5/14/2021 4:30:00 PM 12.74 54.932 0.087 8.26 1.53 11.78
5/14/2021 4:45:00 PM 12.74 54.932 0.087 8.27 1.52 11.74
5/14/2021 5:00:00 PM 12.77 54.986 0.087 8.27 1.52 11.68
5/14/2021 5:15:00 PM 12.8 55.04 0.087 8.24 1.43 11.64
5/14/2021 5:30:00 PM 12.85 55.13 0.087 8.23 1.56 11.58
5/14/2021 5:45:00 PM 12.89 55.202 0.087 8.22 1.55 11.54
5/14/2021 6:00:00 PM 12.9 55.22 0.087 8.19 1.61 11.48
5/14/2021 6:15:00 PM 12.92 55.256 0.087 8.14 1.52 11.42
5/14/2021 6:30:00 PM 12.93 55.274 0.087 8.09 1.61 11.35
5/14/2021 6:45:00 PM 12.93 55.274 0.087 8 1.53 11.25
5/14/2021 7:00:00 PM 12.93 55.274 0.087 7.88 1.68 11.11
5/14/2021 7:15:00 PM 12.93 55.274 0.087 7.73 1.7 10.98
5/14/2021 7:30:00 PM 12.93 55.274 0.087 7.63 1.64 10.85
5/14/2021 7:45:00 PM 12.91 55.238 0.087 7.54 1.69 10.73
5/14/2021 8:00:00 PM 12.88 55.184 0.088 7.44 1.83 10.59
5/14/2021 8:15:00 PM 12.86 55.148 0.088 7.37 1.69 10.48
5/14/2021 8:30:00 PM 12.84 55.112 0.088 7.3 1.72 10.36
5/14/2021 8:45:00 PM 12.82 55.076 0.088 7.23 1.83 10.26
5/14/2021 9:00:00 PM 12.8 55.04 0.088 7.2 1.99 10.19
5/14/2021 9:15:00 PM 12.76 54.968 0.088 7.16 1.75 10.13
5/14/2021 9:30:00 PM 12.71 54.878 0.088 7.13 1.88 10.07
5/14/2021 9:45:00 PM 12.66 54.788 0.089 7.09 1.86 10.04
5/14/2021 10:00:00 PM 12.6 54.68 0.089 7.07 1.95 10.02
5/14/2021 10:15:00 PM 12.54 54.572 0.089 7.05 2.13 9.99
5/14/2021 10:30:00 PM 12.46 54.428 0.089 7.03 1.95 9.99
5/14/2021 10:45:00 PM 12.39 54.302 0.089 7.02 1.78 9.98
5/14/2021 11:00:00 PM 12.32 54.176 0.089 6.96 2.11 9.98
5/14/2021 11:15:00 PM 12.24 54.032 0.089 6.98 2.03 9.99
5/14/2021 11:30:00 PM 12.15 53.87 0.089 6.97 2.02 10
5/14/2021 11:45:00 PM 12.06 53.708 0.089 6.96 2.03 10.01
5/15/2021 12:00:00 AM 11.98 53.564 0.089 6.95 1.94 10.03
5/15/2021 12:15:00 AM 11.89 53.402 0.089 6.95 1.9 10.05
5/15/2021 12:30:00 AM 11.8 53.24 0.089 6.96 1.98 10.06
5/15/2021 12:45:00 AM 11.72 53.096 0.09 6.93 2.18 10.08
5/15/2021 1:00:00 AM 11.63 52.934 0.09 6.94 2.04 10.1
5/15/2021 1:15:00 AM 11.54 52.772 0.09 6.93 1.92 10.12
5/15/2021 1:30:00 AM 11.46 52.628 0.09 6.94 2.05 10.14
5/15/2021 1:45:00 AM 11.37 52.466 0.09 6.93 1.93 10.16
5/15/2021 2:00:00 AM 11.28 52.304 0.09 6.93 1.95 10.19
5/15/2021 2:15:00 AM 11.2 52.16 0.09 6.93 1.91 10.21
5/15/2021 2:30:00 AM 11.12 52.016 0.09 6.89 1.95 10.23
5/15/2021 2:45:00 AM 11.04 51.872 0.09 6.93 2.19 10.25
5/15/2021 3:00:00 AM 10.96 51.728 0.09 6.92 1.9 10.28
5/15/2021 3:15:00 AM 10.88 51.584 0.09 6.93 2.08 10.3
5/15/2021 3:30:00 AM 10.8 51.44 0.09 6.93 1.96 10.32
5/15/2021 3:45:00 AM 10.72 51.296 0.09 6.94 1.95 10.35
5/15/2021 4:00:00 AM 10.64 51.152 0.09 6.92 2.03 10.37
5/15/2021 4:15:00 AM 10.56 51.008 0.091 6.92 1.84 10.39
5/15/2021 4:30:00 AM 10.48 50.864 0.091 6.94 2.58 10.41
5/15/2021 4:45:00 AM 10.41 50.738 0.091 6.93 1.86 10.44
5/15/2021 5:00:00 AM 10.33 50.594 0.091 6.93 1.84 10.46
5/15/2021 5:15:00 AM 10.26 50.468 0.091 6.91 1.93 10.47
5/15/2021 5:30:00 AM 10.19 50.342 0.091 6.93 2.49 10.51
5/15/2021 5:45:00 AM 10.11 50.198 0.091 6.93 2 10.52
5/15/2021 6:00:00 AM 10.04 50.072 0.091 6.94 1.86 10.56
5/15/2021 6:15:00 AM 9.97 49.946 0.091 6.94 2.04 10.62
5/15/2021 6:30:00 AM 9.9 49.82 0.091 6.95 1.84 10.69
5/15/2021 6:45:00 AM 9.84 49.712 0.091 6.97 1.86 10.78
5/15/2021 7:00:00 AM 9.79 49.622 0.091 6.99 1.92 10.88
5/15/2021 7:15:00 AM 9.75 49.55 0.091 7.01 1.74 10.99
5/15/2021 7:30:00 AM 9.73 49.514 0.091 7.03 1.77 11.09
5/15/2021 7:45:00 AM 9.72 49.496 0.091 7.04 1.7 11.19
5/15/2021 8:00:00 AM 9.71 49.478 0.091 7.1 1.79 11.29
5/15/2021 8:15:00 AM 9.72 49.496 0.091 7.14 1.93 11.39
5/15/2021 8:30:00 AM 9.75 49.55 0.09 7.17 1.91 11.5
5/15/2021 8:45:00 AM 9.78 49.604 0.09 7.22 1.59 11.59
5/15/2021 9:00:00 AM 9.83 49.694 0.09 7.27 1.82 11.68
5/15/2021 9:15:00 AM 9.91 49.838 0.09 7.31 2.22 11.77
5/15/2021 9:30:00 AM 9.99 49.982 0.09 7.36 1.7 11.85
5/15/2021 9:45:00 AM 10.1 50.18 0.09 7.42 1.73 11.92
5/15/2021 10:00:00 AM 10.22 50.396 0.09 7.44 1.46 11.99
5/15/2021 10:15:00 AM 10.35 50.63 0.09 7.52 1.58 12.02
5/15/2021 10:30:00 AM 10.52 50.936 0.09 7.58 1.53 12.08
5/15/2021 10:45:00 AM 10.73 51.314 0.09 7.66 1.45 12.12
5/15/2021 11:00:00 AM 10.94 51.692 0.09 7.73 1.5 12.15
5/15/2021 11:15:00 AM 11.17 52.106 0.09 7.8 1.48 12.16
5/15/2021 11:30:00 AM 11.39 52.502 0.09 7.85 1.99 12.16
5/15/2021 11:45:00 AM 11.64 52.952 0.089 7.93 1.48 12.16
5/15/2021 12:00:00 PM 11.91 53.438 0.089 8 1.39 12.16
5/15/2021 12:15:00 PM 12.21 53.978 0.089 8.06 1.39 12.14
5/15/2021 12:30:00 PM 12.44 54.392 0.089 8.09 1.4 12.1
5/15/2021 12:45:00 PM 12.78 55.004 0.089 8.17 1.35 12.09
5/15/2021 1:00:00 PM 13.05 55.49 0.089 8.23 1.42 12.06
5/15/2021 1:15:00 PM 13.31 55.958 0.089 8.28 1.36 12.01
5/15/2021 1:30:00 PM 13.61 56.498 0.089 8.32 1.42 11.99
5/15/2021 1:45:00 PM 13.87 56.966 0.089 8.36 1.44 11.95
5/15/2021 2:00:00 PM 14.11 57.398 0.089 8.4 1.32 11.89
5/15/2021 2:15:00 PM 14.33 57.794 0.089 8.42 1.42 11.84
5/15/2021 2:30:00 PM 14.45 58.01 0.089 8.42 1.38 11.76
5/15/2021 2:45:00 PM 14.49 58.082 0.089 8.43 1.36 11.73
5/15/2021 3:00:00 PM 14.48 58.064 0.089 8.41 1.35 11.63
5/15/2021 3:15:00 PM 14.5 58.1 0.089 8.43 1.36 11.59
5/15/2021 3:30:00 PM 14.54 58.172 0.089 8.42 1.5 11.53
5/15/2021 3:45:00 PM 14.55 58.19 0.089 8.42 1.56 11.48
5/15/2021 4:00:00 PM 14.56 58.208 0.089 8.44 1.4 11.45
5/15/2021 4:15:00 PM 14.61 58.298 0.089 8.44 1.53 11.43
5/15/2021 4:30:00 PM 14.71 58.478 0.089 8.46 1.62 11.4
5/15/2021 4:45:00 PM 14.62 58.316 0.089 8.45 1.46 11.37
5/15/2021 5:00:00 PM 14.59 58.262 0.089 8.44 1.58 11.32
5/15/2021 5:15:00 PM 14.61 58.298 0.088 8.43 1.49 11.3
5/15/2021 5:30:00 PM 14.65 58.37 0.088 8.45 1.48 11.3
5/15/2021 5:45:00 PM 14.68 58.424 0.088 8.42 1.59 11.26
5/15/2021 6:00:00 PM 14.68 58.424 0.088 8.41 1.58 11.2
5/15/2021 6:15:00 PM 14.69 58.442 0.088 8.38 1.47 11.14
5/15/2021 6:30:00 PM 14.7 58.46 0.088 8.34 1.51 11.07
5/15/2021 6:45:00 PM 14.71 58.478 0.088 8.27 1.49 10.99
5/15/2021 7:00:00 PM 14.73 58.514 0.088 8.21 1.66 10.9
5/15/2021 7:15:00 PM 14.72 58.496 0.089 8.1 1.53 10.77
5/15/2021 7:30:00 PM 14.69 58.442 0.089 7.9 1.54 10.58
5/15/2021 7:45:00 PM 14.66 58.388 0.089 7.72 1.51 10.41
5/15/2021 8:00:00 PM 14.64 58.352 0.089 7.6 1.54 10.26
5/15/2021 8:15:00 PM 14.6 58.28 0.089 7.47 1.54 10.12
5/15/2021 8:30:00 PM 14.55 58.19 0.089 7.37 1.49 9.99
5/15/2021 8:45:00 PM 14.5 58.1 0.09 7.31 1.66 9.9
5/15/2021 9:00:00 PM 14.44 57.992 0.09 7.25 1.67 9.8
5/15/2021 9:15:00 PM 14.38 57.884 0.09 7.19 2.07 9.74
5/15/2021 9:30:00 PM 14.31 57.758 0.09 7.13 1.94 9.69
5/15/2021 9:45:00 PM 14.23 57.614 0.09 7.11 1.89 9.66
5/15/2021 10:00:00 PM 14.14 57.452 0.09 7.07 1.78 9.63
5/15/2021 10:15:00 PM 14.05 57.29 0.09 7.04 2.05 9.61
5/15/2021 10:30:00 PM 13.96 57.128 0.091 7.03 1.86 9.6
5/15/2021 10:45:00 PM 13.87 56.966 0.091 7 1.92 9.6
5/15/2021 11:00:00 PM 13.77 56.786 0.091 7 1.94 9.59
5/15/2021 11:15:00 PM 13.67 56.606 0.091 6.98 1.9 9.6
5/15/2021 11:30:00 PM 13.58 56.444 0.091 6.96 1.94 9.61
5/15/2021 11:45:00 PM 13.49 56.282 0.091 6.96 1.76 9.62
5/16/2021 12:00:00 AM 13.39 56.102 0.091 6.94 1.97 9.63
5/16/2021 12:15:00 AM 13.3 55.94 0.091 6.94 2.03 9.65
5/16/2021 12:30:00 AM 13.21 55.778 0.091 6.93 1.83 9.66
5/16/2021 12:45:00 AM 13.12 55.616 0.091 6.92 1.84 9.68
5/16/2021 1:00:00 AM 13.04 55.472 0.091 6.93 2.03 9.7
5/16/2021 1:15:00 AM 12.96 55.328 0.092 6.93 1.87 9.72
5/16/2021 1:30:00 AM 12.89 55.202 0.092 6.93 1.92 9.74
5/16/2021 1:45:00 AM 12.82 55.076 0.092 6.93 1.87 9.76
5/16/2021 2:00:00 AM 12.75 54.95 0.092 6.92 1.84 9.77
5/16/2021 2:15:00 AM 12.68 54.824 0.092 6.92 1.98 9.79
5/16/2021 2:30:00 AM 12.6 54.68 0.092 6.93 1.91 9.82
5/16/2021 2:45:00 AM 12.54 54.572 0.092 6.94 1.82 9.82
5/16/2021 3:00:00 AM 12.47 54.446 0.092 6.94 1.85 9.84
5/16/2021 3:15:00 AM 12.41 54.338 0.092 6.94 2.04 9.87
5/16/2021 3:30:00 AM 12.34 54.212 0.092 6.92 1.87 9.88
5/16/2021 3:45:00 AM 12.27 54.086 0.092 6.96 1.99 9.9
5/16/2021 4:00:00 AM 12.2 53.96 0.092 6.95 2 9.92
5/16/2021 4:15:00 AM 12.12 53.816 0.092 6.95 2.21 9.93
5/16/2021 4:30:00 AM 12.05 53.69 0.093 6.95 1.91 9.95
5/16/2021 4:45:00 AM 11.99 53.582 0.093 6.94 2.01 9.98
5/16/2021 5:00:00 AM 11.9 53.42 0.093 6.94 1.99 9.99
5/16/2021 5:15:00 AM 11.83 53.294 0.093 6.94 2.32 10.01
5/16/2021 5:30:00 AM 11.75 53.15 0.093 6.94 1.89 10.03
5/16/2021 5:45:00 AM 11.68 53.024 0.093 6.9 1.92 10.06
5/16/2021 6:00:00 AM 11.6 52.88 0.093 6.94 1.85 10.09
5/16/2021 6:15:00 AM 11.53 52.754 0.093 6.95 1.92 10.15
5/16/2021 6:30:00 AM 11.47 52.646 0.093 6.96 1.84 10.25
5/16/2021 6:45:00 AM 11.42 52.556 0.093 6.99 1.82 10.36
5/16/2021 7:00:00 AM 11.38 52.484 0.093 7.01 1.66 10.5
5/16/2021 7:15:00 AM 11.34 52.412 0.092 7.03 1.74 10.64
5/16/2021 7:30:00 AM 11.32 52.376 0.092 7.08 1.78 10.79
5/16/2021 7:45:00 AM 11.32 52.376 0.092 7.12 2.51 10.93
5/16/2021 8:00:00 AM 11.31 52.358 0.092 7.17 1.6 11.07
5/16/2021 8:15:00 AM 11.31 52.358 0.092 7.23 1.88 11.19
5/16/2021 8:30:00 AM 11.32 52.376 0.092 7.28 1.59 11.31
5/16/2021 8:45:00 AM 11.34 52.412 0.092 7.34 1.6 11.43
5/16/2021 9:00:00 AM 11.38 52.484 0.092 7.41 1.55 11.55
5/16/2021 9:15:00 AM 11.42 52.556 0.092 7.49 1.73 11.65
5/16/2021 9:30:00 AM 11.44 52.592 0.092 7.55 1.53 11.73
5/16/2021 9:45:00 AM 11.48 52.664 0.091 7.64 1.52 11.8
5/16/2021 10:00:00 AM 11.54 52.772 0.091 7.7 1.49 11.87
5/16/2021 10:15:00 AM 11.6 52.88 0.091 7.78 1.5 11.94
5/16/2021 10:30:00 AM 11.67 53.006 0.091 7.86 1.77 11.99
5/16/2021 10:45:00 AM 11.73 53.114 0.091 7.94 1.56 12.05
5/16/2021 11:00:00 AM 11.83 53.294 0.091 8.03 1.51 12.1
5/16/2021 11:15:00 AM 11.97 53.546 0.091 8.12 1.55 12.13
5/16/2021 11:30:00 AM 12.1 53.78 0.091 8.21 1.44 12.17
5/16/2021 11:45:00 AM 12.23 54.014 0.091 8.28 1.44 12.2
5/16/2021 12:00:00 PM 12.34 54.212 0.091 8.35 1.52 12.22
5/16/2021 12:15:00 PM 12.44 54.392 0.091 8.39 1.42 12.21
5/16/2021 12:30:00 PM 12.51 54.518 0.091 8.42 1.63 12.23
5/16/2021 12:45:00 PM 12.59 54.662 0.091 8.48 1.57 12.23
5/16/2021 1:00:00 PM 12.72 54.896 0.091 8.54 1.42 12.21
5/16/2021 1:15:00 PM 12.8 55.04 0.091 8.56 1.37 12.21
5/16/2021 1:30:00 PM 12.87 55.166 0.09 8.59 1.47 12.19
5/16/2021 1:45:00 PM 12.98 55.364 0.09 8.62 1.43 12.18
5/16/2021 2:00:00 PM 13.06 55.508 0.09 8.64 1.35 12.16
5/16/2021 2:15:00 PM 13.17 55.706 0.09 8.68 1.47 12.17
5/16/2021 2:30:00 PM 13.3 55.94 0.09 8.69 1.43 12.13
5/16/2021 2:45:00 PM 13.44 56.192 0.09 8.71 1.45 12.13
5/16/2021 3:00:00 PM 13.55 56.39 0.09 8.75 1.44 12.11
5/16/2021 3:15:00 PM 13.65 56.57 0.09 8.76 1.42 12.08
5/16/2021 3:30:00 PM 13.71 56.678 0.09 8.77 1.51 12.05
5/16/2021 3:45:00 PM 13.85 56.93 0.09 8.78 1.37 12.01
5/16/2021 4:00:00 PM 13.94 57.092 0.09 8.8 1.38 11.99
5/16/2021 4:15:00 PM 14 57.2 0.09 8.79 1.41 11.96
5/16/2021 4:30:00 PM 14.1 57.38 0.09 8.8 1.42 11.91
5/16/2021 4:45:00 PM 14.14 57.452 0.09 8.79 1.43 11.81
5/16/2021 5:00:00 PM 14.16 57.488 0.09 8.77 1.56 11.76
5/16/2021 5:15:00 PM 14.18 57.524 0.09 8.75 1.43 11.67
5/16/2021 5:30:00 PM 14.21 57.578 0.09 8.73 1.53 11.6
5/16/2021 5:45:00 PM 14.23 57.614 0.09 8.71 1.45 11.51
5/16/2021 6:00:00 PM 14.22 57.596 0.09 8.67 1.48 11.43
5/16/2021 6:15:00 PM 14.23 57.614 0.09 8.62 1.43 11.35
5/16/2021 6:30:00 PM 14.27 57.686 0.09 8.61 1.42 11.3
5/16/2021 6:45:00 PM 14.31 57.758 0.09 8.58 1.66 11.23
5/16/2021 7:00:00 PM 14.33 57.794 0.09 8.51 1.59 11.12
5/16/2021 7:15:00 PM 14.35 57.83 0.09 8.42 1.6 10.97
5/16/2021 7:30:00 PM 14.35 57.83 0.09 8.31 2.49 10.83
5/16/2021 7:45:00 PM 14.34 57.812 0.09 8.14 1.43 10.68
5/16/2021 8:00:00 PM 14.31 57.758 0.09 7.95 1.38 10.5
5/16/2021 8:15:00 PM 14.27 57.686 0.09 7.78 1.57 10.33
5/16/2021 8:30:00 PM 14.22 57.596 0.09 7.63 1.66 10.17
5/16/2021 8:45:00 PM 14.17 57.506 0.091 7.5 1.77 10.04
5/16/2021 9:00:00 PM 14.13 57.434 0.091 7.41 1.73 9.93
5/16/2021 9:15:00 PM 14.07 57.326 0.091 7.34 1.75 9.85
5/16/2021 9:30:00 PM 14.01 57.218 0.091 7.26 1.79 9.79
5/16/2021 9:45:00 PM 13.95 57.11 0.091 7.24 2 9.74
5/16/2021 10:00:00 PM 13.89 57.002 0.091 7.2 1.83 9.69
5/16/2021 10:15:00 PM 13.82 56.876 0.092 7.16 1.81 9.66
5/16/2021 10:30:00 PM 13.75 56.75 0.092 7.13 1.66 9.64
5/16/2021 10:45:00 PM 13.68 56.624 0.092 7.11 1.9 9.62
5/16/2021 11:00:00 PM 13.6 56.48 0.092 7.1 1.89 9.61
5/16/2021 11:15:00 PM 13.52 56.336 0.092 7.04 1.89 9.61
5/16/2021 11:30:00 PM 13.44 56.192 0.092 7.06 1.78 9.61
5/16/2021 11:45:00 PM 13.35 56.03 0.092 7.04 1.87 9.62
5/17/2021 12:00:00 AM 13.27 55.886 0.092 7.03 1.97 9.63
5/17/2021 12:15:00 AM 13.17 55.706 0.092 7.02 1.85 9.63
5/17/2021 12:30:00 AM 13.08 55.544 0.093 7.01 1.79 9.66
5/17/2021 12:45:00 AM 13 55.4 0.093 7 1.99 9.66
5/17/2021 1:00:00 AM 12.91 55.238 0.093 7.01 2.06 9.69
5/17/2021 1:15:00 AM 12.82 55.076 0.093 7.01 1.82 9.69
5/17/2021 1:30:00 AM 12.74 54.932 0.093 7.01 1.85 9.71
5/17/2021 1:45:00 AM 12.66 54.788 0.093 7 2.01 9.73
5/17/2021 2:00:00 AM 12.56 54.608 0.093 7 2.05 9.74
5/17/2021 2:15:00 AM 12.48 54.464 0.093 7 1.88 9.77
5/17/2021 2:30:00 AM 12.39 54.302 0.093 7 1.93 9.8
5/17/2021 2:45:00 AM 12.32 54.176 0.093 7 1.84 9.82
5/17/2021 3:00:00 AM 12.23 54.014 0.093 6.98 1.88 9.84
5/17/2021 3:15:00 AM 12.14 53.852 0.093 7 1.76 9.86
5/17/2021 3:30:00 AM 12.06 53.708 0.093 6.98 2.19 9.88
5/17/2021 3:45:00 AM 11.97 53.546 0.093 7 1.78 9.91
5/17/2021 4:00:00 AM 11.89 53.402 0.094 6.99 1.87 9.93
5/17/2021 4:15:00 AM 11.81 53.258 0.094 6.98 1.96 9.95
5/17/2021 4:30:00 AM 11.74 53.132 0.094 6.97 1.72 9.97
5/17/2021 4:45:00 AM 11.66 52.988 0.094 6.99 1.73 9.99
5/17/2021 5:00:00 AM 11.58 52.844 0.094 6.98 1.76 10.01
5/17/2021 5:15:00 AM 11.5 52.7 0.094 6.98 1.68 10.03
5/17/2021 5:30:00 AM 11.42 52.556 0.094 6.98 1.93 10.06
5/17/2021 5:45:00 AM 11.34 52.412 0.094 6.98 1.77 10.09
5/17/2021 6:00:00 AM 11.27 52.286 0.094 6.98 1.82 10.13
5/17/2021 6:15:00 AM 11.19 52.142 0.094 6.98 2.02 10.19
5/17/2021 6:30:00 AM 11.13 52.034 0.094 7.01 1.8 10.27
5/17/2021 6:45:00 AM 11.07 51.926 0.094 7.02 1.72 10.37
5/17/2021 7:00:00 AM 11.02 51.836 0.094 7.04 1.74 10.5
5/17/2021 7:15:00 AM 10.98 51.764 0.094 7.07 1.65 10.61
5/17/2021 7:30:00 AM 10.96 51.728 0.094 7.1 1.6 10.73
5/17/2021 7:45:00 AM 10.96 51.728 0.094 7.13 1.66 10.84
5/17/2021 8:00:00 AM 10.96 51.728 0.094 7.14 1.6 10.95
5/17/2021 8:15:00 AM 10.98 51.764 0.094 7.21 1.48 11.05
5/17/2021 8:30:00 AM 11.01 51.818 0.094 7.25 1.56 11.16
5/17/2021 8:45:00 AM 11.05 51.89 0.093 7.28 1.53 11.27
5/17/2021 9:00:00 AM 11.11 51.998 0.093 7.34 1.52 11.36
5/17/2021 9:15:00 AM 11.18 52.124 0.093 7.4 1.36 11.48
5/17/2021 9:30:00 AM 11.28 52.304 0.093 7.42 1.47 11.57
5/17/2021 9:45:00 AM 11.39 52.502 0.093 7.52 1.46 11.66
5/17/2021 10:00:00 AM 11.51 52.718 0.093 7.58 1.43 11.71
5/17/2021 10:15:00 AM 11.64 52.952 0.093 7.61 1.37 11.79
5/17/2021 10:30:00 AM 11.81 53.258 0.093 7.73 1.4 11.87
5/17/2021 10:45:00 AM 12.02 53.636 0.093 7.81 1.35 11.9
5/17/2021 11:00:00 AM 12.2 53.96 0.093 7.89 1.41 11.95
5/17/2021 11:15:00 AM 12.42 54.356 0.093 7.98 1.4 11.98
5/17/2021 11:30:00 AM 12.65 54.77 0.093 8.05 1.45 12
5/17/2021 11:45:00 AM 12.9 55.22 0.093 8.13 1.37 12.01
5/17/2021 12:00:00 PM 13.16 55.688 0.093 8.17 1.32 12
5/17/2021 12:15:00 PM 13.42 56.156 0.093 8.28 1.44 12.02
5/17/2021 12:30:00 PM 13.71 56.678 0.093 8.34 1.39 12.02
5/17/2021 12:45:00 PM 13.99 57.182 0.092 8.36 1.4 11.98
5/17/2021 1:00:00 PM 14.28 57.704 0.092 8.44 1.33 11.97
5/17/2021 1:15:00 PM 14.54 58.172 0.092 8.48 1.52 11.95
5/17/2021 1:30:00 PM 14.82 58.676 0.092 8.5 1.42 11.91
5/17/2021 1:45:00 PM 15.08 59.144 0.092 8.55 1.33 11.87
5/17/2021 2:00:00 PM 15.3 59.54 0.092 8.59 1.37 11.83
5/17/2021 2:15:00 PM 15.53 59.954 0.092 8.62 1.55 11.79
5/17/2021 2:30:00 PM 15.72 60.296 0.092 8.64 1.33 11.75
5/17/2021 2:45:00 PM 15.88 60.584 0.092 8.63 1.57 11.68
5/17/2021 3:00:00 PM 16.01 60.818 0.092 8.66 1.35 11.63
5/17/2021 3:15:00 PM 16.1 60.98 0.092 8.64 1.32 11.56
5/17/2021 3:30:00 PM 16.19 61.142 0.092 8.67 1.33 11.5
5/17/2021 3:45:00 PM 16.26 61.268 0.092 8.67 1.36 11.43
5/17/2021 4:00:00 PM 16.32 61.376 0.092 8.65 1.37 11.34
5/17/2021 4:15:00 PM 16.35 61.43 0.092 8.64 1.38 11.26
5/17/2021 4:30:00 PM 16.39 61.502 0.092 8.61 1.41 11.16
5/17/2021 4:45:00 PM 16.41 61.538 0.092 8.59 1.76 11.07
5/17/2021 5:00:00 PM 16.43 61.574 0.092 8.55 1.41 10.97
5/17/2021 5:15:00 PM 16.43 61.574 0.092 8.49 1.31 10.87
5/17/2021 5:30:00 PM 16.43 61.574 0.092 8.46 1.33 10.77
5/17/2021 5:45:00 PM 16.43 61.574 0.092 8.41 1.33 10.67
5/17/2021 6:00:00 PM 16.43 61.574 0.092 8.34 1.33 10.55
5/17/2021 6:15:00 PM 16.42 61.556 0.092 8.26 1.35 10.43
5/17/2021 6:30:00 PM 16.4 61.52 0.092 8.13 1.37 10.32
5/17/2021 6:45:00 PM 16.39 61.502 0.092 8.03 1.35 10.19
5/17/2021 7:00:00 PM 16.38 61.484 0.092 7.92 1.4 10.07
5/17/2021 7:15:00 PM 16.35 61.43 0.092 7.78 1.34 9.94
5/17/2021 7:30:00 PM 16.33 61.394 0.093 7.69 1.56 9.84
5/17/2021 7:45:00 PM 16.3 61.34 0.093 7.6 1.41 9.74
5/17/2021 8:00:00 PM 16.26 61.268 0.093 7.51 1.53 9.65
5/17/2021 8:15:00 PM 16.21 61.178 0.093 7.46 1.46 9.55
5/17/2021 8:30:00 PM 16.15 61.07 0.093 7.36 1.57 9.45
5/17/2021 8:45:00 PM 16.08 60.944 0.093 7.32 1.48 9.36
5/17/2021 9:00:00 PM 16.01 60.818 0.094 7.25 1.54 9.3
5/17/2021 9:15:00 PM 15.94 60.692 0.094 7.23 1.63 9.24
5/17/2021 9:30:00 PM 15.86 60.548 0.094 7.2 1.58 9.21
5/17/2021 9:45:00 PM 15.77 60.386 0.094 7.16 1.56 9.18
5/17/2021 10:00:00 PM 15.68 60.224 0.094 7.15 1.72 9.11
5/17/2021 10:15:00 PM 15.59 60.062 0.094 7.11 1.8 9.14
5/17/2021 10:30:00 PM 15.49 59.882 0.095 7.09 1.64 9.13
5/17/2021 10:45:00 PM 15.39 59.702 0.095 7.07 1.62 9.13
5/17/2021 11:00:00 PM 15.3 59.54 0.095 7.06 1.71 9.13
5/17/2021 11:15:00 PM 15.19 59.342 0.095 7.05 1.81 9.14
5/17/2021 11:30:00 PM 15.09 59.162 0.095 7.03 2.39 9.14
5/17/2021 11:45:00 PM 14.98 58.964 0.095 7.03 1.68 9.17
5/18/2021 12:00:00 AM 14.88 58.784 0.095 7.02 2.27 9.18
5/18/2021 12:15:00 AM 14.76 58.568 0.095 7.01 1.93 9.19
5/18/2021 12:30:00 AM 14.65 58.37 0.095 7.01 1.69 9.23
5/18/2021 12:45:00 AM 14.54 58.172 0.095 7 1.85 9.24
5/18/2021 1:00:00 AM 14.43 57.974 0.095 7 1.85 9.27
5/18/2021 1:15:00 AM 14.31 57.758 0.096 7 1.9 9.3
5/18/2021 1:30:00 AM 14.2 57.56 0.096 6.99 1.79 9.32
5/18/2021 1:45:00 AM 14.09 57.362 0.096 6.99 1.87 9.35
5/18/2021 2:00:00 AM 13.98 57.164 0.096 6.99 1.67 9.37
5/18/2021 2:15:00 AM 13.87 56.966 0.096 6.99 1.63 9.4
5/18/2021 2:30:00 AM 13.76 56.768 0.096 6.97 1.83 9.43
5/18/2021 2:45:00 AM 13.65 56.57 0.096 6.99 1.89 9.46
5/18/2021 3:00:00 AM 13.55 56.39 0.096 6.96 1.81 9.49
5/18/2021 3:15:00 AM 13.45 56.21 0.096 6.97 1.73 9.52
5/18/2021 3:30:00 AM 13.34 56.012 0.096 6.99 1.82 9.55
5/18/2021 3:45:00 AM 13.24 55.832 0.096 6.98 1.96 9.57
5/18/2021 4:00:00 AM 13.14 55.652 0.096 6.98 1.76 9.6
5/18/2021 4:15:00 AM 13.03 55.454 0.096 6.97 1.83 9.63
5/18/2021 4:30:00 AM 12.93 55.274 0.096 6.98 1.9 9.67
5/18/2021 4:45:00 AM 12.83 55.094 0.096 6.99 1.93 9.68
5/18/2021 5:00:00 AM 12.74 54.932 0.096 6.96 2 9.72
5/18/2021 5:15:00 AM 12.64 54.752 0.096 6.98 1.68 9.74
5/18/2021 5:30:00 AM 12.55 54.59 0.096 6.97 1.84 9.77
5/18/2021 5:45:00 AM 12.45 54.41 0.096 6.99 1.89 9.79
5/18/2021 6:00:00 AM 12.37 54.266 0.096 6.99 1.81 9.83
5/18/2021 6:15:00 AM 12.28 54.104 0.096 6.98 1.85 9.9
5/18/2021 6:30:00 AM 12.21 53.978 0.096 7.01 1.77 9.98
5/18/2021 6:45:00 AM 12.14 53.852 0.096 7.04 1.76 10.1
5/18/2021 7:00:00 AM 12.08 53.744 0.096 7.05 1.76 10.23
5/18/2021 7:15:00 AM 12.05 53.69 0.096 7.08 1.87 10.34
5/18/2021 7:30:00 AM 12.02 53.636 0.096 7.12 1.62 10.46
5/18/2021 7:45:00 AM 12.01 53.618 0.096 7.15 1.59 10.59
5/18/2021 8:00:00 AM 12.01 53.618 0.096 7.18 1.56 10.7
5/18/2021 8:15:00 AM 12.03 53.654 0.096 7.24 1.64 10.81
5/18/2021 8:30:00 AM 12.06 53.708 0.096 7.27 1.52 10.92
5/18/2021 8:45:00 AM 12.09 53.762 0.096 7.29 1.72 11.03
5/18/2021 9:00:00 AM 12.15 53.87 0.096 7.36 1.58 11.13
5/18/2021 9:15:00 AM 12.22 53.996 0.095 7.42 1.46 11.24
5/18/2021 9:30:00 AM 12.31 54.158 0.095 7.48 1.68 11.35
5/18/2021 9:45:00 AM 12.41 54.338 0.095 7.54 1.55 11.43
5/18/2021 10:00:00 AM 12.54 54.572 0.095 7.6 1.46 11.53
5/18/2021 10:15:00 AM 12.67 54.806 0.095 7.68 1.4 11.57
5/18/2021 10:30:00 AM 12.84 55.112 0.095 7.74 1.38 11.65
5/18/2021 10:45:00 AM 13.05 55.49 0.095 7.84 1.4 11.71
5/18/2021 11:00:00 AM 13.26 55.868 0.095 7.95 1.56 11.77
5/18/2021 11:15:00 AM 13.46 56.228 0.095 8.01 1.36 11.78
5/18/2021 11:30:00 AM 13.68 56.624 0.095 8.1 1.55 11.81
5/18/2021 11:45:00 AM 13.93 57.074 0.094 8.17 1.38 11.84
5/18/2021 12:00:00 PM 14.19 57.542 0.094 8.23 1.3 11.84
5/18/2021 12:15:00 PM 14.46 58.028 0.094 8.32 1.37 11.85
5/18/2021 12:30:00 PM 14.75 58.55 0.094 8.38 1.36 11.84
5/18/2021 12:45:00 PM 15.06 59.108 0.094 8.44 1.38 11.84
5/18/2021 1:00:00 PM 15.34 59.612 0.094 8.48 1.26 11.83
5/18/2021 1:15:00 PM 15.65 60.17 0.094 8.55 1.39 11.83
5/18/2021 1:30:00 PM 15.95 60.71 0.094 8.58 1.28 11.78
5/18/2021 1:45:00 PM 16.09 60.962 0.094 8.61 1.33 11.73
5/18/2021 2:00:00 PM 16.35 61.43 0.094 8.65 1.38 11.72
5/18/2021 2:15:00 PM 16.62 61.916 0.094 8.7 1.25 11.72
5/18/2021 2:30:00 PM 16.63 61.934 0.094 8.7 1.3 11.64
5/18/2021 2:45:00 PM 16.68 62.024 0.094 8.69 1.37 11.61
5/18/2021 3:00:00 PM 16.94 62.492 0.094 8.74 1.25 11.55
5/18/2021 3:15:00 PM 17.05 62.69 0.094 8.75 1.27 11.5
5/18/2021 3:30:00 PM 16.84 62.312 0.094 8.72 1.27 11.43
5/18/2021 3:45:00 PM 16.84 62.312 0.094 8.73 1.29 11.37
5/18/2021 4:00:00 PM 17 62.6 0.094 8.73 1.44 11.32
5/18/2021 4:15:00 PM 17.11 62.798 0.094 8.73 1.44 11.26
5/18/2021 4:30:00 PM 17.02 62.636 0.094 8.69 1.45 11.15
5/18/2021 4:45:00 PM 17.11 62.798 0.094 8.7 1.44 11.12
5/18/2021 5:00:00 PM 17.2 62.96 0.094 8.72 1.45 11.03
5/18/2021 5:15:00 PM 17.15 62.87 0.094 8.68 1.41 10.97
5/18/2021 5:30:00 PM 17.14 62.852 0.094 8.65 1.82 10.89
5/18/2021 5:45:00 PM 17.13 62.834 0.094 8.63 1.4 10.8
5/18/2021 6:00:00 PM 17.11 62.798 0.094 8.58 1.37 10.66
5/18/2021 6:15:00 PM 17.09 62.762 0.094 8.51 1.49 10.54
5/18/2021 6:30:00 PM 17.09 62.762 0.094 8.44 1.45 10.4
5/18/2021 6:45:00 PM 17.1 62.78 0.094 8.32 1.31 10.25
5/18/2021 7:00:00 PM 17.12 62.816 0.094 8.2 1.41 10.08
5/18/2021 7:15:00 PM 17.13 62.834 0.094 8.02 1.49 9.93
5/18/2021 7:30:00 PM 17.14 62.852 0.094 7.92 1.5 9.8
5/18/2021 7:45:00 PM 17.14 62.852 0.094 7.79 1.35 9.68
5/18/2021 8:00:00 PM 17.14 62.852 0.094 7.66 1.39 9.55
5/18/2021 8:15:00 PM 17.12 62.816 0.094 7.56 1.75 9.42
5/18/2021 8:30:00 PM 17.09 62.762 0.094 7.48 1.81 9.29
5/18/2021 8:45:00 PM 17.06 62.708 0.095 7.39 1.62 9.18
5/18/2021 9:00:00 PM 17.01 62.618 0.095 7.33 1.62 9.11
5/18/2021 9:15:00 PM 16.96 62.528 0.095 7.28 1.81 9.04
5/18/2021 9:30:00 PM 16.9 62.42 0.095 7.23 1.91 8.98
5/18/2021 9:45:00 PM 16.83 62.294 0.095 7.18 1.74 8.94
5/18/2021 10:00:00 PM 16.76 62.168 0.095 7.15 1.7 8.91
5/18/2021 10:15:00 PM 16.68 62.024 0.095 7.14 1.66 8.88
5/18/2021 10:30:00 PM 16.59 61.862 0.095 7.1 1.87 8.86
5/18/2021 10:45:00 PM 16.51 61.718 0.096 7.09 1.93 8.86
5/18/2021 11:00:00 PM 16.41 61.538 0.096 7.06 1.96 8.86
5/18/2021 11:15:00 PM 16.32 61.376 0.096 7.04 1.97 8.85
5/18/2021 11:30:00 PM 16.21 61.178 0.096 7.03 1.75 8.87
5/18/2021 11:45:00 PM 16.11 60.998 0.096 6.99 1.92 8.88
5/19/2021 12:00:00 AM 16 60.8 0.096 7.01 1.76 8.89
5/19/2021 12:15:00 AM 15.9 60.62 0.096 6.99 1.92 8.91
5/19/2021 12:30:00 AM 15.8 60.44 0.096 7 1.93 8.92
5/19/2021 12:45:00 AM 15.68 60.224 0.096 7 1.76 8.95
5/19/2021 1:00:00 AM 15.57 60.026 0.096 7 1.83 8.97
5/19/2021 1:15:00 AM 15.46 59.828 0.097 6.97 1.85 9
5/19/2021 1:30:00 AM 15.34 59.612 0.097 6.98 1.74 9.02
5/19/2021 1:45:00 AM 15.24 59.432 0.097 6.98 1.98 9.04
5/19/2021 2:00:00 AM 15.13 59.234 0.097 6.98 1.97 9.06
5/19/2021 2:15:00 AM 15.02 59.036 0.097 6.97 1.89 9.08
5/19/2021 2:30:00 AM 14.91 58.838 0.097 6.98 2.6 9.12
5/19/2021 2:45:00 AM 14.81 58.658 0.097 6.98 1.96 9.14
5/19/2021 3:00:00 AM 14.7 58.46 0.097 6.97 1.95 9.16
5/19/2021 3:15:00 AM 14.6 58.28 0.097 6.98 2.13 9.19
5/19/2021 3:30:00 AM 14.5 58.1 0.097 6.98 2.39 9.22
5/19/2021 3:45:00 AM 14.4 57.92 0.097 6.97 2.63 9.24
5/19/2021 4:00:00 AM 14.3 57.74 0.097 6.96 1.89 9.26
5/19/2021 4:15:00 AM 14.21 57.578 0.097 6.98 1.77 9.3
5/19/2021 4:30:00 AM 14.11 57.398 0.097 6.97 1.92 9.31
5/19/2021 4:45:00 AM 14.01 57.218 0.097 6.98 2.05 9.35
5/19/2021 5:00:00 AM 13.92 57.056 0.097 6.98 1.77 9.36
5/19/2021 5:15:00 AM 13.83 56.894 0.097 6.96 1.97 9.39
5/19/2021 5:30:00 AM 13.74 56.732 0.097 6.98 1.88 9.42
5/19/2021 5:45:00 AM 13.64 56.552 0.097 6.98 1.91 9.44
5/19/2021 6:00:00 AM 13.56 56.408 0.098 6.98 1.88 9.49
5/19/2021 6:15:00 AM 13.47 56.246 0.098 6.98 1.72 9.56
5/19/2021 6:30:00 AM 13.4 56.12 0.098 7.01 1.74 9.64
5/19/2021 6:45:00 AM 13.33 55.994 0.098 7.02 1.92 9.75
5/19/2021 7:00:00 AM 13.27 55.886 0.098 7.02 1.92 9.89
5/19/2021 7:15:00 AM 13.23 55.814 0.099 7.08 1.87 10.02
5/19/2021 7:30:00 AM 13.2 55.76 0.099 7.08 1.89 10.11
5/19/2021 7:45:00 AM 13.19 55.742 0.099 7.15 1.88 10.28
5/19/2021 8:00:00 AM 13.19 55.742 0.1 7.17 1.86 10.39
5/19/2021 8:15:00 AM 13.21 55.778 0.1 7.22 1.66 10.53
5/19/2021 8:30:00 AM 13.24 55.832 0.1 7.27 1.76 10.63
5/19/2021 8:45:00 AM 13.28 55.904 0.101 7.32 1.65 10.75
5/19/2021 9:00:00 AM 13.34 56.012 0.101 7.36 1.65 10.86
5/19/2021 9:15:00 AM 13.42 56.156 0.101 7.42 1.69 10.98
5/19/2021 9:30:00 AM 13.5 56.3 0.101 7.49 1.65 11.08
5/19/2021 9:45:00 AM 13.61 56.498 0.101 7.56 1.67 11.19
5/19/2021 10:00:00 AM 13.75 56.75 0.101 7.63 1.56 11.28
5/19/2021 10:15:00 AM 13.87 56.966 0.101 7.7 1.86 11.34
5/19/2021 10:30:00 AM 14.03 57.254 0.101 7.78 1.7 11.42
5/19/2021 10:45:00 AM 14.23 57.614 0.101 7.89 1.73 11.49
5/19/2021 11:00:00 AM 14.45 58.01 0.101 7.99 1.69 11.58
5/19/2021 11:15:00 AM 14.67 58.406 0.101 8.08 1.73 11.61
5/19/2021 11:30:00 AM 14.88 58.784 0.101 8.17 1.85 11.64
5/19/2021 11:45:00 AM 15.12 59.216 0.1 8.25 1.86 11.66
5/19/2021 12:00:00 PM 15.37 59.666 0.1 8.32 1.88 11.67
5/19/2021 12:15:00 PM 15.65 60.17 0.101 8.39 2.06 11.7
5/19/2021 12:30:00 PM 15.96 60.728 0.1 8.47 1.97 11.73
5/19/2021 12:45:00 PM 16.23 61.214 0.1 8.53 1.91 11.71
5/19/2021 1:00:00 PM 16.53 61.754 0.1 8.57 1.96 11.71
5/19/2021 1:15:00 PM 16.81 62.258 0.1 8.62 1.83 11.69
5/19/2021 1:30:00 PM 17.1 62.78 0.1 8.65 1.93 11.66
5/19/2021 1:45:00 PM 17.37 63.266 0.1 8.69 1.76 11.64
5/19/2021 2:00:00 PM 17.63 63.734 0.1 8.72 1.85 11.6
5/19/2021 2:15:00 PM 17.84 64.112 0.1 8.74 1.73 11.55
5/19/2021 2:30:00 PM 18.03 64.454 0.1 8.75 1.67 11.49
5/19/2021 2:45:00 PM 18.2 64.76 0.1 8.77 1.7 11.44
5/19/2021 3:00:00 PM 18.35 65.03 0.1 8.77 1.66 11.38
5/19/2021 3:15:00 PM 18.49 65.282 0.1 8.78 1.57 11.35
5/19/2021 3:30:00 PM 18.59 65.462 0.1 8.79 4.88 11.25
5/19/2021 3:45:00 PM 18.65 65.57 0.1 8.78 1.35 11.15
5/19/2021 4:00:00 PM 18.68 65.624 0.1 8.77 1.41 11.09
5/19/2021 4:15:00 PM 18.66 65.588 0.099 8.75 1.55 10.99
5/19/2021 4:30:00 PM 18.73 65.714 0.099 8.73 1.37 10.94
5/19/2021 4:45:00 PM 18.8 65.84 0.099 8.73 1.59 10.86
5/19/2021 5:00:00 PM 18.82 65.876 0.099 8.73 1.41 10.79
5/19/2021 5:15:00 PM 18.79 65.82201 0.099 8.7 1.32 10.69
5/19/2021 5:30:00 PM 18.79 65.82201 0.099 8.67 1.35 10.58
5/19/2021 5:45:00 PM 18.83 65.894 0.099 8.66 1.37 10.51
5/19/2021 6:00:00 PM 18.92 66.056 0.098 8.65 1.54 10.46
5/19/2021 6:15:00 PM 18.96 66.128 0.098 8.65 1.63 10.42
5/19/2021 6:30:00 PM 18.97 66.146 0.098 8.62 1.37 10.33
5/19/2021 6:45:00 PM 18.96 66.128 0.098 8.52 1.44 10.13
5/19/2021 7:00:00 PM 18.95 66.11 0.098 8.4 1.59 9.92
5/19/2021 7:15:00 PM 18.92 66.056 0.098 8.26 1.46 9.73
5/19/2021 7:30:00 PM 18.89 66.002 0.098 8.09 1.58 9.56
5/19/2021 7:45:00 PM 18.84 65.912 0.098 7.9 1.57 9.39
5/19/2021 8:00:00 PM 18.79 65.82201 0.098 7.76 1.52 9.22
5/19/2021 8:15:00 PM 18.74 65.732 0.098 7.62 1.59 9.07
5/19/2021 8:30:00 PM 18.68 65.624 0.099 7.51 1.47 8.94
5/19/2021 8:45:00 PM 18.62 65.516 0.099 7.41 1.73 8.82
5/19/2021 9:00:00 PM 18.54 65.372 0.099 7.35 1.52 8.73
5/19/2021 9:15:00 PM 18.48 65.264 0.099 7.29 1.92 8.67
5/19/2021 9:30:00 PM 18.41 65.138 0.099 7.23 1.65 8.6
5/19/2021 9:45:00 PM 18.34 65.012 0.099 7.21 1.58 8.56
5/19/2021 10:00:00 PM 18.28 64.904 0.099 7.17 1.81 8.53
5/19/2021 10:15:00 PM 18.21 64.778 0.099 7.14 1.97 8.49
5/19/2021 10:30:00 PM 18.14 64.652 0.099 7.13 1.88 8.46
5/19/2021 10:45:00 PM 18.07 64.526 0.1 7.1 1.84 8.45
5/19/2021 11:00:00 PM 18 64.4 0.1 7.09 1.96 8.44
5/19/2021 11:15:00 PM 17.92 64.256 0.1 7.07 1.81 8.43
5/19/2021 11:30:00 PM 17.84 64.112 0.1 7.05 1.76 8.4
5/19/2021 11:45:00 PM 17.76 63.968 0.1 7.03 1.89 8.44
5/20/2021 12:00:00 AM 17.68 63.824 0.1 7.03 2.21 8.43
5/20/2021 12:15:00 AM 17.59 63.662 0.1 7.02 1.93 8.45
5/20/2021 12:30:00 AM 17.5 63.5 0.1 7.02 1.87 8.47
5/20/2021 12:45:00 AM 17.41 63.338 0.1 7 1.85 8.48
5/20/2021 1:00:00 AM 17.31 63.158 0.101 7.01 2.13 8.49
5/20/2021 1:15:00 AM 17.21 62.978 0.101 7 1.86 8.51
5/20/2021 1:30:00 AM 17.11 62.798 0.101 6.95 2.14 8.53
5/20/2021 1:45:00 AM 17.01 62.618 0.101 7 1.78 8.55
5/20/2021 2:00:00 AM 16.91 62.438 0.101 6.99 2.03 8.56
5/20/2021 2:15:00 AM 16.81 62.258 0.101 6.98 1.78 8.6
5/20/2021 2:30:00 AM 16.71 62.078 0.101 6.98 1.89 8.61
5/20/2021 2:45:00 AM 16.61 61.898 0.101 6.97 2.02 8.64
5/20/2021 3:00:00 AM 16.5 61.7 0.101 6.97 2.12 8.66
5/20/2021 3:15:00 AM 16.4 61.52 0.101 6.96 1.97 8.69
5/20/2021 3:30:00 AM 16.31 61.358 0.101 6.97 2.16 8.71
5/20/2021 3:45:00 AM 16.22 61.196 0.101 6.97 2.08 8.74
5/20/2021 4:00:00 AM 16.12 61.016 0.101 6.97 1.93 8.76
5/20/2021 4:15:00 AM 16.03 60.854 0.101 6.98 1.86 8.8
5/20/2021 4:30:00 AM 15.94 60.692 0.101 6.97 2.68 8.82
5/20/2021 4:45:00 AM 15.85 60.53 0.101 6.96 1.91 8.84
5/20/2021 5:00:00 AM 15.76 60.368 0.101 6.97 1.97 8.87
5/20/2021 5:15:00 AM 15.67 60.206 0.101 6.97 2.12 8.9
5/20/2021 5:30:00 AM 15.58 60.044 0.101 6.96 1.92 8.92
5/20/2021 5:45:00 AM 15.49 59.882 0.101 6.96 1.99 8.96
5/20/2021 6:00:00 AM 15.41 59.738 0.101 6.96 1.92 9
5/20/2021 6:15:00 AM 15.32 59.576 0.102 6.97 1.81 9.06
5/20/2021 6:30:00 AM 15.25 59.45 0.101 6.99 1.99 9.16
5/20/2021 6:45:00 AM 15.19 59.342 0.101 7 1.73 9.3
5/20/2021 7:00:00 AM 15.15 59.27 0.101 7.06 2.01 9.47
5/20/2021 7:15:00 AM 15.12 59.216 0.101 7.09 1.76 9.66
5/20/2021 7:30:00 AM 15.1 59.18 0.101 7.14 1.8 9.81
5/20/2021 7:45:00 AM 15.09 59.162 0.101 7.19 1.79 9.96
5/20/2021 8:00:00 AM 15.09 59.162 0.101 7.23 1.72 10.09
5/20/2021 8:15:00 AM 15.13 59.234 0.101 7.29 1.78 10.26
5/20/2021 8:30:00 AM 15.16 59.288 0.101 7.34 1.69 10.42
5/20/2021 8:45:00 AM 15.1 59.18 0.101 7.39 1.77 10.51
5/20/2021 9:00:00 AM 15.11 59.198 0.101 7.45 1.78 10.66
5/20/2021 9:15:00 AM 15.24 59.432 0.101 7.53 1.58 10.82
5/20/2021 9:30:00 AM 15.36 59.648 0.101 7.66 1.66 10.97
5/20/2021 9:45:00 AM 15.42 59.756 0.1 7.76 1.59 11.12
5/20/2021 10:00:00 AM 15.49 59.882 0.1 7.86 1.61 11.19
5/20/2021 10:15:00 AM 15.6 60.08 0.1 7.97 1.58 11.28
5/20/2021 10:30:00 AM 15.79 60.422 0.1 8.06 1.65 11.38
5/20/2021 10:45:00 AM 16.02 60.836 0.1 8.18 1.68 11.41
5/20/2021 11:00:00 AM 16.23 61.214 0.1 8.27 1.75 11.46
5/20/2021 11:15:00 AM 16.44 61.592 0.1 8.36 1.6 11.52
5/20/2021 11:30:00 AM 16.64 61.952 0.1 8.41 1.66 11.52
5/20/2021 11:45:00 AM 16.87 62.366 0.1 8.47 1.49 11.56
5/20/2021 12:00:00 PM 17.09 62.762 0.1 8.53 1.61 11.57
5/20/2021 12:15:00 PM 17.33 63.194 0.1 8.57 1.55 11.56
5/20/2021 12:30:00 PM 17.63 63.734 0.1 8.63 1.71 11.58
5/20/2021 12:45:00 PM 17.91 64.238 0.1 8.66 1.58 11.59
5/20/2021 1:00:00 PM 18.16 64.688 0.099 8.71 1.5 11.55
5/20/2021 1:15:00 PM 18.42 65.156 0.099 8.75 1.36 11.55
5/20/2021 1:30:00 PM 18.67 65.606 0.099 8.78 1.47 11.53
5/20/2021 1:45:00 PM 18.98 66.164 0.099 8.81 1.37 11.48
5/20/2021 2:00:00 PM 19.2 66.56 0.099 8.83 1.22 11.49
5/20/2021 2:15:00 PM 19.42 66.956 0.099 8.84 1.37 11.41
5/20/2021 2:30:00 PM 19.62 67.316 0.099 8.86 1.33 11.38
5/20/2021 2:45:00 PM 19.8 67.64 0.099 8.88 1.44 11.33
5/20/2021 3:00:00 PM 19.92 67.856 0.099 8.87 1.57 11.26
5/20/2021 3:15:00 PM 20 68 0.099 8.87 1.38 11.2
5/20/2021 3:30:00 PM 20.1 68.18 0.099 8.86 1.37 11.16
5/20/2021 3:45:00 PM 20.16 68.288 0.099 8.86 1.26 11.07
5/20/2021 4:00:00 PM 20.18 68.324 0.099 8.85 1.7 10.96
5/20/2021 4:15:00 PM 20.18 68.324 0.099 8.81 1.26 10.88
5/20/2021 4:30:00 PM 20.18 68.324 0.099 8.81 1.32 10.78
5/20/2021 4:45:00 PM 20.17 68.306 0.099 8.78 1.36 10.68
5/20/2021 5:00:00 PM 20.18 68.324 0.099 8.76 1.47 10.6
5/20/2021 5:15:00 PM 20.16 68.288 0.099 8.73 1.42 10.51
5/20/2021 5:30:00 PM 20.17 68.306 0.098 8.71 1.74 10.39
5/20/2021 5:45:00 PM 20.18 68.324 0.098 8.66 1.3 10.26
5/20/2021 6:00:00 PM 20.16 68.288 0.098 8.61 1.33 10.11
5/20/2021 6:15:00 PM 20.17 68.306 0.098 8.53 1.54 9.95
5/20/2021 6:30:00 PM 20.18 68.324 0.098 8.43 1.33 9.78
5/20/2021 6:45:00 PM 20.18 68.324 0.098 8.35 1.69 9.61
5/20/2021 7:00:00 PM 20.19 68.342 0.098 8.26 1.52 9.49
5/20/2021 7:15:00 PM 20.19 68.342 0.098 8.16 1.46 9.4
5/20/2021 7:30:00 PM 20.19 68.342 0.099 8.04 1.53 9.28
5/20/2021 7:45:00 PM 20.17 68.306 0.099 7.93 1.41 9.14
5/20/2021 8:00:00 PM 20.14 68.252 0.099 7.81 1.47 9.03
5/20/2021 8:15:00 PM 20.09 68.162 0.099 7.67 1.61 8.86
5/20/2021 8:30:00 PM 20.02 68.036 0.099 7.54 1.67 8.7
5/20/2021 8:45:00 PM 19.94 67.892 0.099 7.45 1.58 8.57
5/20/2021 9:00:00 PM 19.87 67.766 0.1 7.37 1.62 8.46
5/20/2021 9:15:00 PM 19.79 67.622 0.1 7.3 1.63 8.4
5/20/2021 9:30:00 PM 19.72 67.496 0.1 7.26 1.71 8.32
5/20/2021 9:45:00 PM 19.63 67.334 0.1 7.21 1.77 8.27
5/20/2021 10:00:00 PM 19.55 67.19 0.1 7.19 1.72 8.23
5/20/2021 10:15:00 PM 19.47 67.046 0.1 7.15 1.8 8.21
5/20/2021 10:30:00 PM 19.39 66.902 0.101 7.13 1.72 8.18
5/20/2021 10:45:00 PM 19.31 66.758 0.101 7.11 1.57 8.16
5/20/2021 11:00:00 PM 19.23 66.614 0.101 7.09 1.94 8.14
5/20/2021 11:15:00 PM 19.15 66.47 0.101 7.08 1.79 8.14
5/20/2021 11:30:00 PM 19.07 66.326 0.101 7.06 1.71 8.13
5/20/2021 11:45:00 PM 18.99 66.182 0.101 7.05 2.14 8.12
5/21/2021 12:00:00 AM 18.91 66.038 0.101 7.01 2.69 8.13
5/21/2021 12:15:00 AM 18.83 65.894 0.102 7.03 2.09 8.14
5/21/2021 12:30:00 AM 18.75 65.75 0.102 7.01 1.98 8.14
5/21/2021 12:45:00 AM 18.66 65.588 0.102 7.01 1.74 8.16
5/21/2021 1:00:00 AM 18.57 65.426 0.102 7 2.02 8.15
5/21/2021 1:15:00 AM 18.49 65.282 0.102 7.01 2.02 8.19
5/21/2021 1:30:00 AM 18.39 65.102 0.102 7 1.97 8.19
5/21/2021 1:45:00 AM 18.3 64.94 0.102 7 1.99 8.21
5/21/2021 2:00:00 AM 18.2 64.76 0.102 6.99 2.05 8.23
5/21/2021 2:15:00 AM 18.11 64.598 0.103 7 2.18 8.25
5/21/2021 2:30:00 AM 18 64.4 0.103 7 1.96 8.27
5/21/2021 2:45:00 AM 17.9 64.22 0.103 7 1.79 8.3
5/21/2021 3:00:00 AM 17.8 64.04 0.103 6.98 2.51 8.32
5/21/2021 3:15:00 AM 17.7 63.86 0.103 7 1.9 8.35
5/21/2021 3:30:00 AM 17.6 63.68 0.103 7 1.92 8.37
5/21/2021 3:45:00 AM 17.49 63.482 0.103 7.01 2.43 8.36
5/21/2021 4:00:00 AM 17.39 63.302 0.103 6.98 1.96 8.44
5/21/2021 4:15:00 AM 17.29 63.122 0.103 6.98 2.09 8.45
5/21/2021 4:30:00 AM 17.18 62.924 0.103 6.96 2.12 8.47
5/21/2021 4:45:00 AM 17.08 62.744 0.103 6.99 2 8.5
5/21/2021 5:00:00 AM 16.97 62.546 0.103 7.01 2.31 8.54
5/21/2021 5:15:00 AM 16.87 62.366 0.103 7.01 2.06 8.56
5/21/2021 5:30:00 AM 16.76 62.168 0.103 7.01 2.15 8.58
5/21/2021 5:45:00 AM 16.66 61.988 0.103 7 1.88 8.6
5/21/2021 6:00:00 AM 16.55 61.79 0.104 6.99 1.83 8.68
5/21/2021 6:15:00 AM 16.46 61.628 0.104 7.02 2.49 8.73
5/21/2021 6:30:00 AM 16.37 61.466 0.104 7.03 1.84 8.84
5/21/2021 6:45:00 AM 16.29 61.322 0.104 7.05 1.99 8.96
5/21/2021 7:00:00 AM 16.22 61.196 0.103 7.07 2.06 9.11
5/21/2021 7:15:00 AM 16.16 61.088 0.103 7.09 1.8 9.29
5/21/2021 7:30:00 AM 16.12 61.016 0.103 7.13 1.83 9.45
5/21/2021 7:45:00 AM 16.1 60.98 0.103 7.18 2.09 9.58
5/21/2021 8:00:00 AM 16.09 60.962 0.103 7.22 1.69 9.74
5/21/2021 8:15:00 AM 16.09 60.962 0.103 7.26 1.88 9.88
5/21/2021 8:30:00 AM 16.11 60.998 0.103 7.3 1.86 9.98
5/21/2021 8:45:00 AM 16.13 61.034 0.103 7.36 1.79 10.11
5/21/2021 9:00:00 AM 16.17 61.106 0.103 7.42 1.72 10.25
5/21/2021 9:15:00 AM 16.22 61.196 0.103 7.48 1.66 10.37
5/21/2021 9:30:00 AM 16.28 61.304 0.103 7.55 1.71 10.5
5/21/2021 9:45:00 AM 16.38 61.484 0.103 7.63 1.88 10.63
5/21/2021 10:00:00 AM 16.48 61.664 0.103 7.71 1.77 10.73
5/21/2021 10:15:00 AM 16.59 61.862 0.102 7.78 1.74 10.83
5/21/2021 10:30:00 AM 16.73 62.114 0.102 7.87 1.71 10.92
5/21/2021 10:45:00 AM 16.95 62.51 0.102 8.02 1.68 11.04
5/21/2021 11:00:00 AM 17.15 62.87 0.102 8.11 1.64 11.07
5/21/2021 11:15:00 AM 17.31 63.158 0.102 8.19 1.76 11.17
5/21/2021 11:30:00 AM 17.54 63.572 0.102 8.3 1.77 11.25
5/21/2021 11:45:00 AM 17.73 63.914 0.102 8.35 1.71 11.27
5/21/2021 12:00:00 PM 17.95 64.31 0.101 8.41 1.69 11.3
5/21/2021 12:15:00 PM 18.2 64.76 0.101 8.49 1.81 11.35
5/21/2021 12:30:00 PM 18.45 65.21 0.101 8.55 1.6 11.36
5/21/2021 12:45:00 PM 18.71 65.67799 0.101 8.57 1.83 11.37
5/21/2021 1:00:00 PM 18.97 66.146 0.101 8.64 1.47 11.42
5/21/2021 1:15:00 PM 19.25 66.65 0.101 8.69 1.58 11.41
5/21/2021 1:30:00 PM 19.53 67.154 0.101 8.72 1.4 11.41
5/21/2021 1:45:00 PM 19.77 67.586 0.101 8.76 1.88 11.38
5/21/2021 2:00:00 PM 20.01 68.018 0.101 8.78 1.4 11.36
5/21/2021 2:15:00 PM 20.22 68.396 0.101 8.81 1.38 11.32
5/21/2021 2:30:00 PM 20.4 68.72 0.101 8.83 1.3 11.32
5/21/2021 2:45:00 PM 20.52 68.936 0.101 8.83 1.49 11.24
5/21/2021 3:00:00 PM 20.67 69.206 0.101 8.84 1.33 11.19
5/21/2021 3:15:00 PM 20.75 69.35 0.101 8.85 1.44 11.16
5/21/2021 3:30:00 PM 20.79 69.422 0.101 8.85 1.5 11.1
5/21/2021 3:45:00 PM 20.82 69.476 0.1 8.83 1.32 11.01
5/21/2021 4:00:00 PM 20.84 69.512 0.1 8.84 1.29 10.94
5/21/2021 4:15:00 PM 20.83 69.494 0.1 8.8 1.53 10.81
5/21/2021 4:30:00 PM 20.82 69.476 0.1 8.78 1.41 10.71
5/21/2021 4:45:00 PM 20.78 69.404 0.1 8.74 1.28 10.54
5/21/2021 5:00:00 PM 20.76 69.368 0.1 8.71 1.3 10.46
5/21/2021 5:15:00 PM 20.74 69.332 0.1 8.66 1.34 10.3
5/21/2021 5:30:00 PM 20.74 69.332 0.1 8.63 1.38 10.18
5/21/2021 5:45:00 PM 20.73 69.314 0.1 8.57 1.57 10.02
5/21/2021 6:00:00 PM 20.68 69.224 0.1 8.49 1.43 9.88
5/21/2021 6:15:00 PM 20.66 69.188 0.1 8.4 1.37 9.7
5/21/2021 6:30:00 PM 20.67 69.206 0.1 8.31 1.38 9.55
5/21/2021 6:45:00 PM 20.67 69.206 0.1 8.22 1.63 9.43
5/21/2021 7:00:00 PM 20.69 69.242 0.1 8.12 1.39 9.31
5/21/2021 7:15:00 PM 20.7 69.26 0.1 8.03 1.59 9.23
5/21/2021 7:30:00 PM 20.71 69.278 0.1 7.93 1.44 9.11
5/21/2021 7:45:00 PM 20.69 69.242 0.101 7.8 1.37 8.94
5/21/2021 8:00:00 PM 20.66 69.188 0.101 7.68 1.38 8.78
5/21/2021 8:15:00 PM 20.62 69.116 0.101 7.56 1.41 8.61
5/21/2021 8:30:00 PM 20.56 69.008 0.101 7.47 1.67 8.48
5/21/2021 8:45:00 PM 20.5 68.9 0.101 7.39 1.76 8.33
5/21/2021 9:00:00 PM 20.43 68.774 0.102 7.32 1.74 8.26
5/21/2021 9:15:00 PM 20.35 68.63 0.102 7.28 1.62 8.17
5/21/2021 9:30:00 PM 20.28 68.504 0.102 7.25 1.75 8.11
5/21/2021 9:45:00 PM 20.2 68.36 0.102 7.2 1.87 8.08
5/21/2021 10:00:00 PM 20.11 68.198 0.102 7.19 1.89 8.04
5/21/2021 10:15:00 PM 20.02 68.036 0.102 7.15 1.72 8.01
5/21/2021 10:30:00 PM 19.94 67.892 0.102 7.13 2.16 7.99
5/21/2021 10:45:00 PM 19.85 67.73 0.102 7.09 1.67 7.98
5/21/2021 11:00:00 PM 19.77 67.586 0.102 7.1 1.94 7.96
5/21/2021 11:15:00 PM 19.69 67.442 0.103 7.08 1.73 7.95
5/21/2021 11:30:00 PM 19.62 67.316 0.103 7.07 1.94 7.94
5/21/2021 11:45:00 PM 19.55 67.19 0.103 7.07 1.99 7.94
5/22/2021 12:00:00 AM 19.48 67.064 0.103 7.04 2.15 7.93
5/22/2021 12:15:00 AM 19.41 66.938 0.103 7.04 2.04 7.95
5/22/2021 12:30:00 AM 19.35 66.83 0.103 7.04 2.24 7.95
5/22/2021 12:45:00 AM 19.3 66.74 0.103 7.04 2.33 7.94
5/22/2021 1:00:00 AM 19.24 66.632 0.103 7.04 2.18 7.94
5/22/2021 1:15:00 AM 19.19 66.542 0.104 7.03 2.1 7.95
5/22/2021 1:30:00 AM 19.14 66.452 0.104 7.03 2.27 7.97
5/22/2021 1:45:00 AM 19.07 66.326 0.104 7.02 2 7.97
5/22/2021 2:00:00 AM 19.01 66.218 0.104 7.02 2.08 7.99
5/22/2021 2:15:00 AM 18.94 66.092 0.104 7.02 2.19 8.01
5/22/2021 2:30:00 AM 18.87 65.966 0.104 7.02 2.05 8.02
5/22/2021 2:45:00 AM 18.81 65.858 0.104 7.02 2.29 8.02
5/22/2021 3:00:00 AM 18.73 65.714 0.104 7.02 2.24 8.05
5/22/2021 3:15:00 AM 18.67 65.606 0.104 7.01 2.97 8.06
5/22/2021 3:30:00 AM 18.61 65.498 0.105 7.01 2.1 8.07
5/22/2021 3:45:00 AM 18.55 65.39 0.105 7.02 2.06 8.1
5/22/2021 4:00:00 AM 18.47 65.246 0.105 7.01 2.31 8.11
5/22/2021 4:15:00 AM 18.4 65.12 0.105 7 1.98 8.14
5/22/2021 4:30:00 AM 18.32 64.976 0.105 7.01 2.27 8.15
5/22/2021 4:45:00 AM 18.23 64.814 0.105 7 2.19 8.18
5/22/2021 5:00:00 AM 18.15 64.67 0.105 7 2.15 8.2
5/22/2021 5:15:00 AM 18.07 64.526 0.105 7 2.26 8.21
5/22/2021 5:30:00 AM 17.98 64.364 0.105 7.01 2.08 8.25
5/22/2021 5:45:00 AM 17.9 64.22 0.105 7.01 2.03 8.27
5/22/2021 6:00:00 AM 17.82 64.076 0.105 7.01 2.1 8.29
5/22/2021 6:15:00 AM 17.75 63.95 0.105 7.01 2.05 8.37
5/22/2021 6:30:00 AM 17.68 63.824 0.105 7.03 2.2 8.46
5/22/2021 6:45:00 AM 17.62 63.716 0.105 7.05 2.05 8.59
5/22/2021 7:00:00 AM 17.58 63.644 0.105 7.08 1.95 8.78
5/22/2021 7:15:00 AM 17.56 63.608 0.105 7.12 1.95 9
5/22/2021 7:30:00 AM 17.53 63.554 0.105 7.16 1.87 9.21
5/22/2021 7:45:00 AM 17.49 63.482 0.105 7.2 1.86 9.36
5/22/2021 8:00:00 AM 17.47 63.446 0.105 7.23 1.89 9.54
5/22/2021 8:15:00 AM 17.46 63.428 0.105 7.29 1.94 9.71
5/22/2021 8:30:00 AM 17.45 63.41 0.105 7.35 1.81 9.84
5/22/2021 8:45:00 AM 17.45 63.41 0.105 7.4 1.7 10.01
5/22/2021 9:00:00 AM 17.5 63.5 0.105 7.47 1.71 10.13
5/22/2021 9:15:00 AM 17.55 63.59 0.104 7.57 1.95 10.32
5/22/2021 9:30:00 AM 17.59 63.662 0.104 7.65 1.87 10.46
5/22/2021 9:45:00 AM 17.64 63.752 0.104 7.75 1.99 10.55
5/22/2021 10:00:00 AM 17.7 63.86 0.104 7.86 2.13 10.65
5/22/2021 10:15:00 AM 17.85 64.13 0.104 7.99 1.89 10.81
5/22/2021 10:30:00 AM 18.02 64.436 0.104 8.12 1.81 10.94
5/22/2021 10:45:00 AM 18.08 64.544 0.104 8.22 1.76 11.02
5/22/2021 11:00:00 AM 18.1 64.58 0.104 8.28 1.65 11.09
5/22/2021 11:15:00 AM 18.09 64.562 0.104 8.35 1.73 11.1
5/22/2021 11:30:00 AM 18.19 64.742 0.103 8.43 1.8 11.2
5/22/2021 11:45:00 AM 18.3 64.94 0.103 8.5 1.69 11.24
5/22/2021 12:00:00 PM 18.38 65.084 0.103 8.54 1.68 11.28
5/22/2021 12:15:00 PM 18.42 65.156 0.103 8.58 1.77 11.32
5/22/2021 12:30:00 PM 18.49 65.282 0.103 8.62 1.91 11.35
5/22/2021 12:45:00 PM 18.57 65.426 0.103 8.66 1.53 11.3
5/22/2021 1:00:00 PM 18.64 65.552 0.103 8.71 1.77 11.36
5/22/2021 1:15:00 PM 18.7 65.66 0.103 8.72 1.73 11.38
5/22/2021 1:30:00 PM 18.87 65.966 0.103 8.79 1.96 11.4
5/22/2021 1:45:00 PM 18.97 66.146 0.103 8.81 2.03 11.4
5/22/2021 2:00:00 PM 19.08 66.344 0.102 8.85 1.56 11.41
5/22/2021 2:15:00 PM 19.18 66.524 0.102 8.87 1.61 11.43
5/22/2021 2:30:00 PM 19.26 66.668 0.102 8.89 1.52 11.41
5/22/2021 2:45:00 PM 19.37 66.866 0.102 8.91 2.15 11.42
5/22/2021 3:00:00 PM 19.49 67.082 0.102 8.94 1.49 11.42
5/22/2021 3:15:00 PM 19.54 67.172 0.102 8.95 1.69 11.4
5/22/2021 3:30:00 PM 19.6 67.28 0.102 8.95 1.6 11.35
5/22/2021 3:45:00 PM 19.57 67.226 0.102 8.92 1.97 11.16
5/22/2021 4:00:00 PM 19.56 67.208 0.102 8.91 1.58 11.09
5/22/2021 4:15:00 PM 19.59 67.262 0.102 8.92 1.48 11.05
5/22/2021 4:30:00 PM 19.69 67.442 0.102 8.93 1.68 11.01
5/22/2021 4:45:00 PM 19.88 67.784 0.102 8.95 1.7 10.97
5/22/2021 5:00:00 PM 19.88 67.784 0.102 8.94 1.63 10.87
5/22/2021 5:15:00 PM 19.75 67.55 0.101 8.86 1.42 10.67
5/22/2021 5:30:00 PM 19.71 67.478 0.101 8.83 1.47 10.56
5/22/2021 5:45:00 PM 19.78 67.604 0.101 8.82 1.5 10.49
5/22/2021 6:00:00 PM 19.83 67.694 0.101 8.8 1.46 10.42
5/22/2021 6:15:00 PM 19.82 67.676 0.101 8.76 1.71 10.29
5/22/2021 6:30:00 PM 19.77 67.586 0.101 8.7 1.59 10.11
5/22/2021 6:45:00 PM 19.71 67.478 0.101 8.61 1.68 9.91
5/22/2021 7:00:00 PM 19.67 67.406 0.101 8.5 1.61 9.69
5/22/2021 7:15:00 PM 19.64 67.352 0.101 8.36 1.55 9.45
5/22/2021 7:30:00 PM 19.61 67.298 0.102 8.2 1.38 9.26
5/22/2021 7:45:00 PM 19.59 67.262 0.102 8.04 1.63 9.11
5/22/2021 8:00:00 PM 19.54 67.172 0.102 7.87 1.68 8.94
5/22/2021 8:15:00 PM 19.51 67.118 0.102 7.73 1.82 8.77
5/22/2021 8:30:00 PM 19.48 67.064 0.102 7.61 1.61 8.61
5/22/2021 8:45:00 PM 19.45 67.01 0.102 7.52 1.67 8.48
5/22/2021 9:00:00 PM 19.41 66.938 0.102 7.44 2.42 8.39
5/22/2021 9:15:00 PM 19.38 66.884 0.103 7.38 1.88 8.3
5/22/2021 9:30:00 PM 19.34 66.812 0.103 7.32 1.77 8.25
5/22/2021 9:45:00 PM 19.3 66.74 0.103 7.28 1.96 8.17
5/22/2021 10:00:00 PM 19.26 66.668 0.103 7.25 2.03 8.14
5/22/2021 10:15:00 PM 19.21 66.578 0.103 7.2 2.36 8.11
5/22/2021 10:30:00 PM 19.17 66.506 0.103 7.19 2.21 8.07
5/22/2021 10:45:00 PM 19.13 66.434 0.103 7.17 2.29 8.05
5/22/2021 11:00:00 PM 19.1 66.38 0.103 7.15 2.58 8.01
5/22/2021 11:15:00 PM 19.07 66.326 0.103 7.14 2.56 8.01
5/22/2021 11:30:00 PM 19.04 66.272 0.104 7.12 2.83 7.99
5/22/2021 11:45:00 PM 19.01 66.218 0.104 7.09 2.76 7.98
5/23/2021 12:00:00 AM 18.98 66.164 0.104 7.09 2.63 7.98
5/23/2021 12:15:00 AM 18.95 66.11 0.104 7.08 3.11 7.96
5/23/2021 12:30:00 AM 18.92 66.056 0.104 7.08 2.85 7.97
5/23/2021 12:45:00 AM 18.89 66.002 0.104 7.07 2.82 7.96
5/23/2021 1:00:00 AM 18.86 65.948 0.104 7.05 2.59 7.94
5/23/2021 1:15:00 AM 18.82 65.876 0.104 7.06 2.59 7.96
5/23/2021 1:30:00 AM 18.79 65.82201 0.105 7.06 2.38 7.95
5/23/2021 1:45:00 AM 18.76 65.768 0.105 7.05 2.61 7.96
5/23/2021 2:00:00 AM 18.73 65.714 0.105 7.05 2.18 7.97
5/23/2021 2:15:00 AM 18.69 65.642 0.105 7.05 2.06 7.96
5/23/2021 2:30:00 AM 18.65 65.57 0.105 7.04 2.3 7.98
5/23/2021 2:45:00 AM 18.6 65.48 0.105 7.04 2.36 7.98
5/23/2021 3:00:00 AM 18.55 65.39 0.105 7.03 2.56 7.99
5/23/2021 3:15:00 AM 18.52 65.336 0.105 7.04 2.34 8
5/23/2021 3:30:00 AM 18.49 65.282 0.105 7.03 2.5 8
5/23/2021 3:45:00 AM 18.46 65.228 0.105 7.04 2.52 8
5/23/2021 4:00:00 AM 18.41 65.138 0.106 7.03 2.66 8.01
5/23/2021 4:15:00 AM 18.36 65.048 0.106 7.02 2.48 8.04
5/23/2021 4:30:00 AM 18.3 64.94 0.106 7.03 2.81 8.03
5/23/2021 4:45:00 AM 18.25 64.85 0.106 7.02 2.38 8.07
5/23/2021 5:00:00 AM 18.19 64.742 0.106 7.03 2.79 8.06
5/23/2021 5:15:00 AM 18.14 64.652 0.106 7.02 2.68 8.08
5/23/2021 5:30:00 AM 18.09 64.562 0.106 7.02 2.24 8.1
5/23/2021 5:45:00 AM 18.03 64.454 0.106 7.02 2.14 8.12
5/23/2021 6:00:00 AM 17.97 64.346 0.106 7.02 2.37 8.16
5/23/2021 6:15:00 AM 17.92 64.256 0.106 7.03 2.45 8.23
5/23/2021 6:30:00 AM 17.87 64.166 0.106 7.05 2.02 8.33
5/23/2021 6:45:00 AM 17.84 64.112 0.106 7.07 1.91 8.47
5/23/2021 7:00:00 AM 17.81 64.058 0.106 7.1 2.25 8.58
5/23/2021 7:15:00 AM 17.8 64.04 0.106 7.12 3.11 8.75
5/23/2021 7:30:00 AM 17.8 64.04 0.106 7.16 2.14 8.89
5/23/2021 7:45:00 AM 17.8 64.04 0.106 7.19 1.83 9.04
5/23/2021 8:00:00 AM 17.83 64.094 0.106 7.22 1.91 9.14
5/23/2021 8:15:00 AM 17.85 64.13 0.106 7.26 1.99 9.27
5/23/2021 8:30:00 AM 17.89 64.202 0.106 7.29 2.17 9.37
5/23/2021 8:45:00 AM 17.94 64.292 0.106 7.34 1.69 9.48
5/23/2021 9:00:00 AM 17.99 64.382 0.106 7.39 1.8 9.61
5/23/2021 9:15:00 AM 18.08 64.544 0.106 7.45 1.79 9.72
5/23/2021 9:30:00 AM 18.16 64.688 0.106 7.48 1.66 9.83
5/23/2021 9:45:00 AM 18.26 64.868 0.106 7.56 1.86 9.93
5/23/2021 10:00:00 AM 18.39 65.102 0.106 7.64 1.67 10.06
5/23/2021 10:15:00 AM 18.52 65.336 0.106 7.71 1.6 10.15
5/23/2021 10:30:00 AM 18.7 65.66 0.105 7.8 1.7 10.26
5/23/2021 10:45:00 AM 18.84 65.912 0.105 7.89 1.62 10.35
5/23/2021 11:00:00 AM 19.03 66.254 0.105 7.97 1.69 10.45
5/23/2021 11:15:00 AM 19.14 66.452 0.105 8.06 1.72 10.49
5/23/2021 11:30:00 AM 19.35 66.83 0.105 8.15 1.76 10.6
5/23/2021 11:45:00 AM 19.57 67.226 0.105 8.27 1.74 10.66
5/23/2021 12:00:00 PM 19.84 67.712 0.105 8.37 1.7 10.75
5/23/2021 12:15:00 PM 19.91 67.838 0.105 8.4 1.64 10.75
5/23/2021 12:30:00 PM 20.07 68.126 0.105 8.46 1.71 10.8
5/23/2021 12:45:00 PM 20.26 68.468 0.105 8.52 1.63 10.81
5/23/2021 1:00:00 PM 20.18 68.324 0.105 8.51 1.56 10.76
5/23/2021 1:15:00 PM 20.2 68.36 0.105 8.55 1.57 10.79
5/23/2021 1:30:00 PM 20.43 68.774 0.104 8.6 1.68 10.84
5/23/2021 1:45:00 PM 20.74 69.332 0.104 8.67 1.66 10.82
5/23/2021 2:00:00 PM 20.76 69.368 0.104 8.66 1.57 10.8
5/23/2021 2:15:00 PM 20.67 69.206 0.104 8.63 1.57 10.68
5/23/2021 2:30:00 PM 20.65 69.17 0.104 8.65 1.7 10.73
5/23/2021 2:45:00 PM 20.63 69.134 0.104 8.64 1.62 10.63
5/23/2021 3:00:00 PM 20.67 69.206 0.104 8.67 1.45 10.68
5/23/2021 3:15:00 PM 20.81 69.458 0.104 8.68 5.69 10.63
5/23/2021 3:30:00 PM 20.96 69.728 0.104 8.72 1.55 10.7
5/23/2021 3:45:00 PM 20.89 69.602 0.104 8.71 1.53 10.58
5/23/2021 4:00:00 PM 20.78 69.404 0.104 8.68 1.61 10.51
5/23/2021 4:15:00 PM 20.81 69.458 0.104 8.68 1.51 10.54
5/23/2021 4:30:00 PM 20.88 69.584 0.104 8.71 1.71 10.5
5/23/2021 4:45:00 PM 20.91 69.638 0.104 8.71 1.76 10.44
5/23/2021 5:00:00 PM 20.92 69.656 0.104 8.7 1.58 10.38
5/23/2021 5:15:00 PM 21.01 69.818 0.104 8.68 1.82 10.31
5/23/2021 5:30:00 PM 21.04 69.872 0.103 8.68 1.46 10.25
5/23/2021 5:45:00 PM 21.04 69.872 0.103 8.64 1.48 10.15
5/23/2021 6:00:00 PM 21 69.8 0.104 8.57 1.7 9.93
5/23/2021 6:15:00 PM 21.03 69.854 0.103 8.52 1.65 9.84
5/23/2021 6:30:00 PM 21.04 69.872 0.103 8.47 2.37 9.68
5/23/2021 6:45:00 PM 21.03 69.854 0.104 8.39 1.48 9.57
5/23/2021 7:00:00 PM 21.02 69.836 0.104 8.31 1.58 9.42
5/23/2021 7:15:00 PM 21.01 69.818 0.104 8.19 1.71 9.27
5/23/2021 7:30:00 PM 20.99 69.782 0.104 8.04 1.39 9.05
5/23/2021 7:45:00 PM 20.95 69.71 0.104 7.88 1.53 8.87
5/23/2021 8:00:00 PM 20.91 69.638 0.104 7.76 1.66 8.69
5/23/2021 8:15:00 PM 20.85 69.53 0.104 7.65 1.55 8.53
5/23/2021 8:30:00 PM 20.8 69.44 0.105 7.54 1.74 8.36
5/23/2021 8:45:00 PM 20.73 69.314 0.105 7.46 1.83 8.2
5/23/2021 9:00:00 PM 20.66 69.188 0.105 7.37 1.77 8.08
5/23/2021 9:15:00 PM 20.59 69.062 0.105 7.34 1.78 8
5/23/2021 9:30:00 PM 20.51 68.918 0.105 7.29 1.74 7.91
5/23/2021 9:45:00 PM 20.42 68.756 0.105 7.25 1.98 7.88
5/23/2021 10:00:00 PM 20.35 68.63 0.105 7.22 1.91 7.82
5/23/2021 10:15:00 PM 20.26 68.468 0.105 7.18 2.01 7.79
5/23/2021 10:30:00 PM 20.18 68.324 0.105 7.18 1.98 7.76
5/23/2021 10:45:00 PM 20.09 68.162 0.105 7.16 2.46 7.75
5/23/2021 11:00:00 PM 20 68 0.105 7.14 2.02 7.73
5/23/2021 11:15:00 PM 19.91 67.838 0.105 7.11 2.41 7.69
5/23/2021 11:30:00 PM 19.84 67.712 0.106 7.1 2.3 7.65
5/23/2021 11:45:00 PM 19.74 67.532 0.106 7.09 2.31 7.67
5/24/2021 12:00:00 AM 19.65 67.37 0.106 7.09 2.17 7.71
5/24/2021 12:15:00 AM 19.56 67.208 0.106 7.08 2.35 7.72
5/24/2021 12:30:00 AM 19.47 67.046 0.106 7.06 2.16 7.71
5/24/2021 12:45:00 AM 19.37 66.866 0.106 7.08 2.33 7.73
5/24/2021 1:00:00 AM 19.27 66.686 0.106 7.07 2.44 7.75
5/24/2021 1:15:00 AM 19.19 66.542 0.106 7.06 2.68 7.74
5/24/2021 1:30:00 AM 19.1 66.38 0.106 7.05 2.28 7.77
5/24/2021 1:45:00 AM 19 66.2 0.106 7.06 2.6 7.79
5/24/2021 2:00:00 AM 18.9 66.02 0.106 7.06 2.42 7.81
5/24/2021 2:15:00 AM 18.82 65.876 0.106 7.06 2.57 7.81
5/24/2021 2:30:00 AM 18.74 65.732 0.107 7.06 2.37 7.84
5/24/2021 2:45:00 AM 18.64 65.552 0.107 7.07 2.33 7.89
5/24/2021 3:00:00 AM 18.55 65.39 0.107 7.06 2.83 7.9
5/24/2021 3:15:00 AM 18.47 65.246 0.107 7.06 2.43 7.93
5/24/2021 3:30:00 AM 18.39 65.102 0.107 7.05 2.87 7.96
5/24/2021 3:45:00 AM 18.29 64.922 0.107 7.06 2.47 7.97
5/24/2021 4:00:00 AM 18.2 64.76 0.107 7.06 2.3 7.99
5/24/2021 4:15:00 AM 18.1 64.58 0.107 7.06 2.95 8.02
5/24/2021 4:30:00 AM 18.01 64.418 0.107 7.04 2.33 8.02
5/24/2021 4:45:00 AM 17.92 64.256 0.107 7.05 2.38 8.06
5/24/2021 5:00:00 AM 17.83 64.094 0.107 7.06 2.41 8.09
5/24/2021 5:15:00 AM 17.73 63.914 0.107 7.05 2.46 8.12
5/24/2021 5:30:00 AM 17.64 63.752 0.107 7.05 2.31 8.12
5/24/2021 5:45:00 AM 17.54 63.572 0.107 7.05 2.77 8.17
5/24/2021 6:00:00 AM 17.45 63.41 0.107 7.04 2.28 8.21
5/24/2021 6:15:00 AM 17.37 63.266 0.107 7.06 3.25 8.26
5/24/2021 6:30:00 AM 17.31 63.158 0.107 7.08 2.19 8.4
5/24/2021 6:45:00 AM 17.27 63.086 0.107 7.11 2.22 8.52
5/24/2021 7:00:00 AM 17.23 63.014 0.107 7.14 2.31 8.73
5/24/2021 7:15:00 AM 17.22 62.996 0.107 7.18 2.14 8.96
5/24/2021 7:30:00 AM 17.2 62.96 0.107 7.22 2.12 9.11
5/24/2021 7:45:00 AM 17.14 62.852 0.107 7.23 2.24 9.15
5/24/2021 8:00:00 AM 17.1 62.78 0.107 7.26 2.09 9.24
5/24/2021 8:15:00 AM 17.08 62.744 0.107 7.29 2.46 9.38
5/24/2021 8:30:00 AM 17.09 62.762 0.107 7.35 1.97 9.62
5/24/2021 8:45:00 AM 17.1 62.78 0.107 7.43 1.98 9.81
5/24/2021 9:00:00 AM 17.18 62.924 0.107 7.5 1.9 9.96
5/24/2021 9:15:00 AM 17.25 63.05 0.107 7.6 1.93 10.18
5/24/2021 9:30:00 AM 17.29 63.122 0.107 7.68 2.09 10.3
5/24/2021 9:45:00 AM 17.31 63.158 0.106 7.77 1.81 10.47
5/24/2021 10:00:00 AM 17.36 63.248 0.106 7.88 1.97 10.6
5/24/2021 10:15:00 AM 17.57 63.626 0.106 8.02 1.98 10.75
5/24/2021 10:30:00 AM 17.63 63.734 0.106 8.11 1.84 10.83
5/24/2021 10:45:00 AM 17.58 63.644 0.106 8.16 2.26 10.89
5/24/2021 11:00:00 AM 17.55 63.59 0.106 8.22 1.9 10.96
5/24/2021 11:15:00 AM 17.53 63.554 0.106 8.27 1.97 10.97
5/24/2021 11:30:00 AM 17.52 63.536 0.106 8.32 1.8 11.01
5/24/2021 11:45:00 AM 17.49 63.482 0.106 8.35 1.88 11.02
5/24/2021 12:00:00 PM 17.48 63.464 0.106 8.37 2.31 11.01
5/24/2021 12:15:00 PM 17.47 63.446 0.106 8.38 1.74 10.99
5/24/2021 12:30:00 PM 17.43 63.374 0.106 8.38 2.02 10.94
5/24/2021 12:45:00 PM 17.4 63.32 0.106 8.39 1.79 10.93
5/24/2021 1:00:00 PM 17.38 63.284 0.106 8.38 1.6 10.89
5/24/2021 1:15:00 PM 17.36 63.248 0.106 8.39 1.65 10.87
5/24/2021 1:30:00 PM 17.33 63.194 0.106 8.39 1.9 10.84
5/24/2021 1:45:00 PM 17.31 63.158 0.105 8.36 1.81 10.81
5/24/2021 2:00:00 PM 17.29 63.122 0.105 8.37 1.86 10.75
5/24/2021 2:15:00 PM 17.26 63.068 0.105 8.36 2.33 10.74
5/24/2021 2:30:00 PM 17.24 63.032 0.102 8.37 1.95 10.74
5/24/2021 2:45:00 PM 17.21 62.978 0.105 8.35 1.7 10.69
5/24/2021 3:00:00 PM 17.2 62.96 0.105 8.36 1.6 10.69
5/24/2021 3:15:00 PM 17.19 62.942 0.105 8.35 1.78 10.7
5/24/2021 3:30:00 PM 17.18 62.924 0.105 8.38 1.57 10.7
5/24/2021 3:45:00 PM 17.14 62.852 0.105 8.31 1.58 10.56
5/24/2021 4:00:00 PM 17.1 62.78 0.105 8.26 1.67 10.47
5/24/2021 4:15:00 PM 17.06 62.708 0.105 8.16 1.68 10.33
5/24/2021 4:30:00 PM 17.04 62.672 0.105 8.13 1.66 10.32
5/24/2021 4:45:00 PM 17.03 62.654 0.105 8.1 2.85 10.25
5/24/2021 5:00:00 PM 17 62.6 0.105 8.02 1.94 10.15
5/24/2021 5:15:00 PM 16.96 62.528 0.105 7.91 1.6 9.99
5/24/2021 5:30:00 PM 16.94 62.492 0.105 7.87 1.54 9.97
5/24/2021 5:45:00 PM 16.92 62.456 0.105 7.81 1.76 9.85
5/24/2021 6:00:00 PM 16.88 62.384 0.105 7.74 1.68 9.82
5/24/2021 6:15:00 PM 16.85 62.33 0.105 7.7 1.54 9.69
5/24/2021 6:30:00 PM 16.8 62.24 0.106 7.62 1.67 9.55
5/24/2021 6:45:00 PM 16.77 62.186 0.106 7.56 1.75 9.48
5/24/2021 7:00:00 PM 16.73 62.114 0.106 7.52 1.66 9.41
5/24/2021 7:15:00 PM 16.7 62.06 0.106 7.47 1.86 9.33
5/24/2021 7:30:00 PM 16.66 61.988 0.106 7.44 1.86 9.23
5/24/2021 7:45:00 PM 16.63 61.934 0.106 7.41 1.6 9.16
5/24/2021 8:00:00 PM 16.58 61.844 0.106 7.38 1.96 9.08
5/24/2021 8:15:00 PM 16.54 61.772 0.106 7.34 1.99 9.01
5/24/2021 8:30:00 PM 16.49 61.682 0.106 7.31 1.72 8.96
5/24/2021 8:45:00 PM 16.44 61.592 0.106 7.28 1.69 8.88
5/24/2021 9:00:00 PM 16.41 61.538 0.106 7.26 2.54 8.86
5/24/2021 9:15:00 PM 16.36 61.448 0.106 7.24 1.83 8.83
5/24/2021 9:30:00 PM 16.32 61.376 0.106 7.2 2.08 8.78
5/24/2021 9:45:00 PM 16.28 61.304 0.106 7.21 2.27 8.77
5/24/2021 10:00:00 PM 16.24 61.232 0.106 7.2 2.1 8.74
5/24/2021 10:15:00 PM 16.2 61.16 0.107 7.17 2.23 8.73
5/24/2021 10:30:00 PM 16.16 61.088 0.107 7.17 2.29 8.72
5/24/2021 10:45:00 PM 16.12 61.016 0.107 7.17 2.35 8.72
5/24/2021 11:00:00 PM 16.09 60.962 0.107 7.17 1.86 8.71
5/24/2021 11:15:00 PM 16.05 60.89 0.107 7.16 2.25 8.69
5/24/2021 11:30:00 PM 16.01 60.818 0.107 7.15 2.11 8.7
5/24/2021 11:45:00 PM 15.97 60.746 0.107 7.15 2.06 8.7
5/25/2021 12:00:00 AM 15.93 60.674 0.107 7.15 2.25 8.7
5/25/2021 12:15:00 AM 15.89 60.602 0.107 7.15 2.46 8.72
5/25/2021 12:30:00 AM 15.85 60.53 0.107 7.14 2.21 8.71
5/25/2021 12:45:00 AM 15.81 60.458 0.107 7.14 2.24 8.71
5/25/2021 1:00:00 AM 15.78 60.404 0.107 7.13 2.3 8.72
5/25/2021 1:15:00 AM 15.74 60.332 0.107 7.14 2.16 8.72
5/25/2021 1:30:00 AM 15.71 60.278 0.107 7.14 2.1 8.73
5/25/2021 1:45:00 AM 15.67 60.206 0.107 7.14 2.09 8.73
5/25/2021 2:00:00 AM 15.64 60.152 0.107 7.13 2.14 8.73
5/25/2021 2:15:00 AM 15.61 60.098 0.107 7.14 2.14 8.76
5/25/2021 2:30:00 AM 15.57 60.026 0.107 7.11 2.98 8.76
5/25/2021 2:45:00 AM 15.54 59.972 0.107 7.13 2.2 8.76
5/25/2021 3:00:00 AM 15.5 59.9 0.107 7.13 2.72 8.78
5/25/2021 3:15:00 AM 15.47 59.846 0.107 7.13 2.78 8.78
5/25/2021 3:30:00 AM 15.44 59.792 0.108 7.13 2.81 8.79
5/25/2021 3:45:00 AM 15.42 59.756 0.108 7.13 2.53 8.81
5/25/2021 4:00:00 AM 15.39 59.702 0.108 7.12 2.77 8.81
5/25/2021 4:15:00 AM 15.37 59.666 0.108 7.11 2.41 8.81
5/25/2021 4:30:00 AM 15.34 59.612 0.108 7.13 2.32 8.82
5/25/2021 4:45:00 AM 15.32 59.576 0.108 7.11 2.51 8.82
5/25/2021 5:00:00 AM 15.28 59.504 0.108 7.12 2.38 8.85
5/25/2021 5:15:00 AM 15.25 59.45 0.108 7.13 2.3 8.85
5/25/2021 5:30:00 AM 15.22 59.396 0.108 7.13 2.38 8.84
5/25/2021 5:45:00 AM 15.19 59.342 0.108 7.12 2.3 8.89
5/25/2021 6:00:00 AM 15.16 59.288 0.108 7.13 2.22 8.9
5/25/2021 6:15:00 AM 15.14 59.252 0.108 7.13 2.2 8.92
5/25/2021 6:30:00 AM 15.11 59.198 0.108 7.14 2.04 9.01
5/25/2021 6:45:00 AM 15.1 59.18 0.108 7.15 2.22 9.04
5/25/2021 7:00:00 AM 15.08 59.144 0.108 7.17 2.14 9.15
5/25/2021 7:15:00 AM 15.07 59.126 0.108 7.16 2 9.28
5/25/2021 7:30:00 AM 15.06 59.108 0.108 7.22 2.04 9.4
5/25/2021 7:45:00 AM 15.06 59.108 0.108 7.24 1.95 9.53
5/25/2021 8:00:00 AM 15.08 59.144 0.107 7.28 1.89 9.73
5/25/2021 8:15:00 AM 15.09 59.162 0.107 7.33 1.92 9.93
5/25/2021 8:30:00 AM 15.13 59.234 0.107 7.39 1.87 10.15
5/25/2021 8:45:00 AM 15.17 59.306 0.107 7.45 1.94 10.28
5/25/2021 9:00:00 AM 15.22 59.396 0.107 7.51 1.86 10.48
5/25/2021 9:15:00 AM 15.22 59.396 0.107 7.57 2894.32 10.54
5/25/2021 9:30:00 AM 15.25 59.45 0.107 7.63 1.99 10.66
5/25/2021 9:45:00 AM 15.34 59.612 0.107 7.73 1.93 10.8
5/25/2021 10:00:00 AM 15.4 59.72 0.107 7.8 1.82 10.94
5/25/2021 10:15:00 AM 15.44 59.792 0.107 7.91 1.7 11.03
5/25/2021 10:30:00 AM 15.48 59.864 0.106 7.95 1.69 11.09
5/25/2021 10:45:00 AM 15.49 59.882 0.106 8.05 1.73 11.14
5/25/2021 11:00:00 AM 15.53 59.954 0.106 8.11 2.18 11.22
5/25/2021 11:15:00 AM 15.54 59.972 0.106 8.14 1.76 11.21
5/25/2021 11:30:00 AM 15.57 60.026 0.106 8.2 2.21 11.27
5/25/2021 11:45:00 AM 15.63 60.134 0.106 8.24 2 11.3
5/25/2021 12:00:00 PM 15.7 60.26 0.106 8.31 2.23 11.34
5/25/2021 12:15:00 PM 15.75 60.35 0.106 8.37 1.78 11.41
5/25/2021 12:30:00 PM 15.79 60.422 0.106 8.41 1.83 11.42
5/25/2021 12:45:00 PM 15.84 60.512 0.106 8.45 1.74 11.46
5/25/2021 1:00:00 PM 15.92 60.656 0.106 8.5 1.71 11.52
5/25/2021 1:15:00 PM 16 60.8 0.106 8.54 1.67 11.53
5/25/2021 1:30:00 PM 16.07 60.926 0.106 8.57 3.31 11.55
5/25/2021 1:45:00 PM 16.15 61.07 0.105 8.61 2.1 11.59
5/25/2021 2:00:00 PM 16.25 61.25 0.105 8.65 1.83 11.62
5/25/2021 2:15:00 PM 16.37 61.466 0.105 8.7 1.87 11.67
5/25/2021 2:30:00 PM 16.48 61.664 0.105 8.73 1.51 11.68
5/25/2021 2:45:00 PM 16.59 61.862 0.105 8.75 1.63 11.71
5/25/2021 3:00:00 PM 16.76 62.168 0.105 8.79 1.64 11.72
5/25/2021 3:15:00 PM 16.93 62.474 0.105 8.82 1.54 11.74
5/25/2021 3:30:00 PM 17.18 62.924 0.105 8.85 1.75 11.73
5/25/2021 3:45:00 PM 17.35 63.23 0.105 8.87 1.81 11.72
5/25/2021 4:00:00 PM 17.47 63.446 0.104 8.87 1.7 11.68
5/25/2021 4:15:00 PM 17.49 63.482 0.104 8.85 1.79 11.6
5/25/2021 4:30:00 PM 17.51 63.518 0.104 8.86 1.59 11.54
5/25/2021 4:45:00 PM 17.53 63.554 0.104 8.84 1.57 11.43
5/25/2021 5:00:00 PM 17.53 63.554 0.104 8.82 1.51 11.33
5/25/2021 5:15:00 PM 17.55 63.59 0.104 8.81 1.72 11.26
5/25/2021 5:30:00 PM 17.52 63.536 0.104 8.78 1.68 11.12
5/25/2021 5:45:00 PM 17.5 63.5 0.104 8.74 1.63 11.02
5/25/2021 6:00:00 PM 17.45 63.41 0.104 8.7 1.7 10.89
5/25/2021 6:15:00 PM 17.43 63.374 0.104 8.66 1.54 10.78
5/25/2021 6:30:00 PM 17.39 63.302 0.104 8.6 1.74 10.62
5/25/2021 6:45:00 PM 17.35 63.23 0.104 8.51 1.53 10.41
5/25/2021 7:00:00 PM 17.34 63.212 0.104 8.42 2.16 10.24
5/25/2021 7:15:00 PM 17.34 63.212 0.104 8.32 1.79 10.09
5/25/2021 7:30:00 PM 17.33 63.194 0.104 8.18 1.7 9.89
5/25/2021 7:45:00 PM 17.33 63.194 0.104 8.01 1.6 9.7
5/25/2021 8:00:00 PM 17.33 63.194 0.105 7.89 1.94 9.51
5/25/2021 8:15:00 PM 17.33 63.194 0.105 7.76 1.6 9.36
5/25/2021 8:30:00 PM 17.32 63.176 0.105 7.66 1.9 9.19
5/25/2021 8:45:00 PM 17.32 63.176 0.105 7.57 1.9 9.03
5/25/2021 9:00:00 PM 17.3 63.14 0.105 7.49 2 8.92
5/25/2021 9:15:00 PM 17.28 63.104 0.105 7.43 2.09 8.81
5/25/2021 9:30:00 PM 17.27 63.086 0.105 7.38 2.1 8.75
5/25/2021 9:45:00 PM 17.25 63.05 0.105 7.33 4.92 8.67
5/25/2021 10:00:00 PM 17.23 63.014 0.105 7.3 1.92 8.61
5/25/2021 10:15:00 PM 17.2 62.96 0.105 7.27 2.01 8.58
5/25/2021 10:30:00 PM 17.17 62.906 0.105 7.24 2.2 8.53
5/25/2021 10:45:00 PM 17.15 62.87 0.105 7.22 2.48 8.49
5/25/2021 11:00:00 PM 17.12 62.816 0.105 7.2 2.43 8.45
5/25/2021 11:15:00 PM 17.08 62.744 0.105 7.19 2.53 8.45
5/25/2021 11:30:00 PM 17.04 62.672 0.106 7.16 2.52 8.42
5/25/2021 11:45:00 PM 17 62.6 0.106 7.12 2.44 8.42
5/26/2021 12:00:00 AM 16.96 62.528 0.106 7.13 2.18 8.39
5/26/2021 12:15:00 AM 16.91 62.438 0.106 7.12 2.45 8.37
5/26/2021 12:30:00 AM 16.87 62.366 0.106 7.11 2.67 8.35
5/26/2021 12:45:00 AM 16.82 62.276 0.106 7.09 2.3 8.37
5/26/2021 1:00:00 AM 16.77 62.186 0.106 7.08 2.06 8.39
5/26/2021 1:15:00 AM 16.72 62.096 0.106 7.07 2.38 8.36
5/26/2021 1:30:00 AM 16.67 62.006 0.106 7.06 2.27 8.39
5/26/2021 1:45:00 AM 16.62 61.916 0.106 7.06 2.25 8.39
5/26/2021 2:00:00 AM 16.57 61.826 0.106 7.06 2.29 8.4
5/26/2021 2:15:00 AM 16.52 61.736 0.106 7.05 2.15 8.39
5/26/2021 2:30:00 AM 16.47 61.646 0.107 7.05 2.41 8.42
5/26/2021 2:45:00 AM 16.41 61.538 0.107 7.04 2.54 8.42
5/26/2021 3:00:00 AM 16.37 61.466 0.107 7.01 2.52 8.42
5/26/2021 3:15:00 AM 16.32 61.376 0.107 7.04 2.77 8.45
5/26/2021 3:30:00 AM 16.27 61.286 0.107 7.04 4.18 8.44
5/26/2021 3:45:00 AM 16.23 61.214 0.107 7.04 2.38 8.45
5/26/2021 4:00:00 AM 16.18 61.124 0.107 7.03 2.72 8.45
5/26/2021 4:15:00 AM 16.13 61.034 0.107 7.03 2.42 8.46
5/26/2021 4:30:00 AM 16.08 60.944 0.107 7.03 2.85 8.48
5/26/2021 4:45:00 AM 16.04 60.872 0.107 7.03 2.21 8.48
5/26/2021 5:00:00 AM 16 60.8 0.107 7.03 2.55 8.51
5/26/2021 5:15:00 AM 15.96 60.728 0.107 7.03 2.89 8.52
5/26/2021 5:30:00 AM 15.92 60.656 0.107 7.03 2.2 8.49
5/26/2021 5:45:00 AM 15.88 60.584 0.107 7.03 2.8 8.54
5/26/2021 6:00:00 AM 15.84 60.512 0.107 7.04 2.23 8.59
5/26/2021 6:15:00 AM 15.81 60.458 0.107 7.05 2.32 8.64
5/26/2021 6:30:00 AM 15.79 60.422 0.107 7.06 2.25 8.75
5/26/2021 6:45:00 AM 15.77 60.386 0.107 7.08 2.74 8.86
5/26/2021 7:00:00 AM 15.77 60.386 0.107 7.1 3.05 9.02
5/26/2021 7:15:00 AM 15.78 60.404 0.107 7.13 2.07 9.13
5/26/2021 7:30:00 AM 15.79 60.422 0.107 7.15 2.41 9.31
5/26/2021 7:45:00 AM 15.84 60.512 0.107 7.2 4.24 9.46
5/26/2021 8:00:00 AM 15.88 60.584 0.107 7.24 2.03 9.63
5/26/2021 8:15:00 AM 15.94 60.692 0.107 7.27 2.29 9.86
5/26/2021 8:30:00 AM 15.97 60.746 0.107 7.31 2.08 9.91
5/26/2021 8:45:00 AM 16.02 60.836 0.107 7.37 1.93 10.08
5/26/2021 9:00:00 AM 16.06 60.908 0.107 7.42 2.12 10.2
5/26/2021 9:15:00 AM 16.11 60.998 0.107 7.44 1.89 10.27
5/26/2021 9:30:00 AM 16.17 61.106 0.107 7.53 2.03 10.39
5/26/2021 9:45:00 AM 16.24 61.232 0.107 7.58 2.28 10.49
5/26/2021 10:00:00 AM 16.39 61.502 0.106 7.65 1.87 10.65
5/26/2021 10:15:00 AM 16.57 61.826 0.106 7.8 1.92 10.76
5/26/2021 10:30:00 AM 16.72 62.096 0.106 7.92 1.63 10.86
5/26/2021 10:45:00 AM 16.81 62.258 0.106 8.01 1.92 10.99
5/26/2021 11:00:00 AM 16.85 62.33 0.106 8.07 1.82 11
5/26/2021 11:15:00 AM 17.17 62.906 0.106 8.21 1.69 11.13
5/26/2021 11:30:00 AM 17.54 63.572 0.106 8.3 1.73 11.14
5/26/2021 11:45:00 AM 17.9 64.22 0.106 8.39 1.8 11.24
5/26/2021 12:00:00 PM 18.18 64.724 0.106 8.45 1.83 11.22
5/26/2021 12:15:00 PM 18.42 65.156 0.106 8.47 1.84 11.25
5/26/2021 12:30:00 PM 18.71 65.67799 0.106 8.55 1.75 11.29
5/26/2021 12:45:00 PM 18.97 66.146 0.106 8.59 1.72 11.3
5/26/2021 1:00:00 PM 19.24 66.632 0.106 8.63 1.74 11.27
5/26/2021 1:15:00 PM 19.53 67.154 0.106 8.67 1.68 11.33
5/26/2021 1:30:00 PM 19.69 67.442 0.106 8.7 1.67 11.3
5/26/2021 1:45:00 PM 20.03 68.054 0.106 8.72 1.76 11.31
5/26/2021 2:00:00 PM 20.08 68.144 0.106 8.75 1.69 11.2
5/26/2021 2:15:00 PM 19.97 67.946 0.106 8.68 1.76 10.99
5/26/2021 2:30:00 PM 19.9 67.82 0.105 8.58 1.92 10.72
5/26/2021 2:45:00 PM 20 68 0.105 8.6 1.48 10.71
5/26/2021 3:00:00 PM 20.21 68.378 0.105 8.62 1.51 10.75
5/26/2021 3:15:00 PM 20.35 68.63 0.105 8.68 1.53 10.67
5/26/2021 3:30:00 PM 20.34 68.612 0.103 8.35 14.76 10.06
5/26/2021 3:45:00 PM 20.06 68.108 0.104 8.37 2.61 10.04
5/26/2021 4:00:00 PM 20 68 0.103 8.3 2.57 10
5/26/2021 4:15:00 PM 20.13 68.234 0.104 8.38 2.39 10.13
5/26/2021 4:30:00 PM 20.17 68.306 0.104 8.37 2.79 10.04
5/26/2021 4:45:00 PM 20.27 68.486 0.104 8.35 2.47 10.03
5/26/2021 5:00:00 PM 20.32 68.576 0.104 8.34 2.88 10.02
5/26/2021 5:15:00 PM 20.31 68.558 0.103 8.3 3.77 9.94
5/26/2021 5:30:00 PM 20.28 68.504 0.103 8.21 4.68 9.77
5/26/2021 5:45:00 PM 20.17 68.306 0.104 8.08 4.87 9.58
5/26/2021 6:00:00 PM 20.2 68.36 0.104 8.03 3.87 9.52
5/26/2021 6:15:00 PM 20.2 68.36 0.105 7.94 3.38 9.39
5/26/2021 6:30:00 PM 20.17 68.306 0.105 7.87 3.16 9.21
5/26/2021 6:45:00 PM 20.14 68.252 0.106 7.74 3.18 8.97
5/26/2021 7:00:00 PM 20.12 68.216 0.106 7.62 3.23 8.74
5/26/2021 7:15:00 PM 20.12 68.216 0.107 7.53 3.25 8.57
5/26/2021 7:30:00 PM 20.14 68.252 0.108 7.46 3.32 8.39
5/26/2021 7:45:00 PM 20.14 68.252 0.109 7.4 3.51 8.18
5/26/2021 8:00:00 PM 20.13 68.234 0.11 7.35 4.41 8.07
5/26/2021 8:15:00 PM 20.11 68.198 0.11 7.3 4.84 7.94
5/26/2021 8:30:00 PM 20.08 68.144 0.11 7.26 4.56 7.87
5/26/2021 8:45:00 PM 20.01 68.018 0.108 7.22 5.05 7.88
5/26/2021 9:00:00 PM 19.9 67.82 0.104 7.16 5.88 7.91
5/26/2021 9:15:00 PM 19.79 67.622 0.103 7.12 7.9 7.92
5/26/2021 9:30:00 PM 19.7 67.46 0.103 7.09 6.39 7.94
5/26/2021 9:45:00 PM 19.65 67.37 0.103 7.08 5.91 7.95
5/26/2021 10:00:00 PM 19.63 67.334 0.103 7.09 6.64 7.93
5/26/2021 10:15:00 PM 19.61 67.298 0.104 7.09 5.99 7.88
5/26/2021 10:30:00 PM 19.6 67.28 0.105 7.09 5.85 7.87
5/26/2021 10:45:00 PM 19.59 67.262 0.105 7.08 5.58 7.86
5/26/2021 11:00:00 PM 19.57 67.226 0.105 7.08 5.09 7.83
5/26/2021 11:15:00 PM 19.55 67.19 0.106 7.08 5.4 7.82
5/26/2021 11:30:00 PM 19.51 67.118 0.106 7.08 5.05 7.82
5/26/2021 11:45:00 PM 19.47 67.046 0.106 7.08 5.46 7.81
5/27/2021 12:00:00 AM 19.42 66.956 0.107 7.07 12.04 7.78
5/27/2021 12:15:00 AM 19.36 66.848 0.107 7.05 6.11 7.81
5/27/2021 12:30:00 AM 19.29 66.722 0.107 7.03 6.52 7.77
5/27/2021 12:45:00 AM 19.2 66.56 0.107 7.03 6.37 7.78
5/27/2021 1:00:00 AM 19.11 66.398 0.107 7.02 6.33 7.81
5/27/2021 1:15:00 AM 19.01 66.218 0.107 7.02 5.47 7.8
5/27/2021 1:30:00 AM 18.91 66.038 0.106 7.01 6.8 7.81
5/27/2021 1:45:00 AM 18.81 65.858 0.106 7.01 5.27 7.8
5/27/2021 2:00:00 AM 18.72 65.696 0.106 7.01 5.74 7.81
5/27/2021 2:15:00 AM 18.62 65.516 0.107 7.01 6.24 7.82
5/27/2021 2:30:00 AM 18.53 65.354 0.107 7.01 5.84 7.79
5/27/2021 2:45:00 AM 18.44 65.192 0.107 7 6.57 7.82
5/27/2021 3:00:00 AM 18.35 65.03 0.107 7.01 7.64 7.83
5/27/2021 3:15:00 AM 18.27 64.886 0.108 7 8.25 7.84
5/27/2021 3:30:00 AM 18.19 64.742 0.108 7.01 8.3 7.82
5/27/2021 3:45:00 AM 18.11 64.598 0.109 7.01 9.51 7.84
5/27/2021 4:00:00 AM 18.03 64.454 0.109 7 10.62 7.87
5/27/2021 4:15:00 AM 17.95 64.31 0.11 7.01 11.23 7.88
5/27/2021 4:30:00 AM 17.88 64.184 0.111 7.01 10.11 7.88
5/27/2021 4:45:00 AM 17.8 64.04 0.112 7.01 10.55 7.89
5/27/2021 5:00:00 AM 17.72 63.896 0.113 7 10.78 7.95
5/27/2021 5:15:00 AM 17.64 63.752 0.116 7.01 11.62 7.95
5/27/2021 5:30:00 AM 17.56 63.608 0.118 6.98 11.16 7.96
5/27/2021 5:45:00 AM 17.49 63.482 0.121 7.01 11.71 7.97
5/27/2021 6:00:00 AM 17.43 63.374 0.123 6.99 12.59 8
5/27/2021 6:15:00 AM 17.37 63.266 0.126 7.02 12.52 8.03
5/27/2021 6:30:00 AM 17.32 63.176 0.129 7.02 12.48 8.06
5/27/2021 6:45:00 AM 17.27 63.086 0.131 7.04 11.53 8.14
5/27/2021 7:00:00 AM 17.23 63.014 0.133 7.04 12.89 8.18
5/27/2021 7:15:00 AM 17.19 62.942 0.135 7.07 13.03 8.23
5/27/2021 7:30:00 AM 17.17 62.906 0.137 7.09 13.69 8.32
5/27/2021 7:45:00 AM 17.18 62.924 0.138 7.11 14.89 8.45
5/27/2021 8:00:00 AM 17.2 62.96 0.138 7.14 16.47 8.53
5/27/2021 8:15:00 AM 17.23 63.014 0.139 7.16 14.94 8.62
5/27/2021 8:30:00 AM 17.25 63.05 0.139 7.18 15.7 8.69
5/27/2021 8:45:00 AM 17.29 63.122 0.139 7.21 14.96 8.79
5/27/2021 9:00:00 AM 17.34 63.212 0.139 7.23 15.37 8.89
5/27/2021 9:15:00 AM 17.41 63.338 0.139 7.26 15.31 9
5/27/2021 9:30:00 AM 17.45 63.41 0.138 7.25 15.54 9.09
5/27/2021 9:45:00 AM 17.54 63.572 0.138 7.32 15.27 9.21
5/27/2021 10:00:00 AM 17.64 63.752 0.137 7.36 13.07 9.33
5/27/2021 10:15:00 AM 17.74 63.932 0.136 7.39 12.52 9.42
5/27/2021 10:30:00 AM 17.85 64.13 0.135 7.43 11.87 9.55
5/27/2021 10:45:00 AM 17.98 64.364 0.134 7.48 11.51 9.63
5/27/2021 11:00:00 AM 18.14 64.652 0.133 7.54 10.02 9.73
5/27/2021 11:15:00 AM 18.3 64.94 0.132 7.57 9.43 9.89
5/27/2021 11:30:00 AM 18.5 65.3 0.131 7.63 8.85 10.02
5/27/2021 11:45:00 AM 18.68 65.624 0.13 7.69 8.35 10.08
5/27/2021 12:00:00 PM 18.88 65.984 0.13 7.77 8.15 10.19
5/27/2021 12:15:00 PM 19.1 66.38 0.129 7.83 7.71 10.25
5/27/2021 12:30:00 PM 19.34 66.812 0.128 7.9 7.22 10.35
5/27/2021 12:45:00 PM 19.57 67.226 0.128 7.97 7.27 10.41
5/27/2021 1:00:00 PM 19.81 67.658 0.128 8.04 6.86 10.48
5/27/2021 1:15:00 PM 20.05 68.09 0.128 8.09 6.78 10.51
5/27/2021 1:30:00 PM 20.28 68.504 0.128 8.17 7.06 10.54
5/27/2021 1:45:00 PM 20.48 68.864 0.128 8.22 6.44 10.58
5/27/2021 2:00:00 PM 20.68 69.224 0.128 8.27 6.24 10.6
5/27/2021 2:15:00 PM 20.85 69.53 0.128 8.3 6.05 10.55
5/27/2021 2:30:00 PM 20.97 69.746 0.129 8.29 6.02 10.57
5/27/2021 2:45:00 PM 21.12 70.016 0.129 8.33 6.94 10.52
5/27/2021 3:00:00 PM 21.21 70.17799 0.13 8.32 5.41 10.47
5/27/2021 3:15:00 PM 21.28 70.304 0.13 8.34 5.45 10.43
5/27/2021 3:30:00 PM 21.3 70.34 0.13 8.27 5.52 10.33
5/27/2021 3:45:00 PM 21.22 70.196 0.131 8.27 5.28 10.21
5/27/2021 4:00:00 PM 21.07 69.926 0.131 8.17 4.76 10.06
5/27/2021 4:15:00 PM 21.03 69.854 0.131 8.14 4.71 10.02
5/27/2021 4:30:00 PM 21.09 69.962 0.131 8.13 5.65 9.91
5/27/2021 4:45:00 PM 21.07 69.926 0.132 8.06 5.08 9.79
5/27/2021 5:00:00 PM 20.97 69.746 0.132 7.99 4.53 9.58
5/27/2021 5:15:00 PM 20.82 69.476 0.132 7.83 4.34 9.39
5/27/2021 5:30:00 PM 20.77 69.386 0.132 7.77 4.43 9.21
5/27/2021 5:45:00 PM 20.81 69.458 0.132 7.76 4.15 9.21
5/27/2021 6:00:00 PM 20.8 69.44 0.132 7.71 4.05 9.11
5/27/2021 6:15:00 PM 20.8 69.44 0.132 7.68 4.29 8.92
5/27/2021 6:30:00 PM 20.73 69.314 0.132 7.59 3.98 8.78
5/27/2021 6:45:00 PM 20.67 69.206 0.131 7.52 3.93 8.6
5/27/2021 7:00:00 PM 20.63 69.134 0.131 7.48 3.71 8.44
5/27/2021 7:15:00 PM 20.58 69.044 0.131 7.44 3.75 8.34
5/27/2021 7:30:00 PM 20.53 68.954 0.131 7.4 3.79 8.25
5/27/2021 7:45:00 PM 20.47 68.846 0.13 7.36 3.72 8.15
5/27/2021 8:00:00 PM 20.4 68.72 0.13 7.34 3.91 8.07
5/27/2021 8:15:00 PM 20.32 68.576 0.13 7.29 3.55 7.96
5/27/2021 8:30:00 PM 20.23 68.414 0.13 7.27 4.1 7.9
5/27/2021 8:45:00 PM 20.14 68.252 0.129 7.25 3.76 7.83
5/27/2021 9:00:00 PM 20.04 68.07201 0.129 7.23 3.55 7.79
5/27/2021 9:15:00 PM 19.93 67.874 0.129 7.2 3.63 7.78
5/27/2021 9:30:00 PM 19.82 67.676 0.129 7.18 3.49 7.73
5/27/2021 9:45:00 PM 19.72 67.496 0.128 7.16 3.91 7.74
5/27/2021 10:00:00 PM 19.61 67.298 0.128 7.14 3.81 7.69
5/27/2021 10:15:00 PM 19.5 67.1 0.128 7.13 3.68 7.7
5/27/2021 10:30:00 PM 19.39 66.902 0.128 7.13 4.55 7.7
5/27/2021 10:45:00 PM 19.28 66.704 0.127 7.12 3.98 7.68
5/27/2021 11:00:00 PM 19.17 66.506 0.127 7.12 3.53 7.72
5/27/2021 11:15:00 PM 19.06 66.308 0.127 7.12 3.54 7.73
5/27/2021 11:30:00 PM 18.95 66.11 0.127 7.06 3.83 7.74
5/27/2021 11:45:00 PM 18.84 65.912 0.126 7.1 3.31 7.76
5/28/2021 12:00:00 AM 18.75 65.75 0.126 7.09 3.59 7.75
5/28/2021 12:15:00 AM 18.66 65.588 0.126 7.09 4.65 7.77
5/28/2021 12:30:00 AM 18.57 65.426 0.126 7.09 3.36 7.77
5/28/2021 12:45:00 AM 18.48 65.264 0.126 7.09 4.09 7.8
5/28/2021 1:00:00 AM 18.4 65.12 0.126 7.09 4.73 7.78
5/28/2021 1:15:00 AM 18.32 64.976 0.125 7.08 4.34 7.8
5/28/2021 1:30:00 AM 18.23 64.814 0.125 7.08 3.36 7.82
5/28/2021 1:45:00 AM 18.14 64.652 0.125 7.08 3.44 7.86
5/28/2021 2:00:00 AM 18.05 64.49 0.125 7.08 3.58 7.91
5/28/2021 2:15:00 AM 17.96 64.328 0.125 7.08 3.75 7.9
5/28/2021 2:30:00 AM 17.89 64.202 0.125 7.08 3.27 7.9
5/28/2021 2:45:00 AM 17.8 64.04 0.123 7.08 3.04 7.94
5/28/2021 3:00:00 AM 17.73 63.914 0.125 7.07 3.48 7.95
5/28/2021 3:15:00 AM 17.65 63.77 0.125 7.08 3.09 7.95
5/28/2021 3:30:00 AM 17.57 63.626 0.124 7.08 3.01 7.97
5/28/2021 3:45:00 AM 17.49 63.482 0.124 7.05 3.07 8
5/28/2021 4:00:00 AM 17.4 63.32 0.124 7.08 3.37 8.04
5/28/2021 4:15:00 AM 17.31 63.158 0.124 7.08 4.41 8.07
5/28/2021 4:30:00 AM 17.23 63.014 0.124 7.08 2.83 8.1
5/28/2021 4:45:00 AM 17.14 62.852 0.124 7.06 3.1 8.11
5/28/2021 5:00:00 AM 17.05 62.69 0.124 7.08 2.9 8.14
5/28/2021 5:15:00 AM 16.94 62.492 0.123 7.08 3.28 8.15
5/28/2021 5:30:00 AM 16.84 62.312 0.123 7.08 4.38 8.16
5/28/2021 5:45:00 AM 16.74 62.132 0.123 7.08 2.89 8.2
5/28/2021 6:00:00 AM 16.65 61.97 0.123 7.08 2.63 8.28
5/28/2021 6:15:00 AM 16.56 61.808 0.123 7.09 2.84 8.34
5/28/2021 6:30:00 AM 16.49 61.682 0.123 7.11 2.75 8.46
5/28/2021 6:45:00 AM 16.42 61.556 0.123 7.12 2.7 8.53
5/28/2021 7:00:00 AM 16.37 61.466 0.122 7.15 3.28 8.7
5/28/2021 7:15:00 AM 16.31 61.358 0.122 7.17 2.65 8.78
5/28/2021 7:30:00 AM 16.24 61.232 0.122 7.18 2.53 8.84
5/28/2021 7:45:00 AM 16.17 61.106 0.122 7.16 2.64 8.9
5/28/2021 8:00:00 AM 16.1 60.98 0.122 7.21 2.62 8.98
5/28/2021 8:15:00 AM 16.04 60.872 0.122 7.22 2.77 9.01
5/28/2021 8:30:00 AM 15.99 60.782 0.122 7.24 2.25 9.13
5/28/2021 8:45:00 AM 15.94 60.692 0.121 7.26 2.4 9.22
5/28/2021 9:00:00 AM 15.91 60.638 0.121 7.29 2.25 9.37
5/28/2021 9:15:00 AM 15.92 60.656 0.121 7.33 2.26 9.55
5/28/2021 9:30:00 AM 15.97 60.746 0.121 7.39 1.98 9.74
5/28/2021 9:45:00 AM 16.01 60.818 0.12 7.45 2.29 9.95
5/28/2021 10:00:00 AM 16.02 60.836 0.12 7.51 2.25 10.11
5/28/2021 10:15:00 AM 16 60.8 0.12